<?xml version="1.0" encoding="UTF-8" standalone="no" ?>
<gpx xmlns="http://www.topografix.com/GPX/1/1" xmlns:xsi="http://www.w3.org/2001/XMLSchema-instance" xsi:schemaLocation="http://www.topografix.com/GPX/1/1 http://www.topografix.com/GPX/1/1/gpx.xsd" version="1.1" creator="VisuGPX - https://www.visugpx.com">
  <metadata>
    <name>Les Montils VTT 19 janv. 2021 à 14:12 bu</name>
    <desc><![CDATA[Les Montils port de Chaumont VTT 19 janv. 2021 ]]></desc>
  </metadata>
  <trk>
    <name><![CDATA[Les Montils VTT 19 janv. 2021 à 14:12]]></name>
    <extensions>
      <line xmlns="http://www.topografix.com/GPX/gpx_style/0/2">
        <color>0000FF</color>
        <width>4</width>
      </line>
    </extensions>
    <trkseg>
      <trkpt lat="47.49629" lon="1.28975">
        <ele>117.35065023563</ele>
        <time>2021-01-19T13:12:19Z</time>
      </trkpt>
      <trkpt lat="47.49627" lon="1.28962">
        <ele>95.912036877969</ele>
        <time>2021-01-19T13:15:25Z</time>
      </trkpt>
      <trkpt lat="47.49632" lon="1.28951">
        <ele>87.747598421562</ele>
        <time>2021-01-19T13:15:41Z</time>
      </trkpt>
      <trkpt lat="47.49636" lon="1.28961">
        <ele>93.526686325625</ele>
        <time>2021-01-19T13:16:17Z</time>
      </trkpt>
      <trkpt lat="47.4964" lon="1.28971">
        <ele>100.32368461047</ele>
        <time>2021-01-19T13:16:24Z</time>
      </trkpt>
      <trkpt lat="47.49644" lon="1.28982">
        <ele>96.661890620937</ele>
        <time>2021-01-19T13:17:16Z</time>
      </trkpt>
      <trkpt lat="47.49652" lon="1.2899">
        <ele>95.813761913906</ele>
        <time>2021-01-19T13:17:21Z</time>
      </trkpt>
      <trkpt lat="47.49661" lon="1.28983">
        <ele>93.434722182656</ele>
        <time>2021-01-19T13:17:25Z</time>
      </trkpt>
      <trkpt lat="47.49673" lon="1.28978">
        <ele>93.031841955</ele>
        <time>2021-01-19T13:17:30Z</time>
      </trkpt>
      <trkpt lat="47.49682" lon="1.28972">
        <ele>92.244235967813</ele>
        <time>2021-01-19T13:17:34Z</time>
      </trkpt>
      <trkpt lat="47.49692" lon="1.28968">
        <ele>91.127374272656</ele>
        <time>2021-01-19T13:17:38Z</time>
      </trkpt>
      <trkpt lat="47.49699" lon="1.28965">
        <ele>91.455015215625</ele>
        <time>2021-01-19T13:17:42Z</time>
      </trkpt>
      <trkpt lat="47.49707" lon="1.28961">
        <ele>91.405443412969</ele>
        <time>2021-01-19T13:17:46Z</time>
      </trkpt>
      <trkpt lat="47.49717" lon="1.28953">
        <ele>92.350259265625</ele>
        <time>2021-01-19T13:17:51Z</time>
      </trkpt>
      <trkpt lat="47.49727" lon="1.28946">
        <ele>92.341971353437</ele>
        <time>2021-01-19T13:17:55Z</time>
      </trkpt>
      <trkpt lat="47.49736" lon="1.28941">
        <ele>92.411269084844</ele>
        <time>2021-01-19T13:17:59Z</time>
      </trkpt>
      <trkpt lat="47.49748" lon="1.28932">
        <ele>91.399910784531</ele>
        <time>2021-01-19T13:18:04Z</time>
      </trkpt>
      <trkpt lat="47.49759" lon="1.28925">
        <ele>91.566391204688</ele>
        <time>2021-01-19T13:18:08Z</time>
      </trkpt>
      <trkpt lat="47.49769" lon="1.28918">
        <ele>90.037762710313</ele>
        <time>2021-01-19T13:18:12Z</time>
      </trkpt>
      <trkpt lat="47.49779" lon="1.28912">
        <ele>90.366411820625</ele>
        <time>2021-01-19T13:18:16Z</time>
      </trkpt>
      <trkpt lat="47.4979" lon="1.28908">
        <ele>90.460110619375</ele>
        <time>2021-01-19T13:18:20Z</time>
      </trkpt>
      <trkpt lat="47.498" lon="1.28904">
        <ele>90.441354100313</ele>
        <time>2021-01-19T13:18:24Z</time>
      </trkpt>
      <trkpt lat="47.49811" lon="1.289">
        <ele>89.949393894844</ele>
        <time>2021-01-19T13:18:28Z</time>
      </trkpt>
      <trkpt lat="47.49825" lon="1.28896">
        <ele>89.120681466875</ele>
        <time>2021-01-19T13:18:33Z</time>
      </trkpt>
      <trkpt lat="47.49837" lon="1.28892">
        <ele>88.925491675938</ele>
        <time>2021-01-19T13:18:38Z</time>
      </trkpt>
      <trkpt lat="47.49847" lon="1.28889">
        <ele>87.600631488281</ele>
        <time>2021-01-19T13:18:42Z</time>
      </trkpt>
      <trkpt lat="47.49858" lon="1.28884">
        <ele>87.355524334687</ele>
        <time>2021-01-19T13:18:46Z</time>
      </trkpt>
      <trkpt lat="47.49873" lon="1.28877">
        <ele>87.723989821406</ele>
        <time>2021-01-19T13:18:51Z</time>
      </trkpt>
      <trkpt lat="47.49886" lon="1.28872">
        <ele>86.776869945469</ele>
        <time>2021-01-19T13:18:55Z</time>
      </trkpt>
      <trkpt lat="47.49901" lon="1.28865">
        <ele>85.130549804375</ele>
        <time>2021-01-19T13:19:00Z</time>
      </trkpt>
      <trkpt lat="47.49913" lon="1.28861">
        <ele>84.468578898437</ele>
        <time>2021-01-19T13:19:04Z</time>
      </trkpt>
      <trkpt lat="47.49929" lon="1.28853">
        <ele>85.262983745469</ele>
        <time>2021-01-19T13:19:09Z</time>
      </trkpt>
      <trkpt lat="47.49942" lon="1.2885">
        <ele>85.011354195</ele>
        <time>2021-01-19T13:19:13Z</time>
      </trkpt>
      <trkpt lat="47.49954" lon="1.28845">
        <ele>85.184622202344</ele>
        <time>2021-01-19T13:19:17Z</time>
      </trkpt>
      <trkpt lat="47.49966" lon="1.2884">
        <ele>86.289603509844</ele>
        <time>2021-01-19T13:19:22Z</time>
      </trkpt>
      <trkpt lat="47.49978" lon="1.28834">
        <ele>86.154278767187</ele>
        <time>2021-01-19T13:19:27Z</time>
      </trkpt>
      <trkpt lat="47.49989" lon="1.28829">
        <ele>87.205350146875</ele>
        <time>2021-01-19T13:19:31Z</time>
      </trkpt>
      <trkpt lat="47.49997" lon="1.2882">
        <ele>87.865002944687</ele>
        <time>2021-01-19T13:19:35Z</time>
      </trkpt>
      <trkpt lat="47.50004" lon="1.28808">
        <ele>88.298950195312</ele>
        <time>2021-01-19T13:19:39Z</time>
      </trkpt>
      <trkpt lat="47.50011" lon="1.28795">
        <ele>88.42138671875</ele>
        <time>2021-01-19T13:19:43Z</time>
      </trkpt>
      <trkpt lat="47.5002" lon="1.28778">
        <ele>88.833435058594</ele>
        <time>2021-01-19T13:19:48Z</time>
      </trkpt>
      <trkpt lat="47.5003" lon="1.28759">
        <ele>88.029663085938</ele>
        <time>2021-01-19T13:19:53Z</time>
      </trkpt>
      <trkpt lat="47.50039" lon="1.28743">
        <ele>87.315307617188</ele>
        <time>2021-01-19T13:19:57Z</time>
      </trkpt>
      <trkpt lat="47.50049" lon="1.28724">
        <ele>87.214172363281</ele>
        <time>2021-01-19T13:20:02Z</time>
      </trkpt>
      <trkpt lat="47.50059" lon="1.28706">
        <ele>87.362731933594</ele>
        <time>2021-01-19T13:20:07Z</time>
      </trkpt>
      <trkpt lat="47.50068" lon="1.28689">
        <ele>86.46630859375</ele>
        <time>2021-01-19T13:20:11Z</time>
      </trkpt>
      <trkpt lat="47.5008" lon="1.28672">
        <ele>86.159851074219</ele>
        <time>2021-01-19T13:20:16Z</time>
      </trkpt>
      <trkpt lat="47.50089" lon="1.28659">
        <ele>87.130249023438</ele>
        <time>2021-01-19T13:20:20Z</time>
      </trkpt>
      <trkpt lat="47.50097" lon="1.28644">
        <ele>88.505859375</ele>
        <time>2021-01-19T13:20:24Z</time>
      </trkpt>
      <trkpt lat="47.50105" lon="1.28629">
        <ele>87.664733886719</ele>
        <time>2021-01-19T13:20:28Z</time>
      </trkpt>
      <trkpt lat="47.50115" lon="1.2861">
        <ele>84.985412597656</ele>
        <time>2021-01-19T13:20:33Z</time>
      </trkpt>
      <trkpt lat="47.50122" lon="1.28594">
        <ele>85.142150878906</ele>
        <time>2021-01-19T13:20:37Z</time>
      </trkpt>
      <trkpt lat="47.50128" lon="1.28578">
        <ele>85.747375488281</ele>
        <time>2021-01-19T13:20:41Z</time>
      </trkpt>
      <trkpt lat="47.50132" lon="1.28561">
        <ele>86.634399414062</ele>
        <time>2021-01-19T13:20:45Z</time>
      </trkpt>
      <trkpt lat="47.50137" lon="1.28539">
        <ele>88.174926757812</ele>
        <time>2021-01-19T13:20:50Z</time>
      </trkpt>
      <trkpt lat="47.50139" lon="1.28521">
        <ele>89.2255859375</ele>
        <time>2021-01-19T13:20:54Z</time>
      </trkpt>
      <trkpt lat="47.50141" lon="1.28499">
        <ele>88.460693359375</ele>
        <time>2021-01-19T13:20:59Z</time>
      </trkpt>
      <trkpt lat="47.50143" lon="1.28479">
        <ele>87.970764160156</ele>
        <time>2021-01-19T13:21:03Z</time>
      </trkpt>
      <trkpt lat="47.50145" lon="1.2846">
        <ele>88.686950683594</ele>
        <time>2021-01-19T13:21:07Z</time>
      </trkpt>
      <trkpt lat="47.50146" lon="1.28439">
        <ele>90.575500488281</ele>
        <time>2021-01-19T13:21:12Z</time>
      </trkpt>
      <trkpt lat="47.50148" lon="1.28422">
        <ele>88.546875</ele>
        <time>2021-01-19T13:21:16Z</time>
      </trkpt>
      <trkpt lat="47.50147" lon="1.28404">
        <ele>89.818603515625</ele>
        <time>2021-01-19T13:21:21Z</time>
      </trkpt>
      <trkpt lat="47.50146" lon="1.28383">
        <ele>90.505615234375</ele>
        <time>2021-01-19T13:21:26Z</time>
      </trkpt>
      <trkpt lat="47.50142" lon="1.28367">
        <ele>92.187377929688</ele>
        <time>2021-01-19T13:21:30Z</time>
      </trkpt>
      <trkpt lat="47.50137" lon="1.28349">
        <ele>89.992797851562</ele>
        <time>2021-01-19T13:21:35Z</time>
      </trkpt>
      <trkpt lat="47.50133" lon="1.28335">
        <ele>90.615112304688</ele>
        <time>2021-01-19T13:21:39Z</time>
      </trkpt>
      <trkpt lat="47.50127" lon="1.28317">
        <ele>84.020324707031</ele>
        <time>2021-01-19T13:21:44Z</time>
      </trkpt>
      <trkpt lat="47.50124" lon="1.28304">
        <ele>86.716674804688</ele>
        <time>2021-01-19T13:21:48Z</time>
      </trkpt>
      <trkpt lat="47.50119" lon="1.2829">
        <ele>89.63134765625</ele>
        <time>2021-01-19T13:21:52Z</time>
      </trkpt>
      <trkpt lat="47.50115" lon="1.28279">
        <ele>91.119873046875</ele>
        <time>2021-01-19T13:21:56Z</time>
      </trkpt>
      <trkpt lat="47.50108" lon="1.28261">
        <ele>89.975280761719</ele>
        <time>2021-01-19T13:22:00Z</time>
      </trkpt>
      <trkpt lat="47.50101" lon="1.28242">
        <ele>92.113037109375</ele>
        <time>2021-01-19T13:22:05Z</time>
      </trkpt>
      <trkpt lat="47.50095" lon="1.28226">
        <ele>93.077880859375</ele>
        <time>2021-01-19T13:22:09Z</time>
      </trkpt>
      <trkpt lat="47.50089" lon="1.28212">
        <ele>91.413940429688</ele>
        <time>2021-01-19T13:22:13Z</time>
      </trkpt>
      <trkpt lat="47.50081" lon="1.28198">
        <ele>95.03076171875</ele>
        <time>2021-01-19T13:22:17Z</time>
      </trkpt>
      <trkpt lat="47.50075" lon="1.28182">
        <ele>97.926635742188</ele>
        <time>2021-01-19T13:22:21Z</time>
      </trkpt>
      <trkpt lat="47.50067" lon="1.28163">
        <ele>98.5986328125</ele>
        <time>2021-01-19T13:22:25Z</time>
      </trkpt>
      <trkpt lat="47.50058" lon="1.28139">
        <ele>100.82696533203</ele>
        <time>2021-01-19T13:22:30Z</time>
      </trkpt>
      <trkpt lat="47.50049" lon="1.28118">
        <ele>97.346984863281</ele>
        <time>2021-01-19T13:22:34Z</time>
      </trkpt>
      <trkpt lat="47.50041" lon="1.28101">
        <ele>96.767211914062</ele>
        <time>2021-01-19T13:22:38Z</time>
      </trkpt>
      <trkpt lat="47.50034" lon="1.28089">
        <ele>97.690246582031</ele>
        <time>2021-01-19T13:22:42Z</time>
      </trkpt>
      <trkpt lat="47.50025" lon="1.28069">
        <ele>96.136352539062</ele>
        <time>2021-01-19T13:22:47Z</time>
      </trkpt>
      <trkpt lat="47.50019" lon="1.28052">
        <ele>99.519287109375</ele>
        <time>2021-01-19T13:22:51Z</time>
      </trkpt>
      <trkpt lat="47.50011" lon="1.28031">
        <ele>104.35540771484</ele>
        <time>2021-01-19T13:22:56Z</time>
      </trkpt>
      <trkpt lat="47.50008" lon="1.2801">
        <ele>102.15417480469</ele>
        <time>2021-01-19T13:23:00Z</time>
      </trkpt>
      <trkpt lat="47.50008" lon="1.27992">
        <ele>101.01318359375</ele>
        <time>2021-01-19T13:23:04Z</time>
      </trkpt>
      <trkpt lat="47.5001" lon="1.27969">
        <ele>94.00439453125</ele>
        <time>2021-01-19T13:23:08Z</time>
      </trkpt>
      <trkpt lat="47.50016" lon="1.27938">
        <ele>86.875671386719</ele>
        <time>2021-01-19T13:23:13Z</time>
      </trkpt>
      <trkpt lat="47.50023" lon="1.27918">
        <ele>85.234619140625</ele>
        <time>2021-01-19T13:23:17Z</time>
      </trkpt>
      <trkpt lat="47.50028" lon="1.27898">
        <ele>83.853759765625</ele>
        <time>2021-01-19T13:23:21Z</time>
      </trkpt>
      <trkpt lat="47.50034" lon="1.27874">
        <ele>83.432067871094</ele>
        <time>2021-01-19T13:23:26Z</time>
      </trkpt>
      <trkpt lat="47.50039" lon="1.27856">
        <ele>82.887878417969</ele>
        <time>2021-01-19T13:23:30Z</time>
      </trkpt>
      <trkpt lat="47.50043" lon="1.27839">
        <ele>82.722351074219</ele>
        <time>2021-01-19T13:23:34Z</time>
      </trkpt>
      <trkpt lat="47.50047" lon="1.27822">
        <ele>82.812927246094</ele>
        <time>2021-01-19T13:23:38Z</time>
      </trkpt>
      <trkpt lat="47.50052" lon="1.27805">
        <ele>82.556518554688</ele>
        <time>2021-01-19T13:23:42Z</time>
      </trkpt>
      <trkpt lat="47.50057" lon="1.27784">
        <ele>82.826416015625</ele>
        <time>2021-01-19T13:23:47Z</time>
      </trkpt>
      <trkpt lat="47.50059" lon="1.27767">
        <ele>83.754821777344</ele>
        <time>2021-01-19T13:23:51Z</time>
      </trkpt>
      <trkpt lat="47.5006" lon="1.27747">
        <ele>83.78564453125</ele>
        <time>2021-01-19T13:23:56Z</time>
      </trkpt>
      <trkpt lat="47.50063" lon="1.27732">
        <ele>83.88427734375</ele>
        <time>2021-01-19T13:24:00Z</time>
      </trkpt>
      <trkpt lat="47.50063" lon="1.27717">
        <ele>84.699890136719</ele>
        <time>2021-01-19T13:24:04Z</time>
      </trkpt>
      <trkpt lat="47.50063" lon="1.27697">
        <ele>83.65576171875</ele>
        <time>2021-01-19T13:24:09Z</time>
      </trkpt>
      <trkpt lat="47.50063" lon="1.27682">
        <ele>84.328125</ele>
        <time>2021-01-19T13:24:13Z</time>
      </trkpt>
      <trkpt lat="47.50061" lon="1.27661">
        <ele>84.639343261719</ele>
        <time>2021-01-19T13:24:18Z</time>
      </trkpt>
      <trkpt lat="47.50062" lon="1.27643">
        <ele>84.002136230469</ele>
        <time>2021-01-19T13:24:22Z</time>
      </trkpt>
      <trkpt lat="47.50063" lon="1.2762">
        <ele>85.180603027344</ele>
        <time>2021-01-19T13:24:27Z</time>
      </trkpt>
      <trkpt lat="47.50065" lon="1.27602">
        <ele>84.782104492188</ele>
        <time>2021-01-19T13:24:31Z</time>
      </trkpt>
      <trkpt lat="47.50061" lon="1.27583">
        <ele>85.5751953125</ele>
        <time>2021-01-19T13:24:36Z</time>
      </trkpt>
      <trkpt lat="47.50054" lon="1.27576">
        <ele>89.358215332031</ele>
        <time>2021-01-19T13:24:40Z</time>
      </trkpt>
      <trkpt lat="47.50047" lon="1.27567">
        <ele>91.249755859375</ele>
        <time>2021-01-19T13:24:44Z</time>
      </trkpt>
      <trkpt lat="47.50038" lon="1.27556">
        <ele>95.235534667969</ele>
        <time>2021-01-19T13:24:48Z</time>
      </trkpt>
      <trkpt lat="47.50027" lon="1.2754">
        <ele>93.548217773438</ele>
        <time>2021-01-19T13:24:53Z</time>
      </trkpt>
      <trkpt lat="47.50015" lon="1.27529">
        <ele>92.342468261719</ele>
        <time>2021-01-19T13:24:57Z</time>
      </trkpt>
      <trkpt lat="47.50005" lon="1.27519">
        <ele>91.827514648438</ele>
        <time>2021-01-19T13:25:01Z</time>
      </trkpt>
      <trkpt lat="47.49998" lon="1.27509">
        <ele>90.56484020625</ele>
        <time>2021-01-19T13:25:05Z</time>
      </trkpt>
      <trkpt lat="47.49987" lon="1.27496">
        <ele>94.060939522344</ele>
        <time>2021-01-19T13:25:10Z</time>
      </trkpt>
      <trkpt lat="47.49978" lon="1.27485">
        <ele>95.588577379063</ele>
        <time>2021-01-19T13:25:14Z</time>
      </trkpt>
      <trkpt lat="47.49965" lon="1.27474">
        <ele>99.978714659062</ele>
        <time>2021-01-19T13:25:19Z</time>
      </trkpt>
      <trkpt lat="47.49956" lon="1.2747">
        <ele>101.84136872844</ele>
        <time>2021-01-19T13:25:23Z</time>
      </trkpt>
      <trkpt lat="47.49946" lon="1.27464">
        <ele>101.23105969203</ele>
        <time>2021-01-19T13:25:27Z</time>
      </trkpt>
      <trkpt lat="47.49936" lon="1.27457">
        <ele>103.29285927625</ele>
        <time>2021-01-19T13:25:31Z</time>
      </trkpt>
      <trkpt lat="47.49929" lon="1.27447">
        <ele>102.5079058675</ele>
        <time>2021-01-19T13:25:35Z</time>
      </trkpt>
      <trkpt lat="47.49918" lon="1.27438">
        <ele>97.179589328125</ele>
        <time>2021-01-19T13:25:40Z</time>
      </trkpt>
      <trkpt lat="47.4991" lon="1.27431">
        <ele>104.13911019531</ele>
        <time>2021-01-19T13:25:44Z</time>
      </trkpt>
      <trkpt lat="47.49901" lon="1.27428">
        <ele>105.59480552281</ele>
        <time>2021-01-19T13:25:48Z</time>
      </trkpt>
      <trkpt lat="47.4989" lon="1.2742">
        <ele>109.9164940375</ele>
        <time>2021-01-19T13:25:53Z</time>
      </trkpt>
      <trkpt lat="47.4988" lon="1.27412">
        <ele>115.40576373609</ele>
        <time>2021-01-19T13:25:58Z</time>
      </trkpt>
      <trkpt lat="47.49868" lon="1.27399">
        <ele>113.02816490563</ele>
        <time>2021-01-19T13:26:03Z</time>
      </trkpt>
      <trkpt lat="47.49855" lon="1.27387">
        <ele>110.11805649203</ele>
        <time>2021-01-19T13:26:08Z</time>
      </trkpt>
      <trkpt lat="47.49844" lon="1.27376">
        <ele>110.96311987156</ele>
        <time>2021-01-19T13:26:12Z</time>
      </trkpt>
      <trkpt lat="47.49834" lon="1.27365">
        <ele>109.95229509984</ele>
        <time>2021-01-19T13:26:16Z</time>
      </trkpt>
      <trkpt lat="47.49821" lon="1.27353">
        <ele>109.29595502594</ele>
        <time>2021-01-19T13:26:21Z</time>
      </trkpt>
      <trkpt lat="47.4981" lon="1.27341">
        <ele>111.83466779625</ele>
        <time>2021-01-19T13:26:25Z</time>
      </trkpt>
      <trkpt lat="47.49794" lon="1.27327">
        <ele>114.64722918297</ele>
        <time>2021-01-19T13:26:30Z</time>
      </trkpt>
      <trkpt lat="47.49787" lon="1.27318">
        <ele>114.11562806781</ele>
        <time>2021-01-19T13:26:35Z</time>
      </trkpt>
      <trkpt lat="47.49782" lon="1.27307">
        <ele>109.51821434391</ele>
        <time>2021-01-19T13:26:55Z</time>
      </trkpt>
      <trkpt lat="47.49776" lon="1.27301">
        <ele>110.74907684063</ele>
        <time>2021-01-19T13:26:59Z</time>
      </trkpt>
      <trkpt lat="47.49767" lon="1.27289">
        <ele>111.53963763531</ele>
        <time>2021-01-19T13:27:04Z</time>
      </trkpt>
      <trkpt lat="47.49753" lon="1.27269">
        <ele>112.16199564</ele>
        <time>2021-01-19T13:27:08Z</time>
      </trkpt>
      <trkpt lat="47.49743" lon="1.27244">
        <ele>110.92343394031</ele>
        <time>2021-01-19T13:27:12Z</time>
      </trkpt>
      <trkpt lat="47.49735" lon="1.27208">
        <ele>107.74756351094</ele>
        <time>2021-01-19T13:27:17Z</time>
      </trkpt>
      <trkpt lat="47.49727" lon="1.27182">
        <ele>108.44152889328</ele>
        <time>2021-01-19T13:27:22Z</time>
      </trkpt>
      <trkpt lat="47.49722" lon="1.27159">
        <ele>105.50541976734</ele>
        <time>2021-01-19T13:27:26Z</time>
      </trkpt>
      <trkpt lat="47.49718" lon="1.27129">
        <ele>102.39581389219</ele>
        <time>2021-01-19T13:27:31Z</time>
      </trkpt>
      <trkpt lat="47.49715" lon="1.27103">
        <ele>102.67419339016</ele>
        <time>2021-01-19T13:27:36Z</time>
      </trkpt>
      <trkpt lat="47.49712" lon="1.27087">
        <ele>102.49298576156</ele>
        <time>2021-01-19T13:27:40Z</time>
      </trkpt>
      <trkpt lat="47.49709" lon="1.27064">
        <ele>102.46173083188</ele>
        <time>2021-01-19T13:27:45Z</time>
      </trkpt>
      <trkpt lat="47.49706" lon="1.27047">
        <ele>103.05208769344</ele>
        <time>2021-01-19T13:27:49Z</time>
      </trkpt>
      <trkpt lat="47.49703" lon="1.27024">
        <ele>102.76106065875</ele>
        <time>2021-01-19T13:27:54Z</time>
      </trkpt>
      <trkpt lat="47.497" lon="1.27001">
        <ele>101.40896599266</ele>
        <time>2021-01-19T13:27:59Z</time>
      </trkpt>
      <trkpt lat="47.49698" lon="1.26982">
        <ele>100.70912068625</ele>
        <time>2021-01-19T13:28:03Z</time>
      </trkpt>
      <trkpt lat="47.49696" lon="1.26962">
        <ele>99.514158232344</ele>
        <time>2021-01-19T13:28:07Z</time>
      </trkpt>
      <trkpt lat="47.49693" lon="1.26939">
        <ele>98.919194519531</ele>
        <time>2021-01-19T13:28:12Z</time>
      </trkpt>
      <trkpt lat="47.4969" lon="1.26913">
        <ele>98.11259236</ele>
        <time>2021-01-19T13:28:17Z</time>
      </trkpt>
      <trkpt lat="47.49688" lon="1.26895">
        <ele>97.136081170313</ele>
        <time>2021-01-19T13:28:21Z</time>
      </trkpt>
      <trkpt lat="47.49687" lon="1.26878">
        <ele>96.558995003125</ele>
        <time>2021-01-19T13:28:25Z</time>
      </trkpt>
      <trkpt lat="47.49684" lon="1.26861">
        <ele>96.382929127656</ele>
        <time>2021-01-19T13:28:29Z</time>
      </trkpt>
      <trkpt lat="47.4968" lon="1.2684">
        <ele>95.475618160313</ele>
        <time>2021-01-19T13:28:34Z</time>
      </trkpt>
      <trkpt lat="47.49675" lon="1.26823">
        <ele>95.720469112656</ele>
        <time>2021-01-19T13:28:38Z</time>
      </trkpt>
      <trkpt lat="47.49667" lon="1.26803">
        <ele>95.331159341875</ele>
        <time>2021-01-19T13:28:43Z</time>
      </trkpt>
      <trkpt lat="47.4966" lon="1.26788">
        <ele>95.619994477031</ele>
        <time>2021-01-19T13:28:47Z</time>
      </trkpt>
      <trkpt lat="47.49651" lon="1.26772">
        <ele>94.89278860125</ele>
        <time>2021-01-19T13:28:51Z</time>
      </trkpt>
      <trkpt lat="47.4964" lon="1.26753">
        <ele>95.022094543438</ele>
        <time>2021-01-19T13:28:56Z</time>
      </trkpt>
      <trkpt lat="47.49631" lon="1.26736">
        <ele>95.175736162656</ele>
        <time>2021-01-19T13:29:00Z</time>
      </trkpt>
      <trkpt lat="47.49624" lon="1.26719">
        <ele>95.141566330938</ele>
        <time>2021-01-19T13:29:04Z</time>
      </trkpt>
      <trkpt lat="47.49617" lon="1.26697">
        <ele>95.536210191875</ele>
        <time>2021-01-19T13:29:09Z</time>
      </trkpt>
      <trkpt lat="47.49615" lon="1.26679">
        <ele>94.92354760375</ele>
        <time>2021-01-19T13:29:13Z</time>
      </trkpt>
      <trkpt lat="47.49614" lon="1.26663">
        <ele>95.179987370312</ele>
        <time>2021-01-19T13:29:17Z</time>
      </trkpt>
      <trkpt lat="47.49612" lon="1.26641">
        <ele>95.181502364375</ele>
        <time>2021-01-19T13:29:22Z</time>
      </trkpt>
      <trkpt lat="47.49611" lon="1.26622">
        <ele>94.228387439531</ele>
        <time>2021-01-19T13:29:26Z</time>
      </trkpt>
      <trkpt lat="47.49609" lon="1.266">
        <ele>93.458721554375</ele>
        <time>2021-01-19T13:29:30Z</time>
      </trkpt>
      <trkpt lat="47.49606" lon="1.26573">
        <ele>93.430592857656</ele>
        <time>2021-01-19T13:29:35Z</time>
      </trkpt>
      <trkpt lat="47.49604" lon="1.26553">
        <ele>93.07546523375</ele>
        <time>2021-01-19T13:29:39Z</time>
      </trkpt>
      <trkpt lat="47.49602" lon="1.26525">
        <ele>91.378860710625</ele>
        <time>2021-01-19T13:29:44Z</time>
      </trkpt>
      <trkpt lat="47.49602" lon="1.26503">
        <ele>90.68327923</ele>
        <time>2021-01-19T13:29:48Z</time>
      </trkpt>
      <trkpt lat="47.49602" lon="1.26481">
        <ele>89.861155555313</ele>
        <time>2021-01-19T13:29:52Z</time>
      </trkpt>
      <trkpt lat="47.49605" lon="1.26454">
        <ele>89.176694962812</ele>
        <time>2021-01-19T13:29:56Z</time>
      </trkpt>
      <trkpt lat="47.49607" lon="1.26424">
        <ele>87.478804155937</ele>
        <time>2021-01-19T13:30:00Z</time>
      </trkpt>
      <trkpt lat="47.4961" lon="1.26385">
        <ele>87.338090050469</ele>
        <time>2021-01-19T13:30:05Z</time>
      </trkpt>
      <trkpt lat="47.49623" lon="1.26359">
        <ele>84.763779108906</ele>
        <time>2021-01-19T13:30:10Z</time>
      </trkpt>
      <trkpt lat="47.49636" lon="1.26345">
        <ele>85.900049976406</ele>
        <time>2021-01-19T13:30:15Z</time>
      </trkpt>
      <trkpt lat="47.4964" lon="1.26333">
        <ele>83.69409013375</ele>
        <time>2021-01-19T13:30:20Z</time>
      </trkpt>
      <trkpt lat="47.49626" lon="1.2632">
        <ele>82.040147906094</ele>
        <time>2021-01-19T13:30:25Z</time>
      </trkpt>
      <trkpt lat="47.49608" lon="1.26309">
        <ele>81.81782677375</ele>
        <time>2021-01-19T13:30:29Z</time>
      </trkpt>
      <trkpt lat="47.49587" lon="1.26298">
        <ele>79.811192553906</ele>
        <time>2021-01-19T13:30:33Z</time>
      </trkpt>
      <trkpt lat="47.49564" lon="1.26269">
        <ele>77.691120728906</ele>
        <time>2021-01-19T13:30:38Z</time>
      </trkpt>
      <trkpt lat="47.49548" lon="1.26238">
        <ele>79.004484847813</ele>
        <time>2021-01-19T13:30:42Z</time>
      </trkpt>
      <trkpt lat="47.49531" lon="1.26202">
        <ele>78.550823318125</ele>
        <time>2021-01-19T13:30:46Z</time>
      </trkpt>
      <trkpt lat="47.49511" lon="1.26165">
        <ele>76.799217701094</ele>
        <time>2021-01-19T13:30:51Z</time>
      </trkpt>
      <trkpt lat="47.49491" lon="1.26139">
        <ele>75.801521694063</ele>
        <time>2021-01-19T13:30:55Z</time>
      </trkpt>
      <trkpt lat="47.4947" lon="1.26116">
        <ele>75.2131562</ele>
        <time>2021-01-19T13:30:59Z</time>
      </trkpt>
      <trkpt lat="47.49447" lon="1.2609">
        <ele>71.768826269844</ele>
        <time>2021-01-19T13:31:03Z</time>
      </trkpt>
      <trkpt lat="47.49427" lon="1.26074">
        <ele>70.74905957625</ele>
        <time>2021-01-19T13:31:07Z</time>
      </trkpt>
      <trkpt lat="47.49413" lon="1.26062">
        <ele>70.069972464219</ele>
        <time>2021-01-19T13:31:11Z</time>
      </trkpt>
      <trkpt lat="47.494" lon="1.2605">
        <ele>70.328165651563</ele>
        <time>2021-01-19T13:31:15Z</time>
      </trkpt>
      <trkpt lat="47.49383" lon="1.26032">
        <ele>69.525362908125</ele>
        <time>2021-01-19T13:31:20Z</time>
      </trkpt>
      <trkpt lat="47.49372" lon="1.26016">
        <ele>68.967426110938</ele>
        <time>2021-01-19T13:31:24Z</time>
      </trkpt>
      <trkpt lat="47.49382" lon="1.25998">
        <ele>67.058594508281</ele>
        <time>2021-01-19T13:31:29Z</time>
      </trkpt>
      <trkpt lat="47.49389" lon="1.25986">
        <ele>67.351493087344</ele>
        <time>2021-01-19T13:31:33Z</time>
      </trkpt>
      <trkpt lat="47.49387" lon="1.25968">
        <ele>66.311658600625</ele>
        <time>2021-01-19T13:31:37Z</time>
      </trkpt>
      <trkpt lat="47.49384" lon="1.25946">
        <ele>64.951047127813</ele>
        <time>2021-01-19T13:31:41Z</time>
      </trkpt>
      <trkpt lat="47.49379" lon="1.25917">
        <ele>66.621394314375</ele>
        <time>2021-01-19T13:31:46Z</time>
      </trkpt>
      <trkpt lat="47.49374" lon="1.25889">
        <ele>67.553994447344</ele>
        <time>2021-01-19T13:31:51Z</time>
      </trkpt>
      <trkpt lat="47.49364" lon="1.25872">
        <ele>74.5653705125</ele>
        <time>2021-01-19T13:31:56Z</time>
      </trkpt>
      <trkpt lat="47.49358" lon="1.25849">
        <ele>75.612555308906</ele>
        <time>2021-01-19T13:32:00Z</time>
      </trkpt>
      <trkpt lat="47.49353" lon="1.25822">
        <ele>76.849673036406</ele>
        <time>2021-01-19T13:32:05Z</time>
      </trkpt>
      <trkpt lat="47.49349" lon="1.258">
        <ele>75.838031227031</ele>
        <time>2021-01-19T13:32:09Z</time>
      </trkpt>
      <trkpt lat="47.49343" lon="1.25777">
        <ele>72.413179645</ele>
        <time>2021-01-19T13:32:14Z</time>
      </trkpt>
      <trkpt lat="47.49343" lon="1.25762">
        <ele>71.433379281719</ele>
        <time>2021-01-19T13:32:18Z</time>
      </trkpt>
      <trkpt lat="47.4934" lon="1.25741">
        <ele>69.376596056719</ele>
        <time>2021-01-19T13:32:23Z</time>
      </trkpt>
      <trkpt lat="47.4934" lon="1.25721">
        <ele>68.613687043594</ele>
        <time>2021-01-19T13:32:27Z</time>
      </trkpt>
      <trkpt lat="47.49343" lon="1.25698">
        <ele>66.527786148438</ele>
        <time>2021-01-19T13:32:32Z</time>
      </trkpt>
      <trkpt lat="47.49347" lon="1.25677">
        <ele>66.418952759375</ele>
        <time>2021-01-19T13:32:37Z</time>
      </trkpt>
      <trkpt lat="47.49354" lon="1.25659">
        <ele>64.976166280156</ele>
        <time>2021-01-19T13:32:41Z</time>
      </trkpt>
      <trkpt lat="47.49363" lon="1.25633">
        <ele>64.329391718438</ele>
        <time>2021-01-19T13:32:46Z</time>
      </trkpt>
      <trkpt lat="47.49374" lon="1.25613">
        <ele>61.131931341875</ele>
        <time>2021-01-19T13:32:50Z</time>
      </trkpt>
      <trkpt lat="47.49385" lon="1.2559">
        <ele>59.276103974844</ele>
        <time>2021-01-19T13:32:55Z</time>
      </trkpt>
      <trkpt lat="47.49391" lon="1.25571">
        <ele>58.923134645625</ele>
        <time>2021-01-19T13:32:59Z</time>
      </trkpt>
      <trkpt lat="47.49399" lon="1.25553">
        <ele>61.383002617031</ele>
        <time>2021-01-19T13:33:03Z</time>
      </trkpt>
      <trkpt lat="47.49406" lon="1.25535">
        <ele>62.609421750938</ele>
        <time>2021-01-19T13:33:07Z</time>
      </trkpt>
      <trkpt lat="47.49415" lon="1.25516">
        <ele>62.569126696875</ele>
        <time>2021-01-19T13:33:11Z</time>
      </trkpt>
      <trkpt lat="47.49421" lon="1.25494">
        <ele>62.636872979687</ele>
        <time>2021-01-19T13:33:16Z</time>
      </trkpt>
      <trkpt lat="47.49425" lon="1.25475">
        <ele>61.673540803125</ele>
        <time>2021-01-19T13:33:20Z</time>
      </trkpt>
      <trkpt lat="47.4943" lon="1.25451">
        <ele>62.491603496875</ele>
        <time>2021-01-19T13:33:25Z</time>
      </trkpt>
      <trkpt lat="47.49433" lon="1.2544">
        <ele>64.097267762031</ele>
        <time>2021-01-19T13:33:49Z</time>
      </trkpt>
      <trkpt lat="47.49438" lon="1.25427">
        <ele>63.324797519063</ele>
        <time>2021-01-19T13:33:54Z</time>
      </trkpt>
      <trkpt lat="47.49443" lon="1.25409">
        <ele>60.8517519575</ele>
        <time>2021-01-19T13:33:59Z</time>
      </trkpt>
      <trkpt lat="47.49447" lon="1.25388">
        <ele>60.082134166875</ele>
        <time>2021-01-19T13:34:03Z</time>
      </trkpt>
      <trkpt lat="47.49454" lon="1.25363">
        <ele>58.870176288594</ele>
        <time>2021-01-19T13:34:08Z</time>
      </trkpt>
      <trkpt lat="47.49459" lon="1.25344">
        <ele>56.815108077031</ele>
        <time>2021-01-19T13:34:12Z</time>
      </trkpt>
      <trkpt lat="47.49466" lon="1.25318">
        <ele>59.583992239687</ele>
        <time>2021-01-19T13:34:17Z</time>
      </trkpt>
      <trkpt lat="47.49465" lon="1.25296">
        <ele>60.592666987031</ele>
        <time>2021-01-19T13:34:22Z</time>
      </trkpt>
      <trkpt lat="47.49465" lon="1.25278">
        <ele>62.284327457656</ele>
        <time>2021-01-19T13:34:26Z</time>
      </trkpt>
      <trkpt lat="47.49469" lon="1.25258">
        <ele>62.060723814844</ele>
        <time>2021-01-19T13:34:30Z</time>
      </trkpt>
      <trkpt lat="47.49474" lon="1.25231">
        <ele>63.291220379375</ele>
        <time>2021-01-19T13:34:35Z</time>
      </trkpt>
      <trkpt lat="47.49479" lon="1.25207">
        <ele>62.775246382969</ele>
        <time>2021-01-19T13:34:40Z</time>
      </trkpt>
      <trkpt lat="47.49481" lon="1.25186">
        <ele>62.086484449531</ele>
        <time>2021-01-19T13:34:44Z</time>
      </trkpt>
      <trkpt lat="47.49482" lon="1.25166">
        <ele>62.435137502031</ele>
        <time>2021-01-19T13:34:48Z</time>
      </trkpt>
      <trkpt lat="47.49482" lon="1.25145">
        <ele>61.739088420156</ele>
        <time>2021-01-19T13:34:52Z</time>
      </trkpt>
      <trkpt lat="47.49482" lon="1.25122">
        <ele>60.234698688906</ele>
        <time>2021-01-19T13:34:56Z</time>
      </trkpt>
      <trkpt lat="47.49476" lon="1.25099">
        <ele>63.05324967</ele>
        <time>2021-01-19T13:35:01Z</time>
      </trkpt>
      <trkpt lat="47.49469" lon="1.25085">
        <ele>67.054744489531</ele>
        <time>2021-01-19T13:35:05Z</time>
      </trkpt>
      <trkpt lat="47.49466" lon="1.25066">
        <ele>68.517747495156</ele>
        <time>2021-01-19T13:35:10Z</time>
      </trkpt>
      <trkpt lat="47.49463" lon="1.25049">
        <ele>71.843588349531</ele>
        <time>2021-01-19T13:35:15Z</time>
      </trkpt>
      <trkpt lat="47.49462" lon="1.2503">
        <ele>70.262962583281</ele>
        <time>2021-01-19T13:35:19Z</time>
      </trkpt>
      <trkpt lat="47.49462" lon="1.25004">
        <ele>67.735187587188</ele>
        <time>2021-01-19T13:35:24Z</time>
      </trkpt>
      <trkpt lat="47.49461" lon="1.24983">
        <ele>68.573917424931</ele>
        <time>2021-01-19T13:35:28Z</time>
      </trkpt>
      <trkpt lat="47.49458" lon="1.24957">
        <ele>70.946054324387</ele>
        <time>2021-01-19T13:35:33Z</time>
      </trkpt>
      <trkpt lat="47.49453" lon="1.24939">
        <ele>69.941214935554</ele>
        <time>2021-01-19T13:35:37Z</time>
      </trkpt>
      <trkpt lat="47.49452" lon="1.24916">
        <ele>70.936875820779</ele>
        <time>2021-01-19T13:35:41Z</time>
      </trkpt>
      <trkpt lat="47.49454" lon="1.24889">
        <ele>71.540356921008</ele>
        <time>2021-01-19T13:35:46Z</time>
      </trkpt>
      <trkpt lat="47.49455" lon="1.24868">
        <ele>71.674391851462</ele>
        <time>2021-01-19T13:35:50Z</time>
      </trkpt>
      <trkpt lat="47.49455" lon="1.24848">
        <ele>70.326348888397</ele>
        <time>2021-01-19T13:35:54Z</time>
      </trkpt>
      <trkpt lat="47.49453" lon="1.24821">
        <ele>69.48803399232</ele>
        <time>2021-01-19T13:35:59Z</time>
      </trkpt>
      <trkpt lat="47.4945" lon="1.24802">
        <ele>70.832799603315</ele>
        <time>2021-01-19T13:36:03Z</time>
      </trkpt>
      <trkpt lat="47.49446" lon="1.24782">
        <ele>69.489832482366</ele>
        <time>2021-01-19T13:36:07Z</time>
      </trkpt>
      <trkpt lat="47.49441" lon="1.24763">
        <ele>66.054621826554</ele>
        <time>2021-01-19T13:36:11Z</time>
      </trkpt>
      <trkpt lat="47.49434" lon="1.24739">
        <ele>65.098150009175</ele>
        <time>2021-01-19T13:36:16Z</time>
      </trkpt>
      <trkpt lat="47.49428" lon="1.24722">
        <ele>64.510117703232</ele>
        <time>2021-01-19T13:36:20Z</time>
      </trkpt>
      <trkpt lat="47.4942" lon="1.24699">
        <ele>65.739679842335</ele>
        <time>2021-01-19T13:36:25Z</time>
      </trkpt>
      <trkpt lat="47.49412" lon="1.24682">
        <ele>64.870951239724</ele>
        <time>2021-01-19T13:36:29Z</time>
      </trkpt>
      <trkpt lat="47.49404" lon="1.24666">
        <ele>65.51609841113</ele>
        <time>2021-01-19T13:36:33Z</time>
      </trkpt>
      <trkpt lat="47.49394" lon="1.24648">
        <ele>64.521847408814</ele>
        <time>2021-01-19T13:36:38Z</time>
      </trkpt>
      <trkpt lat="47.49387" lon="1.24631">
        <ele>63.524573878674</ele>
        <time>2021-01-19T13:36:42Z</time>
      </trkpt>
      <trkpt lat="47.49378" lon="1.24609">
        <ele>62.647970255966</ele>
        <time>2021-01-19T13:36:47Z</time>
      </trkpt>
      <trkpt lat="47.49368" lon="1.24588">
        <ele>63.654698090191</ele>
        <time>2021-01-19T13:36:52Z</time>
      </trkpt>
      <trkpt lat="47.49357" lon="1.24571">
        <ele>64.549678488976</ele>
        <time>2021-01-19T13:36:57Z</time>
      </trkpt>
      <trkpt lat="47.49349" lon="1.24558">
        <ele>65.7869387095</ele>
        <time>2021-01-19T13:37:01Z</time>
      </trkpt>
      <trkpt lat="47.49341" lon="1.24547">
        <ele>68.197759288245</ele>
        <time>2021-01-19T13:37:05Z</time>
      </trkpt>
      <trkpt lat="47.49331" lon="1.24539">
        <ele>71.054295040918</ele>
        <time>2021-01-19T13:37:09Z</time>
      </trkpt>
      <trkpt lat="47.49322" lon="1.24531">
        <ele>71.478066783623</ele>
        <time>2021-01-19T13:37:13Z</time>
      </trkpt>
      <trkpt lat="47.49312" lon="1.24526">
        <ele>72.551368693852</ele>
        <time>2021-01-19T13:37:17Z</time>
      </trkpt>
      <trkpt lat="47.49296" lon="1.24514">
        <ele>76.438003962998</ele>
        <time>2021-01-19T13:37:22Z</time>
      </trkpt>
      <trkpt lat="47.49285" lon="1.24497">
        <ele>75.540718970265</ele>
        <time>2021-01-19T13:37:26Z</time>
      </trkpt>
      <trkpt lat="47.49274" lon="1.24475">
        <ele>76.638823022103</ele>
        <time>2021-01-19T13:37:31Z</time>
      </trkpt>
      <trkpt lat="47.49269" lon="1.24454">
        <ele>76.106085631337</ele>
        <time>2021-01-19T13:37:35Z</time>
      </trkpt>
      <trkpt lat="47.49265" lon="1.24426">
        <ele>77.419898625845</ele>
        <time>2021-01-19T13:37:40Z</time>
      </trkpt>
      <trkpt lat="47.49264" lon="1.24406">
        <ele>77.57664528331</ele>
        <time>2021-01-19T13:37:45Z</time>
      </trkpt>
      <trkpt lat="47.49264" lon="1.24387">
        <ele>75.733892823942</ele>
        <time>2021-01-19T13:37:49Z</time>
      </trkpt>
      <trkpt lat="47.49265" lon="1.24369">
        <ele>76.089512572488</ele>
        <time>2021-01-19T13:37:53Z</time>
      </trkpt>
      <trkpt lat="47.49265" lon="1.24346">
        <ele>72.975624756966</ele>
        <time>2021-01-19T13:37:57Z</time>
      </trkpt>
      <trkpt lat="47.49267" lon="1.24327">
        <ele>75.886814991593</ele>
        <time>2021-01-19T13:38:01Z</time>
      </trkpt>
      <trkpt lat="47.49272" lon="1.24307">
        <ele>71.016780561419</ele>
        <time>2021-01-19T13:38:05Z</time>
      </trkpt>
      <trkpt lat="47.49275" lon="1.24291">
        <ele>69.919208555819</ele>
        <time>2021-01-19T13:38:09Z</time>
      </trkpt>
      <trkpt lat="47.4928" lon="1.24273">
        <ele>64.260091049811</ele>
        <time>2021-01-19T13:38:13Z</time>
      </trkpt>
      <trkpt lat="47.49284" lon="1.24255">
        <ele>67.259088315797</ele>
        <time>2021-01-19T13:38:17Z</time>
      </trkpt>
      <trkpt lat="47.49286" lon="1.24239">
        <ele>68.567353088069</ele>
        <time>2021-01-19T13:38:21Z</time>
      </trkpt>
      <trkpt lat="47.49292" lon="1.24219">
        <ele>69.563008817702</ele>
        <time>2021-01-19T13:38:25Z</time>
      </trkpt>
      <trkpt lat="47.49295" lon="1.24197">
        <ele>71.416337893253</ele>
        <time>2021-01-19T13:38:30Z</time>
      </trkpt>
      <trkpt lat="47.49298" lon="1.24179">
        <ele>73.233148835605</ele>
        <time>2021-01-19T13:38:34Z</time>
      </trkpt>
      <trkpt lat="47.493" lon="1.2416">
        <ele>73.247086399727</ele>
        <time>2021-01-19T13:38:38Z</time>
      </trkpt>
      <trkpt lat="47.49306" lon="1.24142">
        <ele>71.752209959453</ele>
        <time>2021-01-19T13:38:42Z</time>
      </trkpt>
      <trkpt lat="47.49314" lon="1.24119">
        <ele>70.818519772102</ele>
        <time>2021-01-19T13:38:47Z</time>
      </trkpt>
      <trkpt lat="47.4932" lon="1.24097">
        <ele>66.649815357129</ele>
        <time>2021-01-19T13:38:51Z</time>
      </trkpt>
      <trkpt lat="47.49321" lon="1.24073">
        <ele>66.055531223273</ele>
        <time>2021-01-19T13:38:56Z</time>
      </trkpt>
      <trkpt lat="47.49318" lon="1.24055">
        <ele>66.912839549436</ele>
        <time>2021-01-19T13:39:00Z</time>
      </trkpt>
      <trkpt lat="47.49313" lon="1.24034">
        <ele>66.420919759477</ele>
        <time>2021-01-19T13:39:05Z</time>
      </trkpt>
      <trkpt lat="47.49308" lon="1.24014">
        <ele>65.091101794499</ele>
        <time>2021-01-19T13:39:10Z</time>
      </trkpt>
      <trkpt lat="47.49304" lon="1.23997">
        <ele>64.820263315529</ele>
        <time>2021-01-19T13:39:14Z</time>
      </trkpt>
      <trkpt lat="47.493" lon="1.23978">
        <ele>65.648750631347</ele>
        <time>2021-01-19T13:39:19Z</time>
      </trkpt>
      <trkpt lat="47.49296" lon="1.23956">
        <ele>65.024621940474</ele>
        <time>2021-01-19T13:39:24Z</time>
      </trkpt>
      <trkpt lat="47.49292" lon="1.23938">
        <ele>64.526523885297</ele>
        <time>2021-01-19T13:39:28Z</time>
      </trkpt>
      <trkpt lat="47.49288" lon="1.23919">
        <ele>63.677624943041</ele>
        <time>2021-01-19T13:39:32Z</time>
      </trkpt>
      <trkpt lat="47.49283" lon="1.23895">
        <ele>63.123774048137</ele>
        <time>2021-01-19T13:39:37Z</time>
      </trkpt>
      <trkpt lat="47.49277" lon="1.23871">
        <ele>63.354618284448</ele>
        <time>2021-01-19T13:39:42Z</time>
      </trkpt>
      <trkpt lat="47.49273" lon="1.23852">
        <ele>62.901727280579</ele>
        <time>2021-01-19T13:39:46Z</time>
      </trkpt>
      <trkpt lat="47.49269" lon="1.23833">
        <ele>62.220412294279</ele>
        <time>2021-01-19T13:39:50Z</time>
      </trkpt>
      <trkpt lat="47.49263" lon="1.23815">
        <ele>62.907664097229</ele>
        <time>2021-01-19T13:39:54Z</time>
      </trkpt>
      <trkpt lat="47.49257" lon="1.23791">
        <ele>64.111264844362</ele>
        <time>2021-01-19T13:39:59Z</time>
      </trkpt>
      <trkpt lat="47.49253" lon="1.23773">
        <ele>63.740668462468</ele>
        <time>2021-01-19T13:40:03Z</time>
      </trkpt>
      <trkpt lat="47.49249" lon="1.23754">
        <ele>63.483761226985</ele>
        <time>2021-01-19T13:40:07Z</time>
      </trkpt>
      <trkpt lat="47.49244" lon="1.23732">
        <ele>64.991276611679</ele>
        <time>2021-01-19T13:40:12Z</time>
      </trkpt>
      <trkpt lat="47.49239" lon="1.23714">
        <ele>65.283077434652</ele>
        <time>2021-01-19T13:40:16Z</time>
      </trkpt>
      <trkpt lat="47.49234" lon="1.23694">
        <ele>66.588317210881</ele>
        <time>2021-01-19T13:40:20Z</time>
      </trkpt>
      <trkpt lat="47.49229" lon="1.23675">
        <ele>67.262360453248</ele>
        <time>2021-01-19T13:40:24Z</time>
      </trkpt>
      <trkpt lat="47.49224" lon="1.23653">
        <ele>67.251181196548</ele>
        <time>2021-01-19T13:40:28Z</time>
      </trkpt>
      <trkpt lat="47.49219" lon="1.23629">
        <ele>68.183583303939</ele>
        <time>2021-01-19T13:40:33Z</time>
      </trkpt>
      <trkpt lat="47.49216" lon="1.23611">
        <ele>67.886923113025</ele>
        <time>2021-01-19T13:40:37Z</time>
      </trkpt>
      <trkpt lat="47.49212" lon="1.2359">
        <ele>68.55830036033</ele>
        <time>2021-01-19T13:40:42Z</time>
      </trkpt>
      <trkpt lat="47.49208" lon="1.23574">
        <ele>67.679767545847</ele>
        <time>2021-01-19T13:40:46Z</time>
      </trkpt>
      <trkpt lat="47.49203" lon="1.23562">
        <ele>70.706816169799</ele>
        <time>2021-01-19T13:40:50Z</time>
      </trkpt>
      <trkpt lat="47.49198" lon="1.23545">
        <ele>73.179527731274</ele>
        <time>2021-01-19T13:40:55Z</time>
      </trkpt>
      <trkpt lat="47.49193" lon="1.23529">
        <ele>73.674253833552</ele>
        <time>2021-01-19T13:40:59Z</time>
      </trkpt>
      <trkpt lat="47.4919" lon="1.2351">
        <ele>75.832824154743</ele>
        <time>2021-01-19T13:41:03Z</time>
      </trkpt>
      <trkpt lat="47.49184" lon="1.2349">
        <ele>78.298343909344</ele>
        <time>2021-01-19T13:41:08Z</time>
      </trkpt>
      <trkpt lat="47.4918" lon="1.23471">
        <ele>79.556827967078</ele>
        <time>2021-01-19T13:41:13Z</time>
      </trkpt>
      <trkpt lat="47.49176" lon="1.23461">
        <ele>83.2280419434</ele>
        <time>2021-01-19T13:41:17Z</time>
      </trkpt>
      <trkpt lat="47.49172" lon="1.23446">
        <ele>85.394586380926</ele>
        <time>2021-01-19T13:41:21Z</time>
      </trkpt>
      <trkpt lat="47.49168" lon="1.23426">
        <ele>84.525725417519</ele>
        <time>2021-01-19T13:41:26Z</time>
      </trkpt>
      <trkpt lat="47.49164" lon="1.23405">
        <ele>85.625621966891</ele>
        <time>2021-01-19T13:41:31Z</time>
      </trkpt>
      <trkpt lat="47.49159" lon="1.23388">
        <ele>83.419190211511</ele>
        <time>2021-01-19T13:41:35Z</time>
      </trkpt>
      <trkpt lat="47.49153" lon="1.23367">
        <ele>81.722015526933</ele>
        <time>2021-01-19T13:41:39Z</time>
      </trkpt>
      <trkpt lat="47.4915" lon="1.23343">
        <ele>84.161841526374</ele>
        <time>2021-01-19T13:41:44Z</time>
      </trkpt>
      <trkpt lat="47.49148" lon="1.23319">
        <ele>79.992150310538</ele>
        <time>2021-01-19T13:41:48Z</time>
      </trkpt>
      <trkpt lat="47.49147" lon="1.23291">
        <ele>77.805290364932</ele>
        <time>2021-01-19T13:41:53Z</time>
      </trkpt>
      <trkpt lat="47.49144" lon="1.23272">
        <ele>78.583042615698</ele>
        <time>2021-01-19T13:41:57Z</time>
      </trkpt>
      <trkpt lat="47.49142" lon="1.23249">
        <ele>79.587418873906</ele>
        <time>2021-01-19T13:42:02Z</time>
      </trkpt>
      <trkpt lat="47.4914" lon="1.2323">
        <ele>79.711211917047</ele>
        <time>2021-01-19T13:42:06Z</time>
      </trkpt>
      <trkpt lat="47.49138" lon="1.23206">
        <ele>77.824071415236</ele>
        <time>2021-01-19T13:42:11Z</time>
      </trkpt>
      <trkpt lat="47.49137" lon="1.23187">
        <ele>77.689520799112</ele>
        <time>2021-01-19T13:42:15Z</time>
      </trkpt>
      <trkpt lat="47.49136" lon="1.23168">
        <ele>76.479260077214</ele>
        <time>2021-01-19T13:42:19Z</time>
      </trkpt>
      <trkpt lat="47.49132" lon="1.23145">
        <ele>76.239914046979</ele>
        <time>2021-01-19T13:42:24Z</time>
      </trkpt>
      <trkpt lat="47.4913" lon="1.23128">
        <ele>76.760532008296</ele>
        <time>2021-01-19T13:42:28Z</time>
      </trkpt>
      <trkpt lat="47.4913" lon="1.2311">
        <ele>73.166560901013</ele>
        <time>2021-01-19T13:42:32Z</time>
      </trkpt>
      <trkpt lat="47.49129" lon="1.23082">
        <ele>65.877807138954</ele>
        <time>2021-01-19T13:42:37Z</time>
      </trkpt>
      <trkpt lat="47.49125" lon="1.23061">
        <ele>67.012517246378</ele>
        <time>2021-01-19T13:42:42Z</time>
      </trkpt>
      <trkpt lat="47.49124" lon="1.23044">
        <ele>66.367487387176</ele>
        <time>2021-01-19T13:42:46Z</time>
      </trkpt>
      <trkpt lat="47.49121" lon="1.23024">
        <ele>65.246524099887</ele>
        <time>2021-01-19T13:42:51Z</time>
      </trkpt>
      <trkpt lat="47.49117" lon="1.23002">
        <ele>65.471207479652</ele>
        <time>2021-01-19T13:42:56Z</time>
      </trkpt>
      <trkpt lat="47.49114" lon="1.2298">
        <ele>66.172628905979</ele>
        <time>2021-01-19T13:43:01Z</time>
      </trkpt>
      <trkpt lat="47.49112" lon="1.22961">
        <ele>67.307082901349</ele>
        <time>2021-01-19T13:43:05Z</time>
      </trkpt>
      <trkpt lat="47.49109" lon="1.22938">
        <ele>68.148290375135</ele>
        <time>2021-01-19T13:43:10Z</time>
      </trkpt>
      <trkpt lat="47.49106" lon="1.2292">
        <ele>68.620284581225</ele>
        <time>2021-01-19T13:43:14Z</time>
      </trkpt>
      <trkpt lat="47.49103" lon="1.22899">
        <ele>70.120772853342</ele>
        <time>2021-01-19T13:43:19Z</time>
      </trkpt>
      <trkpt lat="47.49099" lon="1.2288">
        <ele>71.290582734975</ele>
        <time>2021-01-19T13:43:24Z</time>
      </trkpt>
      <trkpt lat="47.49094" lon="1.22864">
        <ele>71.501995621291</ele>
        <time>2021-01-19T13:43:28Z</time>
      </trkpt>
      <trkpt lat="47.49088" lon="1.22844">
        <ele>75.359062913194</ele>
        <time>2021-01-19T13:43:33Z</time>
      </trkpt>
      <trkpt lat="47.49084" lon="1.22828">
        <ele>75.469000723291</ele>
        <time>2021-01-19T13:43:37Z</time>
      </trkpt>
      <trkpt lat="47.49083" lon="1.22801">
        <ele>75.332748417872</ele>
        <time>2021-01-19T13:43:42Z</time>
      </trkpt>
      <trkpt lat="47.49081" lon="1.2278">
        <ele>77.070259142699</ele>
        <time>2021-01-19T13:43:46Z</time>
      </trkpt>
      <trkpt lat="47.49079" lon="1.22758">
        <ele>77.39289781301</ele>
        <time>2021-01-19T13:43:50Z</time>
      </trkpt>
      <trkpt lat="47.49076" lon="1.22737">
        <ele>77.623791283086</ele>
        <time>2021-01-19T13:43:54Z</time>
      </trkpt>
      <trkpt lat="47.49076" lon="1.22708">
        <ele>72.440837240599</ele>
        <time>2021-01-19T13:43:59Z</time>
      </trkpt>
      <trkpt lat="47.49077" lon="1.22677">
        <ele>65.200179927788</ele>
        <time>2021-01-19T13:44:04Z</time>
      </trkpt>
      <trkpt lat="47.49077" lon="1.22656">
        <ele>66.267548413248</ele>
        <time>2021-01-19T13:44:08Z</time>
      </trkpt>
      <trkpt lat="47.49075" lon="1.22636">
        <ele>64.820180884711</ele>
        <time>2021-01-19T13:44:12Z</time>
      </trkpt>
      <trkpt lat="47.49074" lon="1.22615">
        <ele>61.789053764629</ele>
        <time>2021-01-19T13:44:16Z</time>
      </trkpt>
      <trkpt lat="47.49071" lon="1.22589">
        <ele>60.132186917064</ele>
        <time>2021-01-19T13:44:21Z</time>
      </trkpt>
      <trkpt lat="47.49067" lon="1.22566">
        <ele>60.403311550427</ele>
        <time>2021-01-19T13:44:26Z</time>
      </trkpt>
      <trkpt lat="47.49063" lon="1.22547">
        <ele>60.995597170634</ele>
        <time>2021-01-19T13:44:30Z</time>
      </trkpt>
      <trkpt lat="47.49063" lon="1.22522">
        <ele>60.52734258247</ele>
        <time>2021-01-19T13:44:35Z</time>
      </trkpt>
      <trkpt lat="47.49067" lon="1.22499">
        <ele>62.153932713938</ele>
        <time>2021-01-19T13:44:40Z</time>
      </trkpt>
      <trkpt lat="47.49072" lon="1.2247">
        <ele>61.690045683462</ele>
        <time>2021-01-19T13:44:45Z</time>
      </trkpt>
      <trkpt lat="47.49072" lon="1.22447">
        <ele>61.227468637542</ele>
        <time>2021-01-19T13:44:49Z</time>
      </trkpt>
      <trkpt lat="47.49073" lon="1.22429">
        <ele>65.90955972957</ele>
        <time>2021-01-19T13:44:53Z</time>
      </trkpt>
      <trkpt lat="47.49073" lon="1.22394">
        <ele>68.166147455612</ele>
        <time>2021-01-19T13:44:58Z</time>
      </trkpt>
      <trkpt lat="47.49076" lon="1.22365">
        <ele>66.680308197128</ele>
        <time>2021-01-19T13:45:02Z</time>
      </trkpt>
      <trkpt lat="47.49077" lon="1.22336">
        <ele>64.216945426012</ele>
        <time>2021-01-19T13:45:07Z</time>
      </trkpt>
      <trkpt lat="47.49078" lon="1.22316">
        <ele>65.943703618214</ele>
        <time>2021-01-19T13:45:11Z</time>
      </trkpt>
      <trkpt lat="47.49077" lon="1.22296">
        <ele>68.283661951607</ele>
        <time>2021-01-19T13:45:15Z</time>
      </trkpt>
      <trkpt lat="47.49076" lon="1.22278">
        <ele>71.483727941506</ele>
        <time>2021-01-19T13:45:19Z</time>
      </trkpt>
      <trkpt lat="47.49076" lon="1.22257">
        <ele>74.764013022589</ele>
        <time>2021-01-19T13:45:23Z</time>
      </trkpt>
      <trkpt lat="47.49077" lon="1.22242">
        <ele>75.094535893597</ele>
        <time>2021-01-19T13:45:27Z</time>
      </trkpt>
      <trkpt lat="47.49078" lon="1.22214">
        <ele>75.545392043289</ele>
        <time>2021-01-19T13:45:32Z</time>
      </trkpt>
      <trkpt lat="47.49077" lon="1.22194">
        <ele>74.655663746317</ele>
        <time>2021-01-19T13:45:36Z</time>
      </trkpt>
      <trkpt lat="47.49078" lon="1.22174">
        <ele>74.1129160152</ele>
        <time>2021-01-19T13:45:40Z</time>
      </trkpt>
      <trkpt lat="47.49078" lon="1.22156">
        <ele>72.954255567509</ele>
        <time>2021-01-19T13:45:44Z</time>
      </trkpt>
      <trkpt lat="47.49077" lon="1.2214">
        <ele>75.509049173578</ele>
        <time>2021-01-19T13:45:48Z</time>
      </trkpt>
      <trkpt lat="47.49077" lon="1.22118">
        <ele>75.696590336154</ele>
        <time>2021-01-19T13:45:53Z</time>
      </trkpt>
      <trkpt lat="47.49077" lon="1.22097">
        <ele>77.837624265903</ele>
        <time>2021-01-19T13:45:58Z</time>
      </trkpt>
      <trkpt lat="47.49079" lon="1.22071">
        <ele>73.800072551401</ele>
        <time>2021-01-19T13:46:03Z</time>
      </trkpt>
      <trkpt lat="47.49082" lon="1.22049">
        <ele>73.503939624056</ele>
        <time>2021-01-19T13:46:07Z</time>
      </trkpt>
      <trkpt lat="47.49083" lon="1.22029">
        <ele>72.651455457616</ele>
        <time>2021-01-19T13:46:12Z</time>
      </trkpt>
      <trkpt lat="47.49084" lon="1.22008">
        <ele>72.072977747087</ele>
        <time>2021-01-19T13:46:16Z</time>
      </trkpt>
      <trkpt lat="47.49087" lon="1.21988">
        <ele>71.798387852698</ele>
        <time>2021-01-19T13:46:20Z</time>
      </trkpt>
      <trkpt lat="47.49091" lon="1.21964">
        <ele>72.107639994731</ele>
        <time>2021-01-19T13:46:25Z</time>
      </trkpt>
      <trkpt lat="47.49094" lon="1.21945">
        <ele>72.191638511166</ele>
        <time>2021-01-19T13:46:29Z</time>
      </trkpt>
      <trkpt lat="47.49097" lon="1.21929">
        <ele>73.083263801932</ele>
        <time>2021-01-19T13:46:33Z</time>
      </trkpt>
      <trkpt lat="47.49096" lon="1.21914">
        <ele>75.32958702827</ele>
        <time>2021-01-19T13:46:37Z</time>
      </trkpt>
      <trkpt lat="47.49098" lon="1.21896">
        <ele>76.31886384543</ele>
        <time>2021-01-19T13:46:41Z</time>
      </trkpt>
      <trkpt lat="47.49098" lon="1.21875">
        <ele>78.06235612581</ele>
        <time>2021-01-19T13:46:46Z</time>
      </trkpt>
      <trkpt lat="47.49099" lon="1.21857">
        <ele>74.557808856856</ele>
        <time>2021-01-19T13:46:50Z</time>
      </trkpt>
      <trkpt lat="47.49103" lon="1.21831">
        <ele>73.305771713292</ele>
        <time>2021-01-19T13:46:54Z</time>
      </trkpt>
      <trkpt lat="47.49107" lon="1.21802">
        <ele>70.042090555954</ele>
        <time>2021-01-19T13:46:59Z</time>
      </trkpt>
      <trkpt lat="47.49107" lon="1.21783">
        <ele>73.523066545489</ele>
        <time>2021-01-19T13:47:03Z</time>
      </trkpt>
      <trkpt lat="47.4911" lon="1.21758">
        <ele>71.460917103624</ele>
        <time>2021-01-19T13:47:08Z</time>
      </trkpt>
      <trkpt lat="47.49109" lon="1.21746">
        <ele>72.481423534039</ele>
        <time>2021-01-19T13:47:12Z</time>
      </trkpt>
      <trkpt lat="47.49109" lon="1.21731">
        <ele>74.839244462905</ele>
        <time>2021-01-19T13:47:17Z</time>
      </trkpt>
      <trkpt lat="47.49107" lon="1.21713">
        <ele>74.605261645688</ele>
        <time>2021-01-19T13:47:21Z</time>
      </trkpt>
      <trkpt lat="47.49106" lon="1.21699">
        <ele>75.940199858009</ele>
        <time>2021-01-19T13:47:25Z</time>
      </trkpt>
      <trkpt lat="47.49107" lon="1.2168">
        <ele>76.946789068127</ele>
        <time>2021-01-19T13:47:30Z</time>
      </trkpt>
      <trkpt lat="47.49108" lon="1.21663">
        <ele>75.097259759889</ele>
        <time>2021-01-19T13:47:34Z</time>
      </trkpt>
      <trkpt lat="47.49109" lon="1.21641">
        <ele>77.929267369587</ele>
        <time>2021-01-19T13:47:39Z</time>
      </trkpt>
      <trkpt lat="47.49109" lon="1.21626">
        <ele>80.363335739086</ele>
        <time>2021-01-19T13:47:43Z</time>
      </trkpt>
      <trkpt lat="47.49111" lon="1.2161">
        <ele>80.621497959191</ele>
        <time>2021-01-19T13:47:47Z</time>
      </trkpt>
      <trkpt lat="47.49109" lon="1.21595">
        <ele>79.623797936519</ele>
        <time>2021-01-19T13:47:51Z</time>
      </trkpt>
      <trkpt lat="47.49109" lon="1.21574">
        <ele>80.351504757304</ele>
        <time>2021-01-19T13:47:56Z</time>
      </trkpt>
      <trkpt lat="47.49109" lon="1.21554">
        <ele>79.336259504423</ele>
        <time>2021-01-19T13:48:00Z</time>
      </trkpt>
      <trkpt lat="47.49108" lon="1.21534">
        <ele>79.673417688612</ele>
        <time>2021-01-19T13:48:04Z</time>
      </trkpt>
      <trkpt lat="47.49107" lon="1.21504">
        <ele>75.339698815346</ele>
        <time>2021-01-19T13:48:09Z</time>
      </trkpt>
      <trkpt lat="47.49105" lon="1.21486">
        <ele>73.282227496326</ele>
        <time>2021-01-19T13:48:14Z</time>
      </trkpt>
      <trkpt lat="47.49104" lon="1.21472">
        <ele>75.232002810202</ele>
        <time>2021-01-19T13:48:18Z</time>
      </trkpt>
      <trkpt lat="47.491" lon="1.21453">
        <ele>74.984054601015</ele>
        <time>2021-01-19T13:48:23Z</time>
      </trkpt>
      <trkpt lat="47.49098" lon="1.21436">
        <ele>75.566107672206</ele>
        <time>2021-01-19T13:48:27Z</time>
      </trkpt>
      <trkpt lat="47.49096" lon="1.21411">
        <ele>80.854645128178</ele>
        <time>2021-01-19T13:48:32Z</time>
      </trkpt>
      <trkpt lat="47.49094" lon="1.21389">
        <ele>79.145499754329</ele>
        <time>2021-01-19T13:48:36Z</time>
      </trkpt>
      <trkpt lat="47.49097" lon="1.21372">
        <ele>78.675129921685</ele>
        <time>2021-01-19T13:48:40Z</time>
      </trkpt>
      <trkpt lat="47.49097" lon="1.21352">
        <ele>81.112677524876</ele>
        <time>2021-01-19T13:48:45Z</time>
      </trkpt>
      <trkpt lat="47.49096" lon="1.21339">
        <ele>84.797716755858</ele>
        <time>2021-01-19T13:48:49Z</time>
      </trkpt>
      <trkpt lat="47.49097" lon="1.21315">
        <ele>82.481224449427</ele>
        <time>2021-01-19T13:48:54Z</time>
      </trkpt>
      <trkpt lat="47.49097" lon="1.21295">
        <ele>77.534500842281</ele>
        <time>2021-01-19T13:48:58Z</time>
      </trkpt>
      <trkpt lat="47.49097" lon="1.21274">
        <ele>70.565461662596</ele>
        <time>2021-01-19T13:49:02Z</time>
      </trkpt>
      <trkpt lat="47.49096" lon="1.21254">
        <ele>69.46542895011</ele>
        <time>2021-01-19T13:49:06Z</time>
      </trkpt>
      <trkpt lat="47.49094" lon="1.21229">
        <ele>75.298248749673</ele>
        <time>2021-01-19T13:49:11Z</time>
      </trkpt>
      <trkpt lat="47.49092" lon="1.21209">
        <ele>76.313452863992</ele>
        <time>2021-01-19T13:49:15Z</time>
      </trkpt>
      <trkpt lat="47.49088" lon="1.21191">
        <ele>76.790717707738</ele>
        <time>2021-01-19T13:49:19Z</time>
      </trkpt>
      <trkpt lat="47.49085" lon="1.21169">
        <ele>78.294804443864</ele>
        <time>2021-01-19T13:49:24Z</time>
      </trkpt>
      <trkpt lat="47.49084" lon="1.21146">
        <ele>71.798876768754</ele>
        <time>2021-01-19T13:49:28Z</time>
      </trkpt>
      <trkpt lat="47.49081" lon="1.21122">
        <ele>72.466166598018</ele>
        <time>2021-01-19T13:49:33Z</time>
      </trkpt>
      <trkpt lat="47.49077" lon="1.21097">
        <ele>75.832943284272</ele>
        <time>2021-01-19T13:49:38Z</time>
      </trkpt>
      <trkpt lat="47.49072" lon="1.21074">
        <ele>76.479990529366</ele>
        <time>2021-01-19T13:49:43Z</time>
      </trkpt>
      <trkpt lat="47.49069" lon="1.21056">
        <ele>76.77389405697</ele>
        <time>2021-01-19T13:49:47Z</time>
      </trkpt>
      <trkpt lat="47.49066" lon="1.21038">
        <ele>77.242882531735</ele>
        <time>2021-01-19T13:49:51Z</time>
      </trkpt>
      <trkpt lat="47.49062" lon="1.21014">
        <ele>77.258357366534</ele>
        <time>2021-01-19T13:49:56Z</time>
      </trkpt>
      <trkpt lat="47.49059" lon="1.20995">
        <ele>77.865552020028</ele>
        <time>2021-01-19T13:50:00Z</time>
      </trkpt>
      <trkpt lat="47.49056" lon="1.20978">
        <ele>78.204504923171</ele>
        <time>2021-01-19T13:50:04Z</time>
      </trkpt>
      <trkpt lat="47.49055" lon="1.20952">
        <ele>72.686411416686</ele>
        <time>2021-01-19T13:50:09Z</time>
      </trkpt>
      <trkpt lat="47.49051" lon="1.20931">
        <ele>71.094023382242</ele>
        <time>2021-01-19T13:50:14Z</time>
      </trkpt>
      <trkpt lat="47.49048" lon="1.20913">
        <ele>73.713116562874</ele>
        <time>2021-01-19T13:50:18Z</time>
      </trkpt>
      <trkpt lat="47.49044" lon="1.20891">
        <ele>74.975603272609</ele>
        <time>2021-01-19T13:50:23Z</time>
      </trkpt>
      <trkpt lat="47.49041" lon="1.20871">
        <ele>73.316835651159</ele>
        <time>2021-01-19T13:50:27Z</time>
      </trkpt>
      <trkpt lat="47.49039" lon="1.20853">
        <ele>74.24443204491</ele>
        <time>2021-01-19T13:50:31Z</time>
      </trkpt>
      <trkpt lat="47.49034" lon="1.20837">
        <ele>76.648116743786</ele>
        <time>2021-01-19T13:50:35Z</time>
      </trkpt>
      <trkpt lat="47.4903" lon="1.20822">
        <ele>76.92225033559</ele>
        <time>2021-01-19T13:50:39Z</time>
      </trkpt>
      <trkpt lat="47.49025" lon="1.20803">
        <ele>74.438492929755</ele>
        <time>2021-01-19T13:50:43Z</time>
      </trkpt>
      <trkpt lat="47.49021" lon="1.20781">
        <ele>72.826062593061</ele>
        <time>2021-01-19T13:50:47Z</time>
      </trkpt>
      <trkpt lat="47.49016" lon="1.20756">
        <ele>76.121583353994</ele>
        <time>2021-01-19T13:50:52Z</time>
      </trkpt>
      <trkpt lat="47.49012" lon="1.20737">
        <ele>76.527164889939</ele>
        <time>2021-01-19T13:50:56Z</time>
      </trkpt>
      <trkpt lat="47.49008" lon="1.2072">
        <ele>75.484566947513</ele>
        <time>2021-01-19T13:51:00Z</time>
      </trkpt>
      <trkpt lat="47.49005" lon="1.20702">
        <ele>74.09218812805</ele>
        <time>2021-01-19T13:51:04Z</time>
      </trkpt>
      <trkpt lat="47.49002" lon="1.20684">
        <ele>71.878074287924</ele>
        <time>2021-01-19T13:51:08Z</time>
      </trkpt>
      <trkpt lat="47.48999" lon="1.20665">
        <ele>68.616135803313</ele>
        <time>2021-01-19T13:51:12Z</time>
      </trkpt>
      <trkpt lat="47.48996" lon="1.20646">
        <ele>68.315202577421</ele>
        <time>2021-01-19T13:51:16Z</time>
      </trkpt>
      <trkpt lat="47.48993" lon="1.20628">
        <ele>67.993237691826</ele>
        <time>2021-01-19T13:51:20Z</time>
      </trkpt>
      <trkpt lat="47.48989" lon="1.20611">
        <ele>68.03194881916</ele>
        <time>2021-01-19T13:51:24Z</time>
      </trkpt>
      <trkpt lat="47.48984" lon="1.20589">
        <ele>67.301322829646</ele>
        <time>2021-01-19T13:51:29Z</time>
      </trkpt>
      <trkpt lat="47.48979" lon="1.20567">
        <ele>67.528651200895</ele>
        <time>2021-01-19T13:51:34Z</time>
      </trkpt>
      <trkpt lat="47.48975" lon="1.20549">
        <ele>68.049299666176</ele>
        <time>2021-01-19T13:51:38Z</time>
      </trkpt>
      <trkpt lat="47.48971" lon="1.20531">
        <ele>66.913522188253</ele>
        <time>2021-01-19T13:51:42Z</time>
      </trkpt>
      <trkpt lat="47.48966" lon="1.20509">
        <ele>66.901265686678</ele>
        <time>2021-01-19T13:51:47Z</time>
      </trkpt>
      <trkpt lat="47.4896" lon="1.20488">
        <ele>66.785318739944</ele>
        <time>2021-01-19T13:51:52Z</time>
      </trkpt>
      <trkpt lat="47.48956" lon="1.20466">
        <ele>67.268215365724</ele>
        <time>2021-01-19T13:51:57Z</time>
      </trkpt>
      <trkpt lat="47.48952" lon="1.20449">
        <ele>66.448877321076</ele>
        <time>2021-01-19T13:52:01Z</time>
      </trkpt>
      <trkpt lat="47.48947" lon="1.20431">
        <ele>65.824581051972</ele>
        <time>2021-01-19T13:52:05Z</time>
      </trkpt>
      <trkpt lat="47.48942" lon="1.20415">
        <ele>65.753063130228</ele>
        <time>2021-01-19T13:52:09Z</time>
      </trkpt>
      <trkpt lat="47.48935" lon="1.20396">
        <ele>67.55332206159</ele>
        <time>2021-01-19T13:52:14Z</time>
      </trkpt>
      <trkpt lat="47.48929" lon="1.20381">
        <ele>67.349350660364</ele>
        <time>2021-01-19T13:52:18Z</time>
      </trkpt>
      <trkpt lat="47.4892" lon="1.20366">
        <ele>70.872814197956</ele>
        <time>2021-01-19T13:52:23Z</time>
      </trkpt>
      <trkpt lat="47.4891" lon="1.20351">
        <ele>77.512249079617</ele>
        <time>2021-01-19T13:52:28Z</time>
      </trkpt>
      <trkpt lat="47.48904" lon="1.20336">
        <ele>76.91982028823</ele>
        <time>2021-01-19T13:52:32Z</time>
      </trkpt>
      <trkpt lat="47.48894" lon="1.20324">
        <ele>80.201357685605</ele>
        <time>2021-01-19T13:52:37Z</time>
      </trkpt>
      <trkpt lat="47.48884" lon="1.20312">
        <ele>79.80280315028</ele>
        <time>2021-01-19T13:52:42Z</time>
      </trkpt>
      <trkpt lat="47.48876" lon="1.20305">
        <ele>79.703152537194</ele>
        <time>2021-01-19T13:52:46Z</time>
      </trkpt>
      <trkpt lat="47.48866" lon="1.20298">
        <ele>81.621023764949</ele>
        <time>2021-01-19T13:52:51Z</time>
      </trkpt>
      <trkpt lat="47.4886" lon="1.20291">
        <ele>83.761863348419</ele>
        <time>2021-01-19T13:52:55Z</time>
      </trkpt>
      <trkpt lat="47.48853" lon="1.20277">
        <ele>80.542193139914</ele>
        <time>2021-01-19T13:52:59Z</time>
      </trkpt>
      <trkpt lat="47.48845" lon="1.20265">
        <ele>84.499223432698</ele>
        <time>2021-01-19T13:53:04Z</time>
      </trkpt>
      <trkpt lat="47.48838" lon="1.20256">
        <ele>87.129199667101</ele>
        <time>2021-01-19T13:53:08Z</time>
      </trkpt>
      <trkpt lat="47.4883" lon="1.20243">
        <ele>89.591097889402</ele>
        <time>2021-01-19T13:53:13Z</time>
      </trkpt>
      <trkpt lat="47.48823" lon="1.20232">
        <ele>90.441121419142</ele>
        <time>2021-01-19T13:53:17Z</time>
      </trkpt>
      <trkpt lat="47.48816" lon="1.20224">
        <ele>91.867220878442</ele>
        <time>2021-01-19T13:53:21Z</time>
      </trkpt>
      <trkpt lat="47.48808" lon="1.20216">
        <ele>96.244091459121</ele>
        <time>2021-01-19T13:53:25Z</time>
      </trkpt>
      <trkpt lat="47.488" lon="1.20207">
        <ele>95.331241246291</ele>
        <time>2021-01-19T13:53:29Z</time>
      </trkpt>
      <trkpt lat="47.48791" lon="1.20192">
        <ele>95.014182958655</ele>
        <time>2021-01-19T13:53:34Z</time>
      </trkpt>
      <trkpt lat="47.48779" lon="1.20177">
        <ele>97.170118527549</ele>
        <time>2021-01-19T13:53:39Z</time>
      </trkpt>
      <trkpt lat="47.48772" lon="1.20166">
        <ele>96.240503307826</ele>
        <time>2021-01-19T13:53:43Z</time>
      </trkpt>
      <trkpt lat="47.48765" lon="1.2015">
        <ele>90.690187605377</ele>
        <time>2021-01-19T13:53:48Z</time>
      </trkpt>
      <trkpt lat="47.48757" lon="1.20132">
        <ele>85.770504407802</ele>
        <time>2021-01-19T13:53:52Z</time>
      </trkpt>
      <trkpt lat="47.48745" lon="1.20103">
        <ele>80.687145553754</ele>
        <time>2021-01-19T13:53:57Z</time>
      </trkpt>
      <trkpt lat="47.48734" lon="1.20076">
        <ele>79.123461216936</ele>
        <time>2021-01-19T13:54:02Z</time>
      </trkpt>
      <trkpt lat="47.48722" lon="1.20054">
        <ele>79.548919441274</ele>
        <time>2021-01-19T13:54:07Z</time>
      </trkpt>
      <trkpt lat="47.48711" lon="1.20034">
        <ele>80.471944771502</ele>
        <time>2021-01-19T13:54:11Z</time>
      </trkpt>
      <trkpt lat="47.487" lon="1.20014">
        <ele>82.326385616991</ele>
        <time>2021-01-19T13:54:15Z</time>
      </trkpt>
      <trkpt lat="47.48688" lon="1.19988">
        <ele>82.196005753552</ele>
        <time>2021-01-19T13:54:20Z</time>
      </trkpt>
      <trkpt lat="47.48676" lon="1.19963">
        <ele>81.601136566171</ele>
        <time>2021-01-19T13:54:25Z</time>
      </trkpt>
      <trkpt lat="47.48668" lon="1.19945">
        <ele>82.536072017505</ele>
        <time>2021-01-19T13:54:30Z</time>
      </trkpt>
      <trkpt lat="47.48662" lon="1.19929">
        <ele>81.44640467342</ele>
        <time>2021-01-19T13:54:34Z</time>
      </trkpt>
      <trkpt lat="47.48652" lon="1.19914">
        <ele>82.360417574725</ele>
        <time>2021-01-19T13:54:39Z</time>
      </trkpt>
      <trkpt lat="47.48644" lon="1.19901">
        <ele>81.561888824447</ele>
        <time>2021-01-19T13:54:43Z</time>
      </trkpt>
      <trkpt lat="47.48635" lon="1.19881">
        <ele>80.210604025502</ele>
        <time>2021-01-19T13:54:48Z</time>
      </trkpt>
      <trkpt lat="47.48628" lon="1.19861">
        <ele>81.436778013921</ele>
        <time>2021-01-19T13:54:52Z</time>
      </trkpt>
      <trkpt lat="47.48622" lon="1.1984">
        <ele>80.923957386338</ele>
        <time>2021-01-19T13:54:56Z</time>
      </trkpt>
      <trkpt lat="47.48617" lon="1.19821">
        <ele>79.757601140844</ele>
        <time>2021-01-19T13:55:00Z</time>
      </trkpt>
      <trkpt lat="47.48612" lon="1.19803">
        <ele>80.240461648575</ele>
        <time>2021-01-19T13:55:04Z</time>
      </trkpt>
      <trkpt lat="47.48606" lon="1.19783">
        <ele>80.483713216431</ele>
        <time>2021-01-19T13:55:09Z</time>
      </trkpt>
      <trkpt lat="47.48602" lon="1.19764">
        <ele>80.583439357575</ele>
        <time>2021-01-19T13:55:14Z</time>
      </trkpt>
      <trkpt lat="47.48598" lon="1.19747">
        <ele>76.861412923768</ele>
        <time>2021-01-19T13:55:18Z</time>
      </trkpt>
      <trkpt lat="47.48593" lon="1.19732">
        <ele>76.496362168661</ele>
        <time>2021-01-19T13:55:22Z</time>
      </trkpt>
      <trkpt lat="47.48586" lon="1.19717">
        <ele>76.277971009605</ele>
        <time>2021-01-19T13:55:26Z</time>
      </trkpt>
      <trkpt lat="47.48581" lon="1.19704">
        <ele>74.352683853053</ele>
        <time>2021-01-19T13:55:30Z</time>
      </trkpt>
      <trkpt lat="47.48575" lon="1.1969">
        <ele>74.019321347682</ele>
        <time>2021-01-19T13:55:34Z</time>
      </trkpt>
      <trkpt lat="47.48566" lon="1.19672">
        <ele>73.025186039982</ele>
        <time>2021-01-19T13:55:39Z</time>
      </trkpt>
      <trkpt lat="47.48559" lon="1.19657">
        <ele>72.036113337093</ele>
        <time>2021-01-19T13:55:43Z</time>
      </trkpt>
      <trkpt lat="47.48552" lon="1.19642">
        <ele>70.946798950216</ele>
        <time>2021-01-19T13:55:47Z</time>
      </trkpt>
      <trkpt lat="47.48542" lon="1.19624">
        <ele>71.415829457353</ele>
        <time>2021-01-19T13:55:52Z</time>
      </trkpt>
      <trkpt lat="47.48533" lon="1.19608">
        <ele>69.183564748544</ele>
        <time>2021-01-19T13:55:57Z</time>
      </trkpt>
      <trkpt lat="47.48527" lon="1.19594">
        <ele>68.556347854074</ele>
        <time>2021-01-19T13:56:01Z</time>
      </trkpt>
      <trkpt lat="47.48518" lon="1.19581">
        <ele>69.459153542829</ele>
        <time>2021-01-19T13:56:06Z</time>
      </trkpt>
      <trkpt lat="47.4851" lon="1.19568">
        <ele>70.291297653992</ele>
        <time>2021-01-19T13:56:10Z</time>
      </trkpt>
      <trkpt lat="47.48502" lon="1.19554">
        <ele>72.541260109508</ele>
        <time>2021-01-19T13:56:15Z</time>
      </trkpt>
      <trkpt lat="47.48492" lon="1.19537">
        <ele>70.175576697708</ele>
        <time>2021-01-19T13:56:20Z</time>
      </trkpt>
      <trkpt lat="47.48486" lon="1.19524">
        <ele>72.357017497177</ele>
        <time>2021-01-19T13:56:24Z</time>
      </trkpt>
      <trkpt lat="47.48479" lon="1.19506">
        <ele>72.284875905622</ele>
        <time>2021-01-19T13:56:28Z</time>
      </trkpt>
      <trkpt lat="47.48473" lon="1.19484">
        <ele>71.621581507347</ele>
        <time>2021-01-19T13:56:32Z</time>
      </trkpt>
      <trkpt lat="47.48465" lon="1.19468">
        <ele>71.296936602996</ele>
        <time>2021-01-19T13:56:36Z</time>
      </trkpt>
      <trkpt lat="47.48457" lon="1.19452">
        <ele>70.812284834116</ele>
        <time>2021-01-19T13:56:40Z</time>
      </trkpt>
      <trkpt lat="47.4845" lon="1.19439">
        <ele>71.401345293277</ele>
        <time>2021-01-19T13:56:44Z</time>
      </trkpt>
      <trkpt lat="47.48443" lon="1.19423">
        <ele>70.987634881666</ele>
        <time>2021-01-19T13:56:48Z</time>
      </trkpt>
      <trkpt lat="47.48434" lon="1.19405">
        <ele>71.266444948951</ele>
        <time>2021-01-19T13:56:53Z</time>
      </trkpt>
      <trkpt lat="47.48427" lon="1.19391">
        <ele>71.860609296755</ele>
        <time>2021-01-19T13:56:57Z</time>
      </trkpt>
      <trkpt lat="47.4842" lon="1.19377">
        <ele>71.880007259974</ele>
        <time>2021-01-19T13:57:01Z</time>
      </trkpt>
      <trkpt lat="47.48413" lon="1.19364">
        <ele>71.59725174165</ele>
        <time>2021-01-19T13:57:05Z</time>
      </trkpt>
      <trkpt lat="47.48405" lon="1.19347">
        <ele>69.579744963003</ele>
        <time>2021-01-19T13:57:09Z</time>
      </trkpt>
      <trkpt lat="47.48399" lon="1.19334">
        <ele>71.654841805985</ele>
        <time>2021-01-19T13:57:13Z</time>
      </trkpt>
      <trkpt lat="47.48396" lon="1.19314">
        <ele>71.055745179133</ele>
        <time>2021-01-19T13:57:18Z</time>
      </trkpt>
      <trkpt lat="47.48391" lon="1.19291">
        <ele>68.804181199152</ele>
        <time>2021-01-19T13:57:23Z</time>
      </trkpt>
      <trkpt lat="47.48385" lon="1.19275">
        <ele>67.427595295466</ele>
        <time>2021-01-19T13:57:28Z</time>
      </trkpt>
      <trkpt lat="47.48378" lon="1.19254">
        <ele>69.43309292164</ele>
        <time>2021-01-19T13:57:33Z</time>
      </trkpt>
      <trkpt lat="47.48371" lon="1.19237">
        <ele>69.269072299787</ele>
        <time>2021-01-19T13:57:37Z</time>
      </trkpt>
      <trkpt lat="47.48364" lon="1.19216">
        <ele>68.419315006078</ele>
        <time>2021-01-19T13:57:42Z</time>
      </trkpt>
      <trkpt lat="47.48356" lon="1.192">
        <ele>71.133139249025</ele>
        <time>2021-01-19T13:57:47Z</time>
      </trkpt>
      <trkpt lat="47.4835" lon="1.19186">
        <ele>71.620394325532</ele>
        <time>2021-01-19T13:57:51Z</time>
      </trkpt>
      <trkpt lat="47.48344" lon="1.19165">
        <ele>72.671980801749</ele>
        <time>2021-01-19T13:57:56Z</time>
      </trkpt>
      <trkpt lat="47.4834" lon="1.19149">
        <ele>72.243170535062</ele>
        <time>2021-01-19T13:58:00Z</time>
      </trkpt>
      <trkpt lat="47.48334" lon="1.19127">
        <ele>73.077069263038</ele>
        <time>2021-01-19T13:58:05Z</time>
      </trkpt>
      <trkpt lat="47.48329" lon="1.19103">
        <ele>71.929119698397</ele>
        <time>2021-01-19T13:58:10Z</time>
      </trkpt>
      <trkpt lat="47.48325" lon="1.19088">
        <ele>72.060377870748</ele>
        <time>2021-01-19T13:58:14Z</time>
      </trkpt>
      <trkpt lat="47.48318" lon="1.19066">
        <ele>71.905686257379</ele>
        <time>2021-01-19T13:58:19Z</time>
      </trkpt>
      <trkpt lat="47.48313" lon="1.19046">
        <ele>71.653305989928</ele>
        <time>2021-01-19T13:58:24Z</time>
      </trkpt>
      <trkpt lat="47.48309" lon="1.19031">
        <ele>72.787304303256</ele>
        <time>2021-01-19T13:58:28Z</time>
      </trkpt>
      <trkpt lat="47.48304" lon="1.19014">
        <ele>73.689563386159</ele>
        <time>2021-01-19T13:58:32Z</time>
      </trkpt>
      <trkpt lat="47.48299" lon="1.19">
        <ele>72.827882807666</ele>
        <time>2021-01-19T13:58:36Z</time>
      </trkpt>
      <trkpt lat="47.48295" lon="1.18984">
        <ele>71.823712875648</ele>
        <time>2021-01-19T13:58:41Z</time>
      </trkpt>
      <trkpt lat="47.48291" lon="1.1897">
        <ele>71.546290452913</ele>
        <time>2021-01-19T13:58:45Z</time>
      </trkpt>
      <trkpt lat="47.48286" lon="1.18954">
        <ele>71.67065137776</ele>
        <time>2021-01-19T13:58:49Z</time>
      </trkpt>
      <trkpt lat="47.4828" lon="1.18938">
        <ele>71.633734749886</ele>
        <time>2021-01-19T13:58:53Z</time>
      </trkpt>
      <trkpt lat="47.48275" lon="1.18925">
        <ele>71.212817323583</ele>
        <time>2021-01-19T13:58:57Z</time>
      </trkpt>
      <trkpt lat="47.48268" lon="1.18913">
        <ele>70.307438510712</ele>
        <time>2021-01-19T13:59:01Z</time>
      </trkpt>
      <trkpt lat="47.4826" lon="1.18899">
        <ele>69.920491878625</ele>
        <time>2021-01-19T13:59:06Z</time>
      </trkpt>
      <trkpt lat="47.48253" lon="1.18888">
        <ele>71.74010963458</ele>
        <time>2021-01-19T13:59:10Z</time>
      </trkpt>
      <trkpt lat="47.48245" lon="1.18874">
        <ele>71.519718947157</ele>
        <time>2021-01-19T13:59:14Z</time>
      </trkpt>
      <trkpt lat="47.48236" lon="1.18854">
        <ele>71.951131377001</ele>
        <time>2021-01-19T13:59:19Z</time>
      </trkpt>
      <trkpt lat="47.4823" lon="1.18836">
        <ele>70.549709272832</ele>
        <time>2021-01-19T13:59:23Z</time>
      </trkpt>
      <trkpt lat="47.48224" lon="1.18818">
        <ele>71.123631478371</ele>
        <time>2021-01-19T13:59:27Z</time>
      </trkpt>
      <trkpt lat="47.48217" lon="1.18797">
        <ele>70.511985480918</ele>
        <time>2021-01-19T13:59:32Z</time>
      </trkpt>
      <trkpt lat="47.48211" lon="1.1878">
        <ele>70.009156380725</ele>
        <time>2021-01-19T13:59:36Z</time>
      </trkpt>
      <trkpt lat="47.48204" lon="1.18764">
        <ele>69.341853685756</ele>
        <time>2021-01-19T13:59:40Z</time>
      </trkpt>
      <trkpt lat="47.48196" lon="1.18745">
        <ele>70.519422964822</ele>
        <time>2021-01-19T13:59:45Z</time>
      </trkpt>
      <trkpt lat="47.4819" lon="1.1873">
        <ele>70.205028581002</ele>
        <time>2021-01-19T13:59:49Z</time>
      </trkpt>
      <trkpt lat="47.48183" lon="1.18715">
        <ele>70.006369328559</ele>
        <time>2021-01-19T13:59:53Z</time>
      </trkpt>
      <trkpt lat="47.48176" lon="1.187">
        <ele>70.055984935583</ele>
        <time>2021-01-19T13:59:57Z</time>
      </trkpt>
      <trkpt lat="47.4817" lon="1.18684">
        <ele>70.798486106256</ele>
        <time>2021-01-19T14:00:01Z</time>
      </trkpt>
      <trkpt lat="47.48162" lon="1.18664">
        <ele>70.941441251697</ele>
        <time>2021-01-19T14:00:06Z</time>
      </trkpt>
      <trkpt lat="47.48155" lon="1.18641">
        <ele>69.842160047126</ele>
        <time>2021-01-19T14:00:11Z</time>
      </trkpt>
      <trkpt lat="47.48149" lon="1.18625">
        <ele>70.062342192961</ele>
        <time>2021-01-19T14:00:15Z</time>
      </trkpt>
      <trkpt lat="47.48141" lon="1.18606">
        <ele>69.850103634267</ele>
        <time>2021-01-19T14:00:20Z</time>
      </trkpt>
      <trkpt lat="47.48135" lon="1.18589">
        <ele>69.539918729719</ele>
        <time>2021-01-19T14:00:24Z</time>
      </trkpt>
      <trkpt lat="47.48129" lon="1.18576">
        <ele>67.121549832435</ele>
        <time>2021-01-19T14:00:28Z</time>
      </trkpt>
      <trkpt lat="47.48121" lon="1.18556">
        <ele>68.245963548202</ele>
        <time>2021-01-19T14:00:33Z</time>
      </trkpt>
      <trkpt lat="47.48116" lon="1.18538">
        <ele>66.476835281984</ele>
        <time>2021-01-19T14:00:37Z</time>
      </trkpt>
      <trkpt lat="47.4811" lon="1.18522">
        <ele>67.812971652892</ele>
        <time>2021-01-19T14:00:41Z</time>
      </trkpt>
      <trkpt lat="47.48104" lon="1.18502">
        <ele>66.924855895796</ele>
        <time>2021-01-19T14:00:46Z</time>
      </trkpt>
      <trkpt lat="47.48098" lon="1.18487">
        <ele>67.341918632541</ele>
        <time>2021-01-19T14:00:50Z</time>
      </trkpt>
      <trkpt lat="47.48092" lon="1.18469">
        <ele>67.545218698038</ele>
        <time>2021-01-19T14:00:55Z</time>
      </trkpt>
      <trkpt lat="47.48085" lon="1.18448">
        <ele>66.328308991344</ele>
        <time>2021-01-19T14:01:00Z</time>
      </trkpt>
      <trkpt lat="47.4808" lon="1.18433">
        <ele>66.146399254493</ele>
        <time>2021-01-19T14:01:04Z</time>
      </trkpt>
      <trkpt lat="47.48075" lon="1.18419">
        <ele>66.79062270474</ele>
        <time>2021-01-19T14:01:08Z</time>
      </trkpt>
      <trkpt lat="47.4807" lon="1.18405">
        <ele>66.826255819241</ele>
        <time>2021-01-19T14:01:12Z</time>
      </trkpt>
      <trkpt lat="47.48064" lon="1.18388">
        <ele>67.406405925228</ele>
        <time>2021-01-19T14:01:17Z</time>
      </trkpt>
      <trkpt lat="47.48059" lon="1.18376">
        <ele>67.499065769915</ele>
        <time>2021-01-19T14:01:21Z</time>
      </trkpt>
      <trkpt lat="47.48052" lon="1.18361">
        <ele>68.398502809044</ele>
        <time>2021-01-19T14:01:26Z</time>
      </trkpt>
      <trkpt lat="47.48049" lon="1.18346">
        <ele>72.528243814417</ele>
        <time>2021-01-19T14:01:30Z</time>
      </trkpt>
      <trkpt lat="47.48044" lon="1.18337">
        <ele>73.353516434574</ele>
        <time>2021-01-19T14:01:34Z</time>
      </trkpt>
      <trkpt lat="47.48039" lon="1.18321">
        <ele>72.490675163387</ele>
        <time>2021-01-19T14:01:39Z</time>
      </trkpt>
      <trkpt lat="47.48033" lon="1.1831">
        <ele>73.113932433677</ele>
        <time>2021-01-19T14:01:44Z</time>
      </trkpt>
      <trkpt lat="47.48029" lon="1.18302">
        <ele>73.053562281916</ele>
        <time>2021-01-19T14:01:48Z</time>
      </trkpt>
      <trkpt lat="47.48023" lon="1.18293">
        <ele>74.441432626776</ele>
        <time>2021-01-19T14:02:03Z</time>
      </trkpt>
      <trkpt lat="47.48027" lon="1.18288">
        <ele>67.627403517764</ele>
        <time>2021-01-19T14:03:18Z</time>
      </trkpt>
      <trkpt lat="47.48027" lon="1.18288">
        <ele>67.627403517764</ele>
        <time>2021-01-19T14:03:18Z</time>
      </trkpt>
      <trkpt lat="47.48031" lon="1.18287">
        <ele>71.112393966068</ele>
        <time>2021-01-19T14:13:53Z</time>
      </trkpt>
      <trkpt lat="47.48037" lon="1.18295">
        <ele>70.460525730581</ele>
        <time>2021-01-19T14:14:39Z</time>
      </trkpt>
      <trkpt lat="47.48042" lon="1.18309">
        <ele>69.041317895002</ele>
        <time>2021-01-19T14:14:44Z</time>
      </trkpt>
      <trkpt lat="47.48046" lon="1.18321">
        <ele>69.013458232755</ele>
        <time>2021-01-19T14:14:48Z</time>
      </trkpt>
      <trkpt lat="47.48052" lon="1.18332">
        <ele>71.890192998486</ele>
        <time>2021-01-19T14:14:53Z</time>
      </trkpt>
      <trkpt lat="47.48058" lon="1.18345">
        <ele>70.968542944933</ele>
        <time>2021-01-19T14:14:57Z</time>
      </trkpt>
      <trkpt lat="47.48063" lon="1.18361">
        <ele>71.804841532907</ele>
        <time>2021-01-19T14:15:01Z</time>
      </trkpt>
      <trkpt lat="47.4807" lon="1.18378">
        <ele>72.756373010812</ele>
        <time>2021-01-19T14:15:06Z</time>
      </trkpt>
      <trkpt lat="47.48075" lon="1.18394">
        <ele>72.400848615844</ele>
        <time>2021-01-19T14:15:10Z</time>
      </trkpt>
      <trkpt lat="47.48083" lon="1.18413">
        <ele>71.062249325443</ele>
        <time>2021-01-19T14:15:15Z</time>
      </trkpt>
      <trkpt lat="47.48088" lon="1.1843">
        <ele>70.820220498168</ele>
        <time>2021-01-19T14:15:19Z</time>
      </trkpt>
      <trkpt lat="47.48095" lon="1.18449">
        <ele>69.841435009827</ele>
        <time>2021-01-19T14:15:24Z</time>
      </trkpt>
      <trkpt lat="47.48102" lon="1.18468">
        <ele>71.6374624733</ele>
        <time>2021-01-19T14:15:29Z</time>
      </trkpt>
      <trkpt lat="47.48107" lon="1.18488">
        <ele>71.831765294014</ele>
        <time>2021-01-19T14:15:33Z</time>
      </trkpt>
      <trkpt lat="47.48112" lon="1.18502">
        <ele>70.648926914838</ele>
        <time>2021-01-19T14:15:37Z</time>
      </trkpt>
      <trkpt lat="47.48119" lon="1.18526">
        <ele>70.125933031901</ele>
        <time>2021-01-19T14:15:42Z</time>
      </trkpt>
      <trkpt lat="47.48123" lon="1.18537">
        <ele>71.27017533226</ele>
        <time>2021-01-19T14:15:46Z</time>
      </trkpt>
      <trkpt lat="47.48122" lon="1.1855">
        <ele>67.300693448291</ele>
        <time>2021-01-19T14:15:57Z</time>
      </trkpt>
      <trkpt lat="47.48131" lon="1.18553">
        <ele>66.939568713088</ele>
        <time>2021-01-19T14:20:53Z</time>
      </trkpt>
      <trkpt lat="47.48134" lon="1.18563">
        <ele>67.89829267032</ele>
        <time>2021-01-19T14:20:57Z</time>
      </trkpt>
      <trkpt lat="47.48139" lon="1.18575">
        <ele>68.121269928868</ele>
        <time>2021-01-19T14:21:01Z</time>
      </trkpt>
      <trkpt lat="47.48145" lon="1.18592">
        <ele>70.193309618432</ele>
        <time>2021-01-19T14:21:06Z</time>
      </trkpt>
      <trkpt lat="47.48152" lon="1.18608">
        <ele>70.945313486722</ele>
        <time>2021-01-19T14:21:11Z</time>
      </trkpt>
      <trkpt lat="47.48159" lon="1.18626">
        <ele>71.509495050299</ele>
        <time>2021-01-19T14:21:16Z</time>
      </trkpt>
      <trkpt lat="47.48164" lon="1.18641">
        <ele>71.911341027359</ele>
        <time>2021-01-19T14:21:20Z</time>
      </trkpt>
      <trkpt lat="47.48172" lon="1.18658">
        <ele>70.52272410193</ele>
        <time>2021-01-19T14:21:25Z</time>
      </trkpt>
      <trkpt lat="47.48177" lon="1.18666">
        <ele>70.796360741057</ele>
        <time>2021-01-19T14:21:28Z</time>
      </trkpt>
      <trkpt lat="47.48184" lon="1.1869">
        <ele>69.566202364229</ele>
        <time>2021-01-19T14:21:33Z</time>
      </trkpt>
      <trkpt lat="47.48189" lon="1.18704">
        <ele>69.780143350798</ele>
        <time>2021-01-19T14:21:37Z</time>
      </trkpt>
      <trkpt lat="47.48195" lon="1.18723">
        <ele>67.388339939241</ele>
        <time>2021-01-19T14:21:42Z</time>
      </trkpt>
      <trkpt lat="47.482" lon="1.18736">
        <ele>68.553256174987</ele>
        <time>2021-01-19T14:21:46Z</time>
      </trkpt>
      <trkpt lat="47.48205" lon="1.18748">
        <ele>68.790363999841</ele>
        <time>2021-01-19T14:21:50Z</time>
      </trkpt>
      <trkpt lat="47.48211" lon="1.18761">
        <ele>68.306774598498</ele>
        <time>2021-01-19T14:21:54Z</time>
      </trkpt>
      <trkpt lat="47.48218" lon="1.18777">
        <ele>68.912020976912</ele>
        <time>2021-01-19T14:21:59Z</time>
      </trkpt>
      <trkpt lat="47.48222" lon="1.18791">
        <ele>68.690126474624</ele>
        <time>2021-01-19T14:22:03Z</time>
      </trkpt>
      <trkpt lat="47.48229" lon="1.18807">
        <ele>68.491414418173</ele>
        <time>2021-01-19T14:22:08Z</time>
      </trkpt>
      <trkpt lat="47.48234" lon="1.18825">
        <ele>69.438154316727</ele>
        <time>2021-01-19T14:22:13Z</time>
      </trkpt>
      <trkpt lat="47.48241" lon="1.1884">
        <ele>71.159084567738</ele>
        <time>2021-01-19T14:22:18Z</time>
      </trkpt>
      <trkpt lat="47.48245" lon="1.1885">
        <ele>70.474400693104</ele>
        <time>2021-01-19T14:22:21Z</time>
      </trkpt>
      <trkpt lat="47.48249" lon="1.1886">
        <ele>70.596823084922</ele>
        <time>2021-01-19T14:22:24Z</time>
      </trkpt>
      <trkpt lat="47.48257" lon="1.18874">
        <ele>72.575531837658</ele>
        <time>2021-01-19T14:22:29Z</time>
      </trkpt>
      <trkpt lat="47.48264" lon="1.18887">
        <ele>72.291164407912</ele>
        <time>2021-01-19T14:22:33Z</time>
      </trkpt>
      <trkpt lat="47.48272" lon="1.18902">
        <ele>71.300369867399</ele>
        <time>2021-01-19T14:22:37Z</time>
      </trkpt>
      <trkpt lat="47.48282" lon="1.18922">
        <ele>72.639509677537</ele>
        <time>2021-01-19T14:22:42Z</time>
      </trkpt>
      <trkpt lat="47.4829" lon="1.18939">
        <ele>72.473327355339</ele>
        <time>2021-01-19T14:22:46Z</time>
      </trkpt>
      <trkpt lat="47.48296" lon="1.18951">
        <ele>72.792988827277</ele>
        <time>2021-01-19T14:22:49Z</time>
      </trkpt>
      <trkpt lat="47.48304" lon="1.18971">
        <ele>72.60787701175</ele>
        <time>2021-01-19T14:22:53Z</time>
      </trkpt>
      <trkpt lat="47.48311" lon="1.18993">
        <ele>70.667117226844</ele>
        <time>2021-01-19T14:22:57Z</time>
      </trkpt>
      <trkpt lat="47.48317" lon="1.19017">
        <ele>71.561596815126</ele>
        <time>2021-01-19T14:23:02Z</time>
      </trkpt>
      <trkpt lat="47.48322" lon="1.19034">
        <ele>70.077583558189</ele>
        <time>2021-01-19T14:23:06Z</time>
      </trkpt>
      <trkpt lat="47.48329" lon="1.19055">
        <ele>68.919639637491</ele>
        <time>2021-01-19T14:23:11Z</time>
      </trkpt>
      <trkpt lat="47.48333" lon="1.19067">
        <ele>69.38852723692</ele>
        <time>2021-01-19T14:23:14Z</time>
      </trkpt>
      <trkpt lat="47.48339" lon="1.19087">
        <ele>68.858896643478</ele>
        <time>2021-01-19T14:23:19Z</time>
      </trkpt>
      <trkpt lat="47.48345" lon="1.19105">
        <ele>70.581468486606</ele>
        <time>2021-01-19T14:23:23Z</time>
      </trkpt>
      <trkpt lat="47.48351" lon="1.1912">
        <ele>71.491450361066</ele>
        <time>2021-01-19T14:23:27Z</time>
      </trkpt>
      <trkpt lat="47.48355" lon="1.19131">
        <ele>70.189013638953</ele>
        <time>2021-01-19T14:23:30Z</time>
      </trkpt>
      <trkpt lat="47.48361" lon="1.1915">
        <ele>69.624202130435</ele>
        <time>2021-01-19T14:23:34Z</time>
      </trkpt>
      <trkpt lat="47.48367" lon="1.19173">
        <ele>71.937065630993</ele>
        <time>2021-01-19T14:23:39Z</time>
      </trkpt>
      <trkpt lat="47.48373" lon="1.19191">
        <ele>72.079136809582</ele>
        <time>2021-01-19T14:23:43Z</time>
      </trkpt>
      <trkpt lat="47.48378" lon="1.19208">
        <ele>72.356002760103</ele>
        <time>2021-01-19T14:23:47Z</time>
      </trkpt>
      <trkpt lat="47.48387" lon="1.19231">
        <ele>75.751945630202</ele>
        <time>2021-01-19T14:23:52Z</time>
      </trkpt>
      <trkpt lat="47.48392" lon="1.19248">
        <ele>73.689282007382</ele>
        <time>2021-01-19T14:23:56Z</time>
      </trkpt>
      <trkpt lat="47.48397" lon="1.19268">
        <ele>74.145478309445</ele>
        <time>2021-01-19T14:24:00Z</time>
      </trkpt>
      <trkpt lat="47.48401" lon="1.19282">
        <ele>72.736158149272</ele>
        <time>2021-01-19T14:24:03Z</time>
      </trkpt>
      <trkpt lat="47.48408" lon="1.19308">
        <ele>72.214459934112</ele>
        <time>2021-01-19T14:24:08Z</time>
      </trkpt>
      <trkpt lat="47.48415" lon="1.19338">
        <ele>72.866195696317</ele>
        <time>2021-01-19T14:24:13Z</time>
      </trkpt>
      <trkpt lat="47.48424" lon="1.19356">
        <ele>74.538481301763</ele>
        <time>2021-01-19T14:24:17Z</time>
      </trkpt>
      <trkpt lat="47.48434" lon="1.19374">
        <ele>74.830188674668</ele>
        <time>2021-01-19T14:24:22Z</time>
      </trkpt>
      <trkpt lat="47.48443" lon="1.19388">
        <ele>75.517123670002</ele>
        <time>2021-01-19T14:24:26Z</time>
      </trkpt>
      <trkpt lat="47.4845" lon="1.19402">
        <ele>75.886542087563</ele>
        <time>2021-01-19T14:24:30Z</time>
      </trkpt>
      <trkpt lat="47.48457" lon="1.19414">
        <ele>77.598250274883</ele>
        <time>2021-01-19T14:24:34Z</time>
      </trkpt>
      <trkpt lat="47.48466" lon="1.1943">
        <ele>79.943442680844</ele>
        <time>2021-01-19T14:24:39Z</time>
      </trkpt>
      <trkpt lat="47.48473" lon="1.19442">
        <ele>78.947484513796</ele>
        <time>2021-01-19T14:24:43Z</time>
      </trkpt>
      <trkpt lat="47.48482" lon="1.19462">
        <ele>78.458226290331</ele>
        <time>2021-01-19T14:24:47Z</time>
      </trkpt>
      <trkpt lat="47.48489" lon="1.19481">
        <ele>76.780259793159</ele>
        <time>2021-01-19T14:24:51Z</time>
      </trkpt>
      <trkpt lat="47.48501" lon="1.1951">
        <ele>72.870055118043</ele>
        <time>2021-01-19T14:24:56Z</time>
      </trkpt>
      <trkpt lat="47.48507" lon="1.19521">
        <ele>72.369903302248</ele>
        <time>2021-01-19T14:25:00Z</time>
      </trkpt>
      <trkpt lat="47.48513" lon="1.19533">
        <ele>72.890907894496</ele>
        <time>2021-01-19T14:25:04Z</time>
      </trkpt>
      <trkpt lat="47.48521" lon="1.19553">
        <ele>70.878907731567</ele>
        <time>2021-01-19T14:25:09Z</time>
      </trkpt>
      <trkpt lat="47.4853" lon="1.19568">
        <ele>73.591795785678</ele>
        <time>2021-01-19T14:25:14Z</time>
      </trkpt>
      <trkpt lat="47.48542" lon="1.19588">
        <ele>72.980735765455</ele>
        <time>2021-01-19T14:25:19Z</time>
      </trkpt>
      <trkpt lat="47.48551" lon="1.19603">
        <ele>73.799199626116</ele>
        <time>2021-01-19T14:25:23Z</time>
      </trkpt>
      <trkpt lat="47.4856" lon="1.19619">
        <ele>73.681094716944</ele>
        <time>2021-01-19T14:25:27Z</time>
      </trkpt>
      <trkpt lat="47.48569" lon="1.19635">
        <ele>75.17596544973</ele>
        <time>2021-01-19T14:25:31Z</time>
      </trkpt>
      <trkpt lat="47.4858" lon="1.19655">
        <ele>73.699960313657</ele>
        <time>2021-01-19T14:25:36Z</time>
      </trkpt>
      <trkpt lat="47.48589" lon="1.19674">
        <ele>75.152652103239</ele>
        <time>2021-01-19T14:25:41Z</time>
      </trkpt>
      <trkpt lat="47.48597" lon="1.19689">
        <ele>76.090323303108</ele>
        <time>2021-01-19T14:25:45Z</time>
      </trkpt>
      <trkpt lat="47.48607" lon="1.1971">
        <ele>76.489957016484</ele>
        <time>2021-01-19T14:25:50Z</time>
      </trkpt>
      <trkpt lat="47.48614" lon="1.19738">
        <ele>72.858696760207</ele>
        <time>2021-01-19T14:25:54Z</time>
      </trkpt>
      <trkpt lat="47.48617" lon="1.19751">
        <ele>74.015229948411</ele>
        <time>2021-01-19T14:25:57Z</time>
      </trkpt>
      <trkpt lat="47.48622" lon="1.19768">
        <ele>77.535295625054</ele>
        <time>2021-01-19T14:26:02Z</time>
      </trkpt>
      <trkpt lat="47.48632" lon="1.19797">
        <ele>77.003554570185</ele>
        <time>2021-01-19T14:26:07Z</time>
      </trkpt>
      <trkpt lat="47.48638" lon="1.19819">
        <ele>73.685840663517</ele>
        <time>2021-01-19T14:26:11Z</time>
      </trkpt>
      <trkpt lat="47.48644" lon="1.19829">
        <ele>78.885480601669</ele>
        <time>2021-01-19T14:26:15Z</time>
      </trkpt>
      <trkpt lat="47.48648" lon="1.1984">
        <ele>76.723598578146</ele>
        <time>2021-01-19T14:26:18Z</time>
      </trkpt>
      <trkpt lat="47.48655" lon="1.19858">
        <ele>76.997688612306</ele>
        <time>2021-01-19T14:26:22Z</time>
      </trkpt>
      <trkpt lat="47.48662" lon="1.19877">
        <ele>74.09447891306</ele>
        <time>2021-01-19T14:26:26Z</time>
      </trkpt>
      <trkpt lat="47.48671" lon="1.19889">
        <ele>75.099251942893</ele>
        <time>2021-01-19T14:26:31Z</time>
      </trkpt>
      <trkpt lat="47.48679" lon="1.19903">
        <ele>73.951201934262</ele>
        <time>2021-01-19T14:26:35Z</time>
      </trkpt>
      <trkpt lat="47.48691" lon="1.19927">
        <ele>72.923194006691</ele>
        <time>2021-01-19T14:26:40Z</time>
      </trkpt>
      <trkpt lat="47.487" lon="1.19944">
        <ele>73.963312919212</ele>
        <time>2021-01-19T14:26:45Z</time>
      </trkpt>
      <trkpt lat="47.48706" lon="1.19953">
        <ele>76.082211891562</ele>
        <time>2021-01-19T14:26:48Z</time>
      </trkpt>
      <trkpt lat="47.48714" lon="1.19978">
        <ele>75.896653573528</ele>
        <time>2021-01-19T14:26:53Z</time>
      </trkpt>
      <trkpt lat="47.48723" lon="1.19997">
        <ele>73.784089081995</ele>
        <time>2021-01-19T14:26:57Z</time>
      </trkpt>
      <trkpt lat="47.48733" lon="1.20015">
        <ele>71.135096138201</ele>
        <time>2021-01-19T14:27:01Z</time>
      </trkpt>
      <trkpt lat="47.4874" lon="1.2003">
        <ele>71.897832362287</ele>
        <time>2021-01-19T14:27:05Z</time>
      </trkpt>
      <trkpt lat="47.48745" lon="1.20036">
        <ele>74.149295184964</ele>
        <time>2021-01-19T14:27:08Z</time>
      </trkpt>
      <trkpt lat="47.4875" lon="1.20045">
        <ele>75.567616967159</ele>
        <time>2021-01-19T14:27:12Z</time>
      </trkpt>
      <trkpt lat="47.48757" lon="1.20059">
        <ele>77.050280733402</ele>
        <time>2021-01-19T14:27:17Z</time>
      </trkpt>
      <trkpt lat="47.48763" lon="1.20072">
        <ele>77.305053857569</ele>
        <time>2021-01-19T14:27:21Z</time>
      </trkpt>
      <trkpt lat="47.48771" lon="1.20084">
        <ele>82.361493570752</ele>
        <time>2021-01-19T14:27:26Z</time>
      </trkpt>
      <trkpt lat="47.4878" lon="1.20097">
        <ele>83.58522236144</ele>
        <time>2021-01-19T14:27:31Z</time>
      </trkpt>
      <trkpt lat="47.48789" lon="1.20109">
        <ele>86.984043684575</ele>
        <time>2021-01-19T14:27:35Z</time>
      </trkpt>
      <trkpt lat="47.488" lon="1.20121">
        <ele>87.338884100534</ele>
        <time>2021-01-19T14:27:39Z</time>
      </trkpt>
      <trkpt lat="47.48811" lon="1.20134">
        <ele>87.887646542194</ele>
        <time>2021-01-19T14:27:43Z</time>
      </trkpt>
      <trkpt lat="47.48823" lon="1.20154">
        <ele>87.344957781685</ele>
        <time>2021-01-19T14:27:47Z</time>
      </trkpt>
      <trkpt lat="47.48833" lon="1.20172">
        <ele>84.225770733879</ele>
        <time>2021-01-19T14:27:51Z</time>
      </trkpt>
      <trkpt lat="47.48843" lon="1.20188">
        <ele>85.943863657032</ele>
        <time>2021-01-19T14:27:55Z</time>
      </trkpt>
      <trkpt lat="47.48854" lon="1.20209">
        <ele>85.676521051312</ele>
        <time>2021-01-19T14:28:00Z</time>
      </trkpt>
      <trkpt lat="47.48866" lon="1.20231">
        <ele>81.188431443658</ele>
        <time>2021-01-19T14:28:05Z</time>
      </trkpt>
      <trkpt lat="47.48879" lon="1.20245">
        <ele>76.115678546394</ele>
        <time>2021-01-19T14:28:08Z</time>
      </trkpt>
      <trkpt lat="47.48895" lon="1.20267">
        <ele>73.200446046167</ele>
        <time>2021-01-19T14:28:13Z</time>
      </trkpt>
      <trkpt lat="47.48906" lon="1.20287">
        <ele>71.731980097616</ele>
        <time>2021-01-19T14:28:17Z</time>
      </trkpt>
      <trkpt lat="47.48919" lon="1.20316">
        <ele>69.128678538475</ele>
        <time>2021-01-19T14:28:22Z</time>
      </trkpt>
      <trkpt lat="47.48928" lon="1.20338">
        <ele>68.609432695988</ele>
        <time>2021-01-19T14:28:26Z</time>
      </trkpt>
      <trkpt lat="47.48936" lon="1.20357">
        <ele>67.718103709114</ele>
        <time>2021-01-19T14:28:30Z</time>
      </trkpt>
      <trkpt lat="47.48946" lon="1.20385">
        <ele>65.657930820666</ele>
        <time>2021-01-19T14:28:35Z</time>
      </trkpt>
      <trkpt lat="47.48952" lon="1.20399">
        <ele>66.733960339947</ele>
        <time>2021-01-19T14:28:38Z</time>
      </trkpt>
      <trkpt lat="47.48959" lon="1.20427">
        <ele>65.653278289919</ele>
        <time>2021-01-19T14:28:43Z</time>
      </trkpt>
      <trkpt lat="47.48965" lon="1.20454">
        <ele>64.09604774121</ele>
        <time>2021-01-19T14:28:48Z</time>
      </trkpt>
      <trkpt lat="47.4897" lon="1.20475">
        <ele>62.203913455165</ele>
        <time>2021-01-19T14:28:52Z</time>
      </trkpt>
      <trkpt lat="47.48977" lon="1.205">
        <ele>65.918893594208</ele>
        <time>2021-01-19T14:28:57Z</time>
      </trkpt>
      <trkpt lat="47.48982" lon="1.2053">
        <ele>66.217492175155</ele>
        <time>2021-01-19T14:29:02Z</time>
      </trkpt>
      <trkpt lat="47.48985" lon="1.20546">
        <ele>65.948988482576</ele>
        <time>2021-01-19T14:29:06Z</time>
      </trkpt>
      <trkpt lat="47.48991" lon="1.20569">
        <ele>66.160641095043</ele>
        <time>2021-01-19T14:29:11Z</time>
      </trkpt>
      <trkpt lat="47.48995" lon="1.20597">
        <ele>66.44926981905</ele>
        <time>2021-01-19T14:29:16Z</time>
      </trkpt>
      <trkpt lat="47.49" lon="1.20619">
        <ele>67.400317894277</ele>
        <time>2021-01-19T14:29:20Z</time>
      </trkpt>
      <trkpt lat="47.49005" lon="1.20643">
        <ele>65.263604917096</ele>
        <time>2021-01-19T14:29:25Z</time>
      </trkpt>
      <trkpt lat="47.49009" lon="1.20657">
        <ele>66.110169976294</ele>
        <time>2021-01-19T14:29:28Z</time>
      </trkpt>
      <trkpt lat="47.49015" lon="1.20688">
        <ele>65.46615849229</ele>
        <time>2021-01-19T14:29:33Z</time>
      </trkpt>
      <trkpt lat="47.49019" lon="1.20709">
        <ele>65.533712798612</ele>
        <time>2021-01-19T14:29:37Z</time>
      </trkpt>
      <trkpt lat="47.49025" lon="1.20736">
        <ele>66.728155448382</ele>
        <time>2021-01-19T14:29:42Z</time>
      </trkpt>
      <trkpt lat="47.49029" lon="1.20757">
        <ele>63.039610776005</ele>
        <time>2021-01-19T14:29:46Z</time>
      </trkpt>
      <trkpt lat="47.49034" lon="1.20778">
        <ele>63.614786700928</ele>
        <time>2021-01-19T14:29:50Z</time>
      </trkpt>
      <trkpt lat="47.49041" lon="1.20804">
        <ele>62.659973836355</ele>
        <time>2021-01-19T14:29:55Z</time>
      </trkpt>
      <trkpt lat="47.49043" lon="1.20821">
        <ele>62.631410688933</ele>
        <time>2021-01-19T14:29:58Z</time>
      </trkpt>
      <trkpt lat="47.49048" lon="1.20845">
        <ele>63.763816599408</ele>
        <time>2021-01-19T14:30:03Z</time>
      </trkpt>
      <trkpt lat="47.49052" lon="1.20862">
        <ele>62.035937526825</ele>
        <time>2021-01-19T14:30:07Z</time>
      </trkpt>
      <trkpt lat="47.49056" lon="1.20886">
        <ele>63.171976049805</ele>
        <time>2021-01-19T14:30:12Z</time>
      </trkpt>
      <trkpt lat="47.49059" lon="1.20904">
        <ele>64.283014909651</ele>
        <time>2021-01-19T14:30:16Z</time>
      </trkpt>
      <trkpt lat="47.49063" lon="1.20928">
        <ele>65.607964919914</ele>
        <time>2021-01-19T14:30:21Z</time>
      </trkpt>
      <trkpt lat="47.49066" lon="1.2095">
        <ele>65.347686410223</ele>
        <time>2021-01-19T14:30:26Z</time>
      </trkpt>
      <trkpt lat="47.49068" lon="1.20968">
        <ele>66.251438659021</ele>
        <time>2021-01-19T14:30:30Z</time>
      </trkpt>
      <trkpt lat="47.49073" lon="1.20993">
        <ele>66.016345314887</ele>
        <time>2021-01-19T14:30:35Z</time>
      </trkpt>
      <trkpt lat="47.49076" lon="1.21009">
        <ele>67.208181309431</ele>
        <time>2021-01-19T14:30:39Z</time>
      </trkpt>
      <trkpt lat="47.49079" lon="1.21033">
        <ele>63.715959374173</ele>
        <time>2021-01-19T14:30:43Z</time>
      </trkpt>
      <trkpt lat="47.49082" lon="1.21054">
        <ele>64.551037442785</ele>
        <time>2021-01-19T14:30:47Z</time>
      </trkpt>
      <trkpt lat="47.49087" lon="1.21078">
        <ele>62.452707621239</ele>
        <time>2021-01-19T14:30:52Z</time>
      </trkpt>
      <trkpt lat="47.49091" lon="1.21098">
        <ele>63.436176464141</ele>
        <time>2021-01-19T14:30:56Z</time>
      </trkpt>
      <trkpt lat="47.49095" lon="1.21124">
        <ele>63.9676895523</ele>
        <time>2021-01-19T14:31:01Z</time>
      </trkpt>
      <trkpt lat="47.49099" lon="1.2115">
        <ele>63.718077012766</ele>
        <time>2021-01-19T14:31:06Z</time>
      </trkpt>
      <trkpt lat="47.49102" lon="1.21175">
        <ele>64.632140959422</ele>
        <time>2021-01-19T14:31:11Z</time>
      </trkpt>
      <trkpt lat="47.49106" lon="1.21195">
        <ele>63.467995537719</ele>
        <time>2021-01-19T14:31:15Z</time>
      </trkpt>
      <trkpt lat="47.49109" lon="1.21216">
        <ele>61.000225567068</ele>
        <time>2021-01-19T14:31:19Z</time>
      </trkpt>
      <trkpt lat="47.4911" lon="1.21234">
        <ele>62.645052230317</ele>
        <time>2021-01-19T14:31:23Z</time>
      </trkpt>
      <trkpt lat="47.49111" lon="1.21249">
        <ele>62.604985324237</ele>
        <time>2021-01-19T14:31:27Z</time>
      </trkpt>
      <trkpt lat="47.4911" lon="1.21266">
        <ele>65.286539018885</ele>
        <time>2021-01-19T14:31:31Z</time>
      </trkpt>
      <trkpt lat="47.49111" lon="1.21281">
        <ele>67.165323175338</ele>
        <time>2021-01-19T14:31:35Z</time>
      </trkpt>
      <trkpt lat="47.49113" lon="1.21302">
        <ele>72.21366738626</ele>
        <time>2021-01-19T14:31:40Z</time>
      </trkpt>
      <trkpt lat="47.49112" lon="1.21317">
        <ele>73.451228313306</ele>
        <time>2021-01-19T14:31:43Z</time>
      </trkpt>
      <trkpt lat="47.49112" lon="1.21344">
        <ele>71.419025413948</ele>
        <time>2021-01-19T14:31:48Z</time>
      </trkpt>
      <trkpt lat="47.49113" lon="1.21373">
        <ele>66.799877189467</ele>
        <time>2021-01-19T14:31:53Z</time>
      </trkpt>
      <trkpt lat="47.49113" lon="1.21394">
        <ele>65.577896596102</ele>
        <time>2021-01-19T14:31:57Z</time>
      </trkpt>
      <trkpt lat="47.49114" lon="1.21413">
        <ele>65.831515445025</ele>
        <time>2021-01-19T14:32:01Z</time>
      </trkpt>
      <trkpt lat="47.49115" lon="1.21424">
        <ele>66.027262984863</ele>
        <time>2021-01-19T14:32:04Z</time>
      </trkpt>
      <trkpt lat="47.49118" lon="1.21448">
        <ele>65.474995741232</ele>
        <time>2021-01-19T14:32:09Z</time>
      </trkpt>
      <trkpt lat="47.49121" lon="1.21462">
        <ele>69.352763619983</ele>
        <time>2021-01-19T14:32:13Z</time>
      </trkpt>
      <trkpt lat="47.49125" lon="1.21485">
        <ele>73.919394307435</ele>
        <time>2021-01-19T14:32:18Z</time>
      </trkpt>
      <trkpt lat="47.49127" lon="1.2151">
        <ele>73.526226805314</ele>
        <time>2021-01-19T14:32:22Z</time>
      </trkpt>
      <trkpt lat="47.49127" lon="1.21541">
        <ele>72.071495583006</ele>
        <time>2021-01-19T14:32:27Z</time>
      </trkpt>
      <trkpt lat="47.49128" lon="1.21561">
        <ele>70.20420731002</ele>
        <time>2021-01-19T14:32:31Z</time>
      </trkpt>
      <trkpt lat="47.49127" lon="1.21584">
        <ele>68.72276136769</ele>
        <time>2021-01-19T14:32:35Z</time>
      </trkpt>
      <trkpt lat="47.49127" lon="1.21607">
        <ele>66.883210729188</ele>
        <time>2021-01-19T14:32:40Z</time>
      </trkpt>
      <trkpt lat="47.49126" lon="1.21628">
        <ele>66.306309603949</ele>
        <time>2021-01-19T14:32:44Z</time>
      </trkpt>
      <trkpt lat="47.49126" lon="1.21653">
        <ele>65.229756100157</ele>
        <time>2021-01-19T14:32:49Z</time>
      </trkpt>
      <trkpt lat="47.49125" lon="1.21668">
        <ele>67.745632310731</ele>
        <time>2021-01-19T14:32:53Z</time>
      </trkpt>
      <trkpt lat="47.49126" lon="1.21688">
        <ele>67.815595682733</ele>
        <time>2021-01-19T14:32:57Z</time>
      </trkpt>
      <trkpt lat="47.49129" lon="1.21712">
        <ele>71.44288937196</ele>
        <time>2021-01-19T14:33:01Z</time>
      </trkpt>
      <trkpt lat="47.4913" lon="1.21739">
        <ele>72.194882532313</ele>
        <time>2021-01-19T14:33:06Z</time>
      </trkpt>
      <trkpt lat="47.49129" lon="1.21762">
        <ele>70.93522119699</ele>
        <time>2021-01-19T14:33:10Z</time>
      </trkpt>
      <trkpt lat="47.49129" lon="1.21789">
        <ele>70.306952038658</ele>
        <time>2021-01-19T14:33:15Z</time>
      </trkpt>
      <trkpt lat="47.49126" lon="1.21811">
        <ele>68.532398511598</ele>
        <time>2021-01-19T14:33:19Z</time>
      </trkpt>
      <trkpt lat="47.49122" lon="1.21837">
        <ele>69.340127407901</ele>
        <time>2021-01-19T14:33:24Z</time>
      </trkpt>
      <trkpt lat="47.4912" lon="1.21857">
        <ele>70.649615149894</ele>
        <time>2021-01-19T14:33:28Z</time>
      </trkpt>
      <trkpt lat="47.49119" lon="1.21878">
        <ele>72.018398997983</ele>
        <time>2021-01-19T14:33:32Z</time>
      </trkpt>
      <trkpt lat="47.49115" lon="1.21905">
        <ele>68.199302110307</ele>
        <time>2021-01-19T14:33:37Z</time>
      </trkpt>
      <trkpt lat="47.49113" lon="1.2192">
        <ele>72.102710006922</ele>
        <time>2021-01-19T14:33:41Z</time>
      </trkpt>
      <trkpt lat="47.49111" lon="1.2194">
        <ele>71.775570332695</ele>
        <time>2021-01-19T14:33:45Z</time>
      </trkpt>
      <trkpt lat="47.49108" lon="1.21969">
        <ele>72.67443821413</ele>
        <time>2021-01-19T14:33:50Z</time>
      </trkpt>
      <trkpt lat="47.49106" lon="1.21996">
        <ele>72.030649695074</ele>
        <time>2021-01-19T14:33:55Z</time>
      </trkpt>
      <trkpt lat="47.49105" lon="1.22023">
        <ele>70.155158638021</ele>
        <time>2021-01-19T14:34:00Z</time>
      </trkpt>
      <trkpt lat="47.49103" lon="1.2204">
        <ele>68.643971832787</ele>
        <time>2021-01-19T14:34:03Z</time>
      </trkpt>
      <trkpt lat="47.491" lon="1.22062">
        <ele>68.36696701411</ele>
        <time>2021-01-19T14:34:08Z</time>
      </trkpt>
      <trkpt lat="47.491" lon="1.2208">
        <ele>67.997773814249</ele>
        <time>2021-01-19T14:34:12Z</time>
      </trkpt>
      <trkpt lat="47.49099" lon="1.22104">
        <ele>66.999958408559</ele>
        <time>2021-01-19T14:34:16Z</time>
      </trkpt>
      <trkpt lat="47.49099" lon="1.22133">
        <ele>65.759849958598</ele>
        <time>2021-01-19T14:34:21Z</time>
      </trkpt>
      <trkpt lat="47.49099" lon="1.22153">
        <ele>62.38684650245</ele>
        <time>2021-01-19T14:34:25Z</time>
      </trkpt>
      <trkpt lat="47.491" lon="1.22174">
        <ele>65.439421925473</ele>
        <time>2021-01-19T14:34:29Z</time>
      </trkpt>
      <trkpt lat="47.49099" lon="1.22192">
        <ele>71.58230882831</ele>
        <time>2021-01-19T14:34:32Z</time>
      </trkpt>
      <trkpt lat="47.49098" lon="1.22223">
        <ele>71.102051905012</ele>
        <time>2021-01-19T14:34:37Z</time>
      </trkpt>
      <trkpt lat="47.49098" lon="1.22257">
        <ele>68.405337011678</ele>
        <time>2021-01-19T14:34:42Z</time>
      </trkpt>
      <trkpt lat="47.49096" lon="1.22279">
        <ele>68.178524363257</ele>
        <time>2021-01-19T14:34:46Z</time>
      </trkpt>
      <trkpt lat="47.49094" lon="1.22302">
        <ele>67.792006569865</ele>
        <time>2021-01-19T14:34:50Z</time>
      </trkpt>
      <trkpt lat="47.49094" lon="1.22317">
        <ele>70.283892754262</ele>
        <time>2021-01-19T14:34:53Z</time>
      </trkpt>
      <trkpt lat="47.49094" lon="1.2234">
        <ele>70.809749831479</ele>
        <time>2021-01-19T14:34:57Z</time>
      </trkpt>
      <trkpt lat="47.49092" lon="1.22366">
        <ele>68.807278613747</ele>
        <time>2021-01-19T14:35:02Z</time>
      </trkpt>
      <trkpt lat="47.4909" lon="1.22388">
        <ele>69.35894635025</ele>
        <time>2021-01-19T14:35:06Z</time>
      </trkpt>
      <trkpt lat="47.49088" lon="1.22407">
        <ele>68.546706584641</ele>
        <time>2021-01-19T14:35:10Z</time>
      </trkpt>
      <trkpt lat="47.49088" lon="1.22421">
        <ele>69.007995215232</ele>
        <time>2021-01-19T14:35:13Z</time>
      </trkpt>
      <trkpt lat="47.49087" lon="1.22446">
        <ele>68.447799512753</ele>
        <time>2021-01-19T14:35:18Z</time>
      </trkpt>
      <trkpt lat="47.49083" lon="1.22462">
        <ele>64.484655963506</ele>
        <time>2021-01-19T14:35:22Z</time>
      </trkpt>
      <trkpt lat="47.49081" lon="1.2248">
        <ele>64.110376187577</ele>
        <time>2021-01-19T14:35:25Z</time>
      </trkpt>
      <trkpt lat="47.49075" lon="1.22498">
        <ele>63.535305272962</ele>
        <time>2021-01-19T14:35:30Z</time>
      </trkpt>
      <trkpt lat="47.49072" lon="1.22506">
        <ele>62.681894817393</ele>
        <time>2021-01-19T14:35:33Z</time>
      </trkpt>
      <trkpt lat="47.49072" lon="1.22518">
        <ele>71.469328403051</ele>
        <time>2021-01-19T14:35:38Z</time>
      </trkpt>
      <trkpt lat="47.49071" lon="1.2253">
        <ele>72.327285829927</ele>
        <time>2021-01-19T14:35:42Z</time>
      </trkpt>
      <trkpt lat="47.49074" lon="1.22543">
        <ele>73.638349883525</ele>
        <time>2021-01-19T14:35:47Z</time>
      </trkpt>
      <trkpt lat="47.49078" lon="1.22561">
        <ele>72.515803516646</ele>
        <time>2021-01-19T14:35:51Z</time>
      </trkpt>
      <trkpt lat="47.4908" lon="1.2258">
        <ele>72.772259091919</ele>
        <time>2021-01-19T14:35:56Z</time>
      </trkpt>
      <trkpt lat="47.49083" lon="1.22591">
        <ele>73.579781379757</ele>
        <time>2021-01-19T14:36:00Z</time>
      </trkpt>
      <trkpt lat="47.49085" lon="1.2262">
        <ele>69.554707782797</ele>
        <time>2021-01-19T14:36:05Z</time>
      </trkpt>
      <trkpt lat="47.49085" lon="1.22638">
        <ele>71.862564705914</ele>
        <time>2021-01-19T14:36:09Z</time>
      </trkpt>
      <trkpt lat="47.49085" lon="1.22656">
        <ele>70.33817121694</ele>
        <time>2021-01-19T14:36:13Z</time>
      </trkpt>
      <trkpt lat="47.49086" lon="1.22676">
        <ele>67.780433082021</ele>
        <time>2021-01-19T14:36:18Z</time>
      </trkpt>
      <trkpt lat="47.49087" lon="1.22692">
        <ele>67.866620544462</ele>
        <time>2021-01-19T14:36:22Z</time>
      </trkpt>
      <trkpt lat="47.49088" lon="1.22712">
        <ele>66.485329069943</ele>
        <time>2021-01-19T14:36:26Z</time>
      </trkpt>
      <trkpt lat="47.4909" lon="1.22735">
        <ele>65.764050715613</ele>
        <time>2021-01-19T14:36:31Z</time>
      </trkpt>
      <trkpt lat="47.49092" lon="1.22753">
        <ele>65.254307957345</ele>
        <time>2021-01-19T14:36:35Z</time>
      </trkpt>
      <trkpt lat="47.49095" lon="1.22774">
        <ele>69.311530689418</ele>
        <time>2021-01-19T14:36:40Z</time>
      </trkpt>
      <trkpt lat="47.49098" lon="1.22791">
        <ele>70.127524159183</ele>
        <time>2021-01-19T14:36:44Z</time>
      </trkpt>
      <trkpt lat="47.491" lon="1.22804">
        <ele>68.520833599841</ele>
        <time>2021-01-19T14:36:47Z</time>
      </trkpt>
      <trkpt lat="47.49105" lon="1.22824">
        <ele>70.975779773115</ele>
        <time>2021-01-19T14:36:52Z</time>
      </trkpt>
      <trkpt lat="47.49108" lon="1.22843">
        <ele>67.648387193575</ele>
        <time>2021-01-19T14:36:56Z</time>
      </trkpt>
      <trkpt lat="47.49111" lon="1.22867">
        <ele>66.127081835128</ele>
        <time>2021-01-19T14:37:01Z</time>
      </trkpt>
      <trkpt lat="47.49114" lon="1.22886">
        <ele>69.074054796163</ele>
        <time>2021-01-19T14:37:06Z</time>
      </trkpt>
      <trkpt lat="47.49116" lon="1.229">
        <ele>70.424397373283</ele>
        <time>2021-01-19T14:37:10Z</time>
      </trkpt>
      <trkpt lat="47.4912" lon="1.22919">
        <ele>74.133674940188</ele>
        <time>2021-01-19T14:37:14Z</time>
      </trkpt>
      <trkpt lat="47.49121" lon="1.22941">
        <ele>73.298699324195</ele>
        <time>2021-01-19T14:37:19Z</time>
      </trkpt>
      <trkpt lat="47.49122" lon="1.2296">
        <ele>69.532028103842</ele>
        <time>2021-01-19T14:37:23Z</time>
      </trkpt>
      <trkpt lat="47.49126" lon="1.22983">
        <ele>68.45764516778</ele>
        <time>2021-01-19T14:37:28Z</time>
      </trkpt>
      <trkpt lat="47.49131" lon="1.23006">
        <ele>69.149967333025</ele>
        <time>2021-01-19T14:37:33Z</time>
      </trkpt>
      <trkpt lat="47.49136" lon="1.23029">
        <ele>70.970331676</ele>
        <time>2021-01-19T14:37:38Z</time>
      </trkpt>
      <trkpt lat="47.49141" lon="1.23053">
        <ele>74.363086164366</ele>
        <time>2021-01-19T14:37:43Z</time>
      </trkpt>
      <trkpt lat="47.49144" lon="1.23078">
        <ele>73.205086730059</ele>
        <time>2021-01-19T14:37:47Z</time>
      </trkpt>
      <trkpt lat="47.49144" lon="1.23108">
        <ele>67.687841007379</ele>
        <time>2021-01-19T14:37:51Z</time>
      </trkpt>
      <trkpt lat="47.49147" lon="1.23128">
        <ele>67.880362480478</ele>
        <time>2021-01-19T14:37:55Z</time>
      </trkpt>
      <trkpt lat="47.49151" lon="1.23159">
        <ele>68.265265849496</ele>
        <time>2021-01-19T14:38:00Z</time>
      </trkpt>
      <trkpt lat="47.49155" lon="1.23189">
        <ele>68.545452949768</ele>
        <time>2021-01-19T14:38:05Z</time>
      </trkpt>
      <trkpt lat="47.49158" lon="1.23211">
        <ele>71.226458409619</ele>
        <time>2021-01-19T14:38:09Z</time>
      </trkpt>
      <trkpt lat="47.49162" lon="1.23238">
        <ele>68.529439417499</ele>
        <time>2021-01-19T14:38:14Z</time>
      </trkpt>
      <trkpt lat="47.49163" lon="1.23256">
        <ele>66.931089786923</ele>
        <time>2021-01-19T14:38:18Z</time>
      </trkpt>
      <trkpt lat="47.49165" lon="1.23273">
        <ele>66.628719647791</ele>
        <time>2021-01-19T14:38:22Z</time>
      </trkpt>
      <trkpt lat="47.4917" lon="1.23292">
        <ele>71.554328006411</ele>
        <time>2021-01-19T14:38:27Z</time>
      </trkpt>
      <trkpt lat="47.49174" lon="1.23316">
        <ele>72.178923367767</ele>
        <time>2021-01-19T14:38:32Z</time>
      </trkpt>
      <trkpt lat="47.49178" lon="1.23339">
        <ele>70.667235765218</ele>
        <time>2021-01-19T14:38:36Z</time>
      </trkpt>
      <trkpt lat="47.49181" lon="1.23363">
        <ele>70.44382724033</ele>
        <time>2021-01-19T14:38:41Z</time>
      </trkpt>
      <trkpt lat="47.49185" lon="1.2338">
        <ele>70.505463492905</ele>
        <time>2021-01-19T14:38:45Z</time>
      </trkpt>
      <trkpt lat="47.49188" lon="1.23403">
        <ele>68.876908647459</ele>
        <time>2021-01-19T14:38:49Z</time>
      </trkpt>
      <trkpt lat="47.49193" lon="1.23427">
        <ele>70.212588865882</ele>
        <time>2021-01-19T14:38:54Z</time>
      </trkpt>
      <trkpt lat="47.49197" lon="1.23449">
        <ele>68.182067460417</ele>
        <time>2021-01-19T14:38:59Z</time>
      </trkpt>
      <trkpt lat="47.492" lon="1.2347">
        <ele>66.902888657333</ele>
        <time>2021-01-19T14:39:03Z</time>
      </trkpt>
      <trkpt lat="47.49203" lon="1.23491">
        <ele>69.984444584386</ele>
        <time>2021-01-19T14:39:08Z</time>
      </trkpt>
      <trkpt lat="47.49208" lon="1.23506">
        <ele>72.614650479213</ele>
        <time>2021-01-19T14:39:12Z</time>
      </trkpt>
      <trkpt lat="47.49211" lon="1.2353">
        <ele>68.364451197491</ele>
        <time>2021-01-19T14:39:16Z</time>
      </trkpt>
      <trkpt lat="47.49217" lon="1.23555">
        <ele>69.164377482961</ele>
        <time>2021-01-19T14:39:20Z</time>
      </trkpt>
      <trkpt lat="47.4922" lon="1.23575">
        <ele>70.039196716907</ele>
        <time>2021-01-19T14:39:25Z</time>
      </trkpt>
      <trkpt lat="47.49226" lon="1.23597">
        <ele>69.601819312371</ele>
        <time>2021-01-19T14:39:29Z</time>
      </trkpt>
      <trkpt lat="47.49231" lon="1.2362">
        <ele>70.02617359339</ele>
        <time>2021-01-19T14:39:33Z</time>
      </trkpt>
      <trkpt lat="47.49235" lon="1.23644">
        <ele>69.334481925633</ele>
        <time>2021-01-19T14:39:38Z</time>
      </trkpt>
      <trkpt lat="47.49239" lon="1.23664">
        <ele>72.462199252127</ele>
        <time>2021-01-19T14:39:43Z</time>
      </trkpt>
      <trkpt lat="47.49243" lon="1.23685">
        <ele>65.902215385586</ele>
        <time>2021-01-19T14:39:47Z</time>
      </trkpt>
      <trkpt lat="47.49246" lon="1.23703">
        <ele>63.858244858185</ele>
        <time>2021-01-19T14:39:51Z</time>
      </trkpt>
      <trkpt lat="47.49251" lon="1.23719">
        <ele>63.594704392475</ele>
        <time>2021-01-19T14:39:55Z</time>
      </trkpt>
      <trkpt lat="47.49257" lon="1.23745">
        <ele>61.96249727634</ele>
        <time>2021-01-19T14:40:00Z</time>
      </trkpt>
      <trkpt lat="47.49259" lon="1.23763">
        <ele>62.521634985624</ele>
        <time>2021-01-19T14:40:04Z</time>
      </trkpt>
      <trkpt lat="47.49264" lon="1.23781">
        <ele>62.766037257924</ele>
        <time>2021-01-19T14:40:08Z</time>
      </trkpt>
      <trkpt lat="47.4927" lon="1.23805">
        <ele>65.063411357453</ele>
        <time>2021-01-19T14:40:13Z</time>
      </trkpt>
      <trkpt lat="47.49275" lon="1.23829">
        <ele>68.481729769227</ele>
        <time>2021-01-19T14:40:18Z</time>
      </trkpt>
      <trkpt lat="47.49279" lon="1.23849">
        <ele>69.288376076021</ele>
        <time>2021-01-19T14:40:22Z</time>
      </trkpt>
      <trkpt lat="47.49285" lon="1.23874">
        <ele>69.033989766573</ele>
        <time>2021-01-19T14:40:27Z</time>
      </trkpt>
      <trkpt lat="47.49289" lon="1.23897">
        <ele>70.09764383973</ele>
        <time>2021-01-19T14:40:32Z</time>
      </trkpt>
      <trkpt lat="47.49294" lon="1.23914">
        <ele>70.671911866727</ele>
        <time>2021-01-19T14:40:36Z</time>
      </trkpt>
      <trkpt lat="47.49298" lon="1.2393">
        <ele>73.60128545029</ele>
        <time>2021-01-19T14:40:40Z</time>
      </trkpt>
      <trkpt lat="47.49301" lon="1.23938">
        <ele>75.640346529606</ele>
        <time>2021-01-19T14:40:43Z</time>
      </trkpt>
      <trkpt lat="47.49306" lon="1.23961">
        <ele>76.34347577435</ele>
        <time>2021-01-19T14:40:48Z</time>
      </trkpt>
      <trkpt lat="47.49314" lon="1.23988">
        <ele>74.963037267591</ele>
        <time>2021-01-19T14:40:53Z</time>
      </trkpt>
      <trkpt lat="47.4932" lon="1.24008">
        <ele>75.65159265981</ele>
        <time>2021-01-19T14:40:57Z</time>
      </trkpt>
      <trkpt lat="47.49326" lon="1.24027">
        <ele>75.698575808148</ele>
        <time>2021-01-19T14:41:01Z</time>
      </trkpt>
      <trkpt lat="47.49331" lon="1.24048">
        <ele>76.183589024729</ele>
        <time>2021-01-19T14:41:06Z</time>
      </trkpt>
      <trkpt lat="47.49333" lon="1.2407">
        <ele>72.632497127473</ele>
        <time>2021-01-19T14:41:11Z</time>
      </trkpt>
      <trkpt lat="47.49333" lon="1.24089">
        <ele>71.900968497515</ele>
        <time>2021-01-19T14:41:15Z</time>
      </trkpt>
      <trkpt lat="47.49331" lon="1.24112">
        <ele>68.245979459977</ele>
        <time>2021-01-19T14:41:20Z</time>
      </trkpt>
      <trkpt lat="47.4933" lon="1.24131">
        <ele>67.021671533327</ele>
        <time>2021-01-19T14:41:24Z</time>
      </trkpt>
      <trkpt lat="47.49328" lon="1.24153">
        <ele>68.251089740844</ele>
        <time>2021-01-19T14:41:28Z</time>
      </trkpt>
      <trkpt lat="47.49324" lon="1.24182">
        <ele>68.912402702143</ele>
        <time>2021-01-19T14:41:33Z</time>
      </trkpt>
      <trkpt lat="47.4932" lon="1.24201">
        <ele>73.077323579373</ele>
        <time>2021-01-19T14:41:37Z</time>
      </trkpt>
      <trkpt lat="47.49318" lon="1.24222">
        <ele>73.990334514695</ele>
        <time>2021-01-19T14:41:41Z</time>
      </trkpt>
      <trkpt lat="47.49314" lon="1.24243">
        <ele>71.776329385388</ele>
        <time>2021-01-19T14:41:45Z</time>
      </trkpt>
      <trkpt lat="47.49307" lon="1.24267">
        <ele>70.602349179419</ele>
        <time>2021-01-19T14:41:50Z</time>
      </trkpt>
      <trkpt lat="47.49303" lon="1.24283">
        <ele>72.461488098869</ele>
        <time>2021-01-19T14:41:53Z</time>
      </trkpt>
      <trkpt lat="47.49295" lon="1.24312">
        <ele>70.266198474838</ele>
        <time>2021-01-19T14:41:58Z</time>
      </trkpt>
      <trkpt lat="47.49289" lon="1.24335">
        <ele>70.639937076007</ele>
        <time>2021-01-19T14:42:02Z</time>
      </trkpt>
      <trkpt lat="47.49286" lon="1.24362">
        <ele>73.293588652929</ele>
        <time>2021-01-19T14:42:07Z</time>
      </trkpt>
      <trkpt lat="47.49284" lon="1.24384">
        <ele>73.116280223855</ele>
        <time>2021-01-19T14:42:11Z</time>
      </trkpt>
      <trkpt lat="47.49284" lon="1.24409">
        <ele>72.552652727132</ele>
        <time>2021-01-19T14:42:16Z</time>
      </trkpt>
      <trkpt lat="47.49285" lon="1.24433">
        <ele>72.023155208667</ele>
        <time>2021-01-19T14:42:21Z</time>
      </trkpt>
      <trkpt lat="47.49289" lon="1.24451">
        <ele>72.281384065772</ele>
        <time>2021-01-19T14:42:25Z</time>
      </trkpt>
      <trkpt lat="47.49293" lon="1.24461">
        <ele>70.95891196153</ele>
        <time>2021-01-19T14:42:28Z</time>
      </trkpt>
      <trkpt lat="47.49306" lon="1.2448">
        <ele>69.15294620442</ele>
        <time>2021-01-19T14:42:33Z</time>
      </trkpt>
      <trkpt lat="47.49314" lon="1.24494">
        <ele>67.031169966082</ele>
        <time>2021-01-19T14:42:37Z</time>
      </trkpt>
      <trkpt lat="47.49325" lon="1.24503">
        <ele>66.232219293229</ele>
        <time>2021-01-19T14:42:42Z</time>
      </trkpt>
      <trkpt lat="47.49334" lon="1.24513">
        <ele>66.652688821073</ele>
        <time>2021-01-19T14:42:46Z</time>
      </trkpt>
      <trkpt lat="47.49343" lon="1.24527">
        <ele>64.560598896041</ele>
        <time>2021-01-19T14:42:50Z</time>
      </trkpt>
      <trkpt lat="47.49356" lon="1.24542">
        <ele>65.780215324447</ele>
        <time>2021-01-19T14:42:55Z</time>
      </trkpt>
      <trkpt lat="47.49366" lon="1.24553">
        <ele>67.431389639091</ele>
        <time>2021-01-19T14:42:59Z</time>
      </trkpt>
      <trkpt lat="47.49375" lon="1.24573">
        <ele>63.172025985878</ele>
        <time>2021-01-19T14:43:04Z</time>
      </trkpt>
      <trkpt lat="47.49381" lon="1.24587">
        <ele>63.330021327838</ele>
        <time>2021-01-19T14:43:08Z</time>
      </trkpt>
      <trkpt lat="47.49386" lon="1.24603">
        <ele>63.514277880958</ele>
        <time>2021-01-19T14:43:12Z</time>
      </trkpt>
      <trkpt lat="47.49391" lon="1.24621">
        <ele>62.778405075076</ele>
        <time>2021-01-19T14:43:16Z</time>
      </trkpt>
      <trkpt lat="47.49399" lon="1.24638">
        <ele>63.526155729937</ele>
        <time>2021-01-19T14:43:20Z</time>
      </trkpt>
      <trkpt lat="47.49406" lon="1.24657">
        <ele>63.069054993409</ele>
        <time>2021-01-19T14:43:24Z</time>
      </trkpt>
      <trkpt lat="47.49414" lon="1.24674">
        <ele>62.749554565694</ele>
        <time>2021-01-19T14:43:28Z</time>
      </trkpt>
      <trkpt lat="47.4942" lon="1.24686">
        <ele>62.105725715236</ele>
        <time>2021-01-19T14:43:31Z</time>
      </trkpt>
      <trkpt lat="47.4943" lon="1.24707">
        <ele>63.388429748201</ele>
        <time>2021-01-19T14:43:36Z</time>
      </trkpt>
      <trkpt lat="47.49437" lon="1.24718">
        <ele>66.470571461201</ele>
        <time>2021-01-19T14:43:39Z</time>
      </trkpt>
      <trkpt lat="47.49444" lon="1.24732">
        <ele>66.576593813354</ele>
        <time>2021-01-19T14:43:43Z</time>
      </trkpt>
      <trkpt lat="47.4945" lon="1.24748">
        <ele>64.799133260282</ele>
        <time>2021-01-19T14:43:47Z</time>
      </trkpt>
      <trkpt lat="47.49458" lon="1.24774">
        <ele>63.814195941043</ele>
        <time>2021-01-19T14:43:52Z</time>
      </trkpt>
      <trkpt lat="47.49462" lon="1.24791">
        <ele>62.769573447689</ele>
        <time>2021-01-19T14:43:55Z</time>
      </trkpt>
      <trkpt lat="47.49466" lon="1.24805">
        <ele>65.050485000809</ele>
        <time>2021-01-19T14:43:59Z</time>
      </trkpt>
      <trkpt lat="47.49466" lon="1.24825">
        <ele>65.607020058765</ele>
        <time>2021-01-19T14:44:03Z</time>
      </trkpt>
      <trkpt lat="47.49466" lon="1.24849">
        <ele>65.09282896413</ele>
        <time>2021-01-19T14:44:07Z</time>
      </trkpt>
      <trkpt lat="47.49466" lon="1.24874">
        <ele>63.503344628338</ele>
        <time>2021-01-19T14:44:11Z</time>
      </trkpt>
      <trkpt lat="47.49465" lon="1.24897">
        <ele>62.856415016843</ele>
        <time>2021-01-19T14:44:16Z</time>
      </trkpt>
      <trkpt lat="47.49468" lon="1.24908">
        <ele>64.169275490625</ele>
        <time>2021-01-19T14:44:19Z</time>
      </trkpt>
      <trkpt lat="47.49471" lon="1.24924">
        <ele>67.449914205112</ele>
        <time>2021-01-19T14:44:23Z</time>
      </trkpt>
      <trkpt lat="47.49474" lon="1.24949">
        <ele>66.04445547939</ele>
        <time>2021-01-19T14:44:28Z</time>
      </trkpt>
      <trkpt lat="47.49475" lon="1.24966">
        <ele>66.932207195893</ele>
        <time>2021-01-19T14:44:33Z</time>
      </trkpt>
      <trkpt lat="47.49477" lon="1.24985">
        <ele>66.743077509212</ele>
        <time>2021-01-19T14:44:37Z</time>
      </trkpt>
      <trkpt lat="47.49478" lon="1.2501">
        <ele>66.432307235156</ele>
        <time>2021-01-19T14:44:42Z</time>
      </trkpt>
      <trkpt lat="47.49481" lon="1.25029">
        <ele>69.388342612344</ele>
        <time>2021-01-19T14:44:46Z</time>
      </trkpt>
      <trkpt lat="47.49484" lon="1.2507">
        <ele>63.653381270469</ele>
        <time>2021-01-19T14:44:51Z</time>
      </trkpt>
      <trkpt lat="47.49489" lon="1.25096">
        <ele>62.680138403437</ele>
        <time>2021-01-19T14:44:55Z</time>
      </trkpt>
      <trkpt lat="47.49494" lon="1.25114">
        <ele>65.260685584219</ele>
        <time>2021-01-19T14:44:59Z</time>
      </trkpt>
      <trkpt lat="47.49495" lon="1.25139">
        <ele>68.060929842656</ele>
        <time>2021-01-19T14:45:04Z</time>
      </trkpt>
      <trkpt lat="47.49496" lon="1.2516">
        <ele>64.491144143906</ele>
        <time>2021-01-19T14:45:08Z</time>
      </trkpt>
      <trkpt lat="47.49495" lon="1.25176">
        <ele>63.721697044219</ele>
        <time>2021-01-19T14:45:13Z</time>
      </trkpt>
      <trkpt lat="47.49494" lon="1.25195">
        <ele>60.428347998437</ele>
        <time>2021-01-19T14:45:17Z</time>
      </trkpt>
      <trkpt lat="47.49492" lon="1.25213">
        <ele>62.993789601094</ele>
        <time>2021-01-19T14:45:22Z</time>
      </trkpt>
      <trkpt lat="47.49492" lon="1.25229">
        <ele>61.861897988438</ele>
        <time>2021-01-19T14:45:25Z</time>
      </trkpt>
      <trkpt lat="47.4949" lon="1.25254">
        <ele>60.779771378437</ele>
        <time>2021-01-19T14:45:30Z</time>
      </trkpt>
      <trkpt lat="47.49487" lon="1.25274">
        <ele>64.361252742344</ele>
        <time>2021-01-19T14:45:34Z</time>
      </trkpt>
      <trkpt lat="47.49483" lon="1.253">
        <ele>65.914011022813</ele>
        <time>2021-01-19T14:45:39Z</time>
      </trkpt>
      <trkpt lat="47.49479" lon="1.2532">
        <ele>65.640163302187</ele>
        <time>2021-01-19T14:45:43Z</time>
      </trkpt>
      <trkpt lat="47.49474" lon="1.2534">
        <ele>67.776583741875</ele>
        <time>2021-01-19T14:45:47Z</time>
      </trkpt>
      <trkpt lat="47.49472" lon="1.25358">
        <ele>68.7337804125</ele>
        <time>2021-01-19T14:45:52Z</time>
      </trkpt>
      <trkpt lat="47.49468" lon="1.25373">
        <ele>65.22528007125</ele>
        <time>2021-01-19T14:45:56Z</time>
      </trkpt>
      <trkpt lat="47.49462" lon="1.25388">
        <ele>63.502456976406</ele>
        <time>2021-01-19T14:46:00Z</time>
      </trkpt>
      <trkpt lat="47.49456" lon="1.25406">
        <ele>64.401161237656</ele>
        <time>2021-01-19T14:46:04Z</time>
      </trkpt>
      <trkpt lat="47.49448" lon="1.25431">
        <ele>62.696990495781</ele>
        <time>2021-01-19T14:46:09Z</time>
      </trkpt>
      <trkpt lat="47.49443" lon="1.2545">
        <ele>62.417891546875</ele>
        <time>2021-01-19T14:46:13Z</time>
      </trkpt>
      <trkpt lat="47.49438" lon="1.25473">
        <ele>62.245824986875</ele>
        <time>2021-01-19T14:46:18Z</time>
      </trkpt>
      <trkpt lat="47.49433" lon="1.2549">
        <ele>63.783951545</ele>
        <time>2021-01-19T14:46:22Z</time>
      </trkpt>
      <trkpt lat="47.49427" lon="1.25503">
        <ele>66.031149948438</ele>
        <time>2021-01-19T14:46:26Z</time>
      </trkpt>
      <trkpt lat="47.49419" lon="1.25528">
        <ele>64.004544916094</ele>
        <time>2021-01-19T14:46:31Z</time>
      </trkpt>
      <trkpt lat="47.49412" lon="1.25544">
        <ele>63.523176614531</ele>
        <time>2021-01-19T14:46:35Z</time>
      </trkpt>
      <trkpt lat="47.49406" lon="1.25558">
        <ele>65.370034468125</ele>
        <time>2021-01-19T14:46:39Z</time>
      </trkpt>
      <trkpt lat="47.494" lon="1.25573">
        <ele>63.570535257031</ele>
        <time>2021-01-19T14:46:43Z</time>
      </trkpt>
      <trkpt lat="47.49391" lon="1.25593">
        <ele>63.790085685</ele>
        <time>2021-01-19T14:46:48Z</time>
      </trkpt>
      <trkpt lat="47.49383" lon="1.2561">
        <ele>64.373330773906</ele>
        <time>2021-01-19T14:46:52Z</time>
      </trkpt>
      <trkpt lat="47.49376" lon="1.25629">
        <ele>64.293272504688</ele>
        <time>2021-01-19T14:46:57Z</time>
      </trkpt>
      <trkpt lat="47.49369" lon="1.25643">
        <ele>64.276397222188</ele>
        <time>2021-01-19T14:47:01Z</time>
      </trkpt>
      <trkpt lat="47.49364" lon="1.25656">
        <ele>65.50041930625</ele>
        <time>2021-01-19T14:47:05Z</time>
      </trkpt>
      <trkpt lat="47.49359" lon="1.25676">
        <ele>66.189953291875</ele>
        <time>2021-01-19T14:47:10Z</time>
      </trkpt>
      <trkpt lat="47.4936" lon="1.25689">
        <ele>66.542860205313</ele>
        <time>2021-01-19T14:47:14Z</time>
      </trkpt>
      <trkpt lat="47.49357" lon="1.25706">
        <ele>64.915146733594</ele>
        <time>2021-01-19T14:47:18Z</time>
      </trkpt>
      <trkpt lat="47.49358" lon="1.25721">
        <ele>68.289396316562</ele>
        <time>2021-01-19T14:47:22Z</time>
      </trkpt>
      <trkpt lat="47.4936" lon="1.25733">
        <ele>66.920396126719</ele>
        <time>2021-01-19T14:47:27Z</time>
      </trkpt>
      <trkpt lat="47.49363" lon="1.25749">
        <ele>66.695159369844</ele>
        <time>2021-01-19T14:47:32Z</time>
      </trkpt>
      <trkpt lat="47.49366" lon="1.25764">
        <ele>66.079793174219</ele>
        <time>2021-01-19T14:47:36Z</time>
      </trkpt>
      <trkpt lat="47.4937" lon="1.25786">
        <ele>67.733715612812</ele>
        <time>2021-01-19T14:47:41Z</time>
      </trkpt>
      <trkpt lat="47.49373" lon="1.25805">
        <ele>69.810258428437</ele>
        <time>2021-01-19T14:47:45Z</time>
      </trkpt>
      <trkpt lat="47.49379" lon="1.25829">
        <ele>67.658920615469</ele>
        <time>2021-01-19T14:47:50Z</time>
      </trkpt>
      <trkpt lat="47.49383" lon="1.25839">
        <ele>68.689612153594</ele>
        <time>2021-01-19T14:47:53Z</time>
      </trkpt>
      <trkpt lat="47.49387" lon="1.25861">
        <ele>66.864569761094</ele>
        <time>2021-01-19T14:47:58Z</time>
      </trkpt>
      <trkpt lat="47.49391" lon="1.25879">
        <ele>64.555613734688</ele>
        <time>2021-01-19T14:48:02Z</time>
      </trkpt>
      <trkpt lat="47.49395" lon="1.259">
        <ele>66.830656878438</ele>
        <time>2021-01-19T14:48:07Z</time>
      </trkpt>
      <trkpt lat="47.49396" lon="1.25919">
        <ele>66.810685107188</ele>
        <time>2021-01-19T14:48:11Z</time>
      </trkpt>
      <trkpt lat="47.49396" lon="1.25947">
        <ele>65.971875234844</ele>
        <time>2021-01-19T14:48:15Z</time>
      </trkpt>
      <trkpt lat="47.49396" lon="1.25963">
        <ele>67.040835761406</ele>
        <time>2021-01-19T14:48:19Z</time>
      </trkpt>
      <trkpt lat="47.49396" lon="1.25986">
        <ele>66.288075619375</ele>
        <time>2021-01-19T14:48:24Z</time>
      </trkpt>
      <trkpt lat="47.49399" lon="1.25996">
        <ele>64.631488298125</ele>
        <time>2021-01-19T14:48:28Z</time>
      </trkpt>
      <trkpt lat="47.49407" lon="1.26002">
        <ele>64.494787812344</ele>
        <time>2021-01-19T14:48:33Z</time>
      </trkpt>
      <trkpt lat="47.49416" lon="1.26004">
        <ele>64.255826084687</ele>
        <time>2021-01-19T14:48:37Z</time>
      </trkpt>
      <trkpt lat="47.49427" lon="1.26006">
        <ele>65.557141205</ele>
        <time>2021-01-19T14:48:41Z</time>
      </trkpt>
      <trkpt lat="47.49439" lon="1.26011">
        <ele>67.200266725156</ele>
        <time>2021-01-19T14:48:46Z</time>
      </trkpt>
      <trkpt lat="47.49447" lon="1.26011">
        <ele>69.45201625375</ele>
        <time>2021-01-19T14:48:51Z</time>
      </trkpt>
      <trkpt lat="47.49453" lon="1.26028">
        <ele>67.565286803125</ele>
        <time>2021-01-19T14:48:56Z</time>
      </trkpt>
      <trkpt lat="47.49453" lon="1.26042">
        <ele>71.503462909844</ele>
        <time>2021-01-19T14:49:00Z</time>
      </trkpt>
      <trkpt lat="47.49454" lon="1.26062">
        <ele>75.12268205</ele>
        <time>2021-01-19T14:49:05Z</time>
      </trkpt>
      <trkpt lat="47.49451" lon="1.26079">
        <ele>75.158017155781</ele>
        <time>2021-01-19T14:49:10Z</time>
      </trkpt>
      <trkpt lat="47.49456" lon="1.26089">
        <ele>74.222982696562</ele>
        <time>2021-01-19T14:49:14Z</time>
      </trkpt>
      <trkpt lat="47.49464" lon="1.26095">
        <ele>72.188964583594</ele>
        <time>2021-01-19T14:49:18Z</time>
      </trkpt>
      <trkpt lat="47.49473" lon="1.26108">
        <ele>70.110799732656</ele>
        <time>2021-01-19T14:49:22Z</time>
      </trkpt>
      <trkpt lat="47.49481" lon="1.26122">
        <ele>70.794608572344</ele>
        <time>2021-01-19T14:49:27Z</time>
      </trkpt>
      <trkpt lat="47.49487" lon="1.26131">
        <ele>70.942676800781</ele>
        <time>2021-01-19T14:49:31Z</time>
      </trkpt>
      <trkpt lat="47.49493" lon="1.26138">
        <ele>70.841001009844</ele>
        <time>2021-01-19T14:49:36Z</time>
      </trkpt>
      <trkpt lat="47.495" lon="1.26144">
        <ele>73.237748064844</ele>
        <time>2021-01-19T14:49:41Z</time>
      </trkpt>
      <trkpt lat="47.49507" lon="1.26152">
        <ele>74.360290562813</ele>
        <time>2021-01-19T14:49:46Z</time>
      </trkpt>
      <trkpt lat="47.49514" lon="1.26162">
        <ele>75.927093563125</ele>
        <time>2021-01-19T14:49:51Z</time>
      </trkpt>
      <trkpt lat="47.49519" lon="1.26171">
        <ele>77.155634082656</ele>
        <time>2021-01-19T14:49:55Z</time>
      </trkpt>
      <trkpt lat="47.49524" lon="1.26181">
        <ele>77.787187218906</ele>
        <time>2021-01-19T14:50:00Z</time>
      </trkpt>
      <trkpt lat="47.4953" lon="1.26192">
        <ele>76.684558260625</ele>
        <time>2021-01-19T14:50:05Z</time>
      </trkpt>
      <trkpt lat="47.49535" lon="1.26204">
        <ele>76.434645230312</ele>
        <time>2021-01-19T14:50:10Z</time>
      </trkpt>
      <trkpt lat="47.49538" lon="1.26211">
        <ele>76.959785084375</ele>
        <time>2021-01-19T14:50:13Z</time>
      </trkpt>
      <trkpt lat="47.49542" lon="1.26221">
        <ele>78.121566818125</ele>
        <time>2021-01-19T14:50:17Z</time>
      </trkpt>
      <trkpt lat="47.49546" lon="1.26233">
        <ele>77.783777837969</ele>
        <time>2021-01-19T14:50:22Z</time>
      </trkpt>
      <trkpt lat="47.49551" lon="1.26243">
        <ele>78.41561927</ele>
        <time>2021-01-19T14:50:27Z</time>
      </trkpt>
      <trkpt lat="47.49555" lon="1.26254">
        <ele>79.775715906406</ele>
        <time>2021-01-19T14:50:32Z</time>
      </trkpt>
      <trkpt lat="47.4956" lon="1.26265">
        <ele>81.191071639219</ele>
        <time>2021-01-19T14:50:37Z</time>
      </trkpt>
      <trkpt lat="47.49566" lon="1.26275">
        <ele>82.209304210312</ele>
        <time>2021-01-19T14:50:42Z</time>
      </trkpt>
      <trkpt lat="47.49572" lon="1.26283">
        <ele>83.064664869375</ele>
        <time>2021-01-19T14:50:47Z</time>
      </trkpt>
      <trkpt lat="47.49579" lon="1.26291">
        <ele>84.182250639688</ele>
        <time>2021-01-19T14:50:52Z</time>
      </trkpt>
      <trkpt lat="47.49586" lon="1.26294">
        <ele>84.585740201875</ele>
        <time>2021-01-19T14:50:57Z</time>
      </trkpt>
      <trkpt lat="47.49595" lon="1.26298">
        <ele>86.0628879625</ele>
        <time>2021-01-19T14:51:03Z</time>
      </trkpt>
      <trkpt lat="47.49602" lon="1.26304">
        <ele>86.794866575625</ele>
        <time>2021-01-19T14:51:08Z</time>
      </trkpt>
      <trkpt lat="47.49609" lon="1.2631">
        <ele>86.248564071406</ele>
        <time>2021-01-19T14:51:13Z</time>
      </trkpt>
      <trkpt lat="47.49616" lon="1.26315">
        <ele>86.374999499375</ele>
        <time>2021-01-19T14:51:17Z</time>
      </trkpt>
      <trkpt lat="47.49624" lon="1.26322">
        <ele>86.405600616875</ele>
        <time>2021-01-19T14:51:22Z</time>
      </trkpt>
      <trkpt lat="47.49631" lon="1.26325">
        <ele>85.650456407969</ele>
        <time>2021-01-19T14:51:26Z</time>
      </trkpt>
      <trkpt lat="47.4964" lon="1.26326">
        <ele>84.884635971562</ele>
        <time>2021-01-19T14:51:31Z</time>
      </trkpt>
      <trkpt lat="47.4964" lon="1.26339">
        <ele>86.733597159844</ele>
        <time>2021-01-19T14:51:36Z</time>
      </trkpt>
      <trkpt lat="47.49634" lon="1.26347">
        <ele>86.024480975156</ele>
        <time>2021-01-19T14:51:41Z</time>
      </trkpt>
      <trkpt lat="47.49627" lon="1.26353">
        <ele>85.522323485313</ele>
        <time>2021-01-19T14:51:47Z</time>
      </trkpt>
      <trkpt lat="47.49621" lon="1.26361">
        <ele>86.602647451562</ele>
        <time>2021-01-19T14:51:53Z</time>
      </trkpt>
      <trkpt lat="47.49618" lon="1.26373">
        <ele>88.444140541094</ele>
        <time>2021-01-19T14:51:59Z</time>
      </trkpt>
      <trkpt lat="47.49616" lon="1.26385">
        <ele>88.496488860312</ele>
        <time>2021-01-19T14:52:04Z</time>
      </trkpt>
      <trkpt lat="47.49615" lon="1.26396">
        <ele>89.430600046719</ele>
        <time>2021-01-19T14:52:09Z</time>
      </trkpt>
      <trkpt lat="47.49614" lon="1.26409">
        <ele>86.844857407344</ele>
        <time>2021-01-19T14:52:14Z</time>
      </trkpt>
      <trkpt lat="47.49613" lon="1.26423">
        <ele>86.942225316719</ele>
        <time>2021-01-19T14:52:19Z</time>
      </trkpt>
      <trkpt lat="47.49613" lon="1.26434">
        <ele>88.058046363281</ele>
        <time>2021-01-19T14:52:24Z</time>
      </trkpt>
      <trkpt lat="47.49612" lon="1.26447">
        <ele>86.202998059375</ele>
        <time>2021-01-19T14:52:30Z</time>
      </trkpt>
      <trkpt lat="47.49611" lon="1.26459">
        <ele>89.2608194675</ele>
        <time>2021-01-19T14:52:36Z</time>
      </trkpt>
      <trkpt lat="47.49612" lon="1.26472">
        <ele>88.699856306406</ele>
        <time>2021-01-19T14:52:42Z</time>
      </trkpt>
      <trkpt lat="47.4961" lon="1.26485">
        <ele>90.350799202969</ele>
        <time>2021-01-19T14:52:48Z</time>
      </trkpt>
      <trkpt lat="47.4961" lon="1.26497">
        <ele>90.850358876875</ele>
        <time>2021-01-19T14:52:53Z</time>
      </trkpt>
      <trkpt lat="47.4961" lon="1.26509">
        <ele>91.536824039219</ele>
        <time>2021-01-19T14:52:58Z</time>
      </trkpt>
      <trkpt lat="47.49611" lon="1.26521">
        <ele>93.012706357344</ele>
        <time>2021-01-19T14:53:03Z</time>
      </trkpt>
      <trkpt lat="47.49612" lon="1.26532">
        <ele>93.712583738906</ele>
        <time>2021-01-19T14:53:08Z</time>
      </trkpt>
      <trkpt lat="47.49612" lon="1.26545">
        <ele>93.230527874844</ele>
        <time>2021-01-19T14:53:13Z</time>
      </trkpt>
      <trkpt lat="47.49614" lon="1.26557">
        <ele>92.996097524531</ele>
        <time>2021-01-19T14:53:18Z</time>
      </trkpt>
      <trkpt lat="47.49616" lon="1.26569">
        <ele>92.507708009062</ele>
        <time>2021-01-19T14:53:23Z</time>
      </trkpt>
      <trkpt lat="47.49617" lon="1.26576">
        <ele>93.121170769375</ele>
        <time>2021-01-19T14:53:26Z</time>
      </trkpt>
      <trkpt lat="47.49618" lon="1.26592">
        <ele>93.959139909531</ele>
        <time>2021-01-19T14:53:31Z</time>
      </trkpt>
      <trkpt lat="47.49619" lon="1.26604">
        <ele>93.039867666094</ele>
        <time>2021-01-19T14:53:35Z</time>
      </trkpt>
      <trkpt lat="47.49621" lon="1.26617">
        <ele>93.5717515825</ele>
        <time>2021-01-19T14:53:40Z</time>
      </trkpt>
      <trkpt lat="47.49624" lon="1.26626">
        <ele>96.763521293125</ele>
        <time>2021-01-19T14:53:45Z</time>
      </trkpt>
      <trkpt lat="47.49623" lon="1.26648">
        <ele>94.159660372344</ele>
        <time>2021-01-19T14:53:50Z</time>
      </trkpt>
      <trkpt lat="47.49623" lon="1.2666">
        <ele>93.65239762875</ele>
        <time>2021-01-19T14:53:54Z</time>
      </trkpt>
      <trkpt lat="47.49623" lon="1.26672">
        <ele>92.5952884025</ele>
        <time>2021-01-19T14:53:58Z</time>
      </trkpt>
      <trkpt lat="47.49625" lon="1.26685">
        <ele>96.158772769844</ele>
        <time>2021-01-19T14:54:03Z</time>
      </trkpt>
      <trkpt lat="47.49629" lon="1.26698">
        <ele>98.310245482187</ele>
        <time>2021-01-19T14:54:08Z</time>
      </trkpt>
      <trkpt lat="47.49636" lon="1.26706">
        <ele>102.06038397188</ele>
        <time>2021-01-19T14:54:14Z</time>
      </trkpt>
      <trkpt lat="47.49643" lon="1.26723">
        <ele>101.51121669531</ele>
        <time>2021-01-19T14:54:18Z</time>
      </trkpt>
      <trkpt lat="47.4965" lon="1.26733">
        <ele>105.1109934</ele>
        <time>2021-01-19T14:54:23Z</time>
      </trkpt>
      <trkpt lat="47.49656" lon="1.26746">
        <ele>103.93074012297</ele>
        <time>2021-01-19T14:54:27Z</time>
      </trkpt>
      <trkpt lat="47.49663" lon="1.26759">
        <ele>104.83942103344</ele>
        <time>2021-01-19T14:54:32Z</time>
      </trkpt>
      <trkpt lat="47.49668" lon="1.26783">
        <ele>102.65214231344</ele>
        <time>2021-01-19T14:54:36Z</time>
      </trkpt>
      <trkpt lat="47.49675" lon="1.268">
        <ele>102.15119665031</ele>
        <time>2021-01-19T14:54:41Z</time>
      </trkpt>
      <trkpt lat="47.49682" lon="1.26818">
        <ele>102.21650828688</ele>
        <time>2021-01-19T14:54:46Z</time>
      </trkpt>
      <trkpt lat="47.49686" lon="1.26828">
        <ele>104.84064676922</ele>
        <time>2021-01-19T14:54:50Z</time>
      </trkpt>
      <trkpt lat="47.49691" lon="1.26841">
        <ele>105.92786730203</ele>
        <time>2021-01-19T14:54:55Z</time>
      </trkpt>
      <trkpt lat="47.49692" lon="1.26874">
        <ele>94.196732210156</ele>
        <time>2021-01-19T14:55:00Z</time>
      </trkpt>
      <trkpt lat="47.49694" lon="1.2689">
        <ele>93.942094263125</ele>
        <time>2021-01-19T14:55:04Z</time>
      </trkpt>
      <trkpt lat="47.49696" lon="1.26906">
        <ele>93.78082259</ele>
        <time>2021-01-19T14:55:08Z</time>
      </trkpt>
      <trkpt lat="47.49699" lon="1.26924">
        <ele>96.647207362656</ele>
        <time>2021-01-19T14:55:12Z</time>
      </trkpt>
      <trkpt lat="47.497" lon="1.2694">
        <ele>97.134741475625</ele>
        <time>2021-01-19T14:55:16Z</time>
      </trkpt>
      <trkpt lat="47.49704" lon="1.26958">
        <ele>96.786547598906</ele>
        <time>2021-01-19T14:55:21Z</time>
      </trkpt>
      <trkpt lat="47.49707" lon="1.26974">
        <ele>97.694021551719</ele>
        <time>2021-01-19T14:55:26Z</time>
      </trkpt>
      <trkpt lat="47.4971" lon="1.26986">
        <ele>99.773182039063</ele>
        <time>2021-01-19T14:55:30Z</time>
      </trkpt>
      <trkpt lat="47.49712" lon="1.27">
        <ele>97.615961441406</ele>
        <time>2021-01-19T14:55:33Z</time>
      </trkpt>
      <trkpt lat="47.49712" lon="1.27029">
        <ele>94.0812625975</ele>
        <time>2021-01-19T14:55:38Z</time>
      </trkpt>
      <trkpt lat="47.49714" lon="1.27048">
        <ele>93.13455729375</ele>
        <time>2021-01-19T14:55:42Z</time>
      </trkpt>
      <trkpt lat="47.49718" lon="1.27066">
        <ele>94.885324965312</ele>
        <time>2021-01-19T14:55:47Z</time>
      </trkpt>
      <trkpt lat="47.4972" lon="1.27087">
        <ele>95.839514047812</ele>
        <time>2021-01-19T14:55:51Z</time>
      </trkpt>
      <trkpt lat="47.49724" lon="1.27107">
        <ele>98.871690504844</ele>
        <time>2021-01-19T14:55:56Z</time>
      </trkpt>
      <trkpt lat="47.49727" lon="1.27124">
        <ele>100.24513512047</ele>
        <time>2021-01-19T14:56:00Z</time>
      </trkpt>
      <trkpt lat="47.4973" lon="1.27141">
        <ele>100.90553332078</ele>
        <time>2021-01-19T14:56:04Z</time>
      </trkpt>
      <trkpt lat="47.49733" lon="1.27164">
        <ele>96.01517990625</ele>
        <time>2021-01-19T14:56:08Z</time>
      </trkpt>
      <trkpt lat="47.49737" lon="1.27182">
        <ele>96.735136263906</ele>
        <time>2021-01-19T14:56:12Z</time>
      </trkpt>
      <trkpt lat="47.49743" lon="1.27198">
        <ele>97.550008374375</ele>
        <time>2021-01-19T14:56:16Z</time>
      </trkpt>
      <trkpt lat="47.49749" lon="1.27215">
        <ele>98.282731484531</ele>
        <time>2021-01-19T14:56:21Z</time>
      </trkpt>
      <trkpt lat="47.49756" lon="1.27229">
        <ele>95.160215910156</ele>
        <time>2021-01-19T14:56:26Z</time>
      </trkpt>
      <trkpt lat="47.4976" lon="1.2724">
        <ele>94.498157304844</ele>
        <time>2021-01-19T14:56:30Z</time>
      </trkpt>
      <trkpt lat="47.49765" lon="1.27249">
        <ele>93.9310354075</ele>
        <time>2021-01-19T14:56:43Z</time>
      </trkpt>
      <trkpt lat="47.49762" lon="1.27261">
        <ele>94.310066078125</ele>
        <time>2021-01-19T14:59:09Z</time>
      </trkpt>
      <trkpt lat="47.49769" lon="1.27269">
        <ele>93.403526601719</ele>
        <time>2021-01-19T14:59:15Z</time>
      </trkpt>
      <trkpt lat="47.49776" lon="1.27273">
        <ele>93.773519743125</ele>
        <time>2021-01-19T14:59:22Z</time>
      </trkpt>
      <trkpt lat="47.49783" lon="1.27281">
        <ele>98.955619113594</ele>
        <time>2021-01-19T14:59:29Z</time>
      </trkpt>
      <trkpt lat="47.4979" lon="1.27287">
        <ele>101.94526115641</ele>
        <time>2021-01-19T14:59:33Z</time>
      </trkpt>
      <trkpt lat="47.49798" lon="1.27291">
        <ele>105.70370123219</ele>
        <time>2021-01-19T14:59:38Z</time>
      </trkpt>
      <trkpt lat="47.49805" lon="1.27296">
        <ele>106.76307014344</ele>
        <time>2021-01-19T14:59:42Z</time>
      </trkpt>
      <trkpt lat="47.49811" lon="1.27304">
        <ele>107.98180912281</ele>
        <time>2021-01-19T14:59:47Z</time>
      </trkpt>
      <trkpt lat="47.49819" lon="1.27308">
        <ele>110.0562376825</ele>
        <time>2021-01-19T14:59:53Z</time>
      </trkpt>
      <trkpt lat="47.49826" lon="1.27315">
        <ele>110.80082573297</ele>
        <time>2021-01-19T14:59:57Z</time>
      </trkpt>
      <trkpt lat="47.49833" lon="1.27322">
        <ele>108.71248668609</ele>
        <time>2021-01-19T15:00:01Z</time>
      </trkpt>
      <trkpt lat="47.49842" lon="1.27331">
        <ele>106.48231122094</ele>
        <time>2021-01-19T15:00:06Z</time>
      </trkpt>
      <trkpt lat="47.49851" lon="1.27339">
        <ele>107.60524885469</ele>
        <time>2021-01-19T15:00:10Z</time>
      </trkpt>
      <trkpt lat="47.49859" lon="1.27348">
        <ele>105.18467953719</ele>
        <time>2021-01-19T15:00:14Z</time>
      </trkpt>
      <trkpt lat="47.49872" lon="1.27358">
        <ele>106.86925112844</ele>
        <time>2021-01-19T15:00:19Z</time>
      </trkpt>
      <trkpt lat="47.49883" lon="1.27365">
        <ele>106.82269061812</ele>
        <time>2021-01-19T15:00:23Z</time>
      </trkpt>
      <trkpt lat="47.49895" lon="1.27375">
        <ele>107.96722938688</ele>
        <time>2021-01-19T15:00:28Z</time>
      </trkpt>
      <trkpt lat="47.49906" lon="1.27387">
        <ele>109.72396212797</ele>
        <time>2021-01-19T15:00:32Z</time>
      </trkpt>
      <trkpt lat="47.49917" lon="1.27397">
        <ele>106.06908169531</ele>
        <time>2021-01-19T15:00:36Z</time>
      </trkpt>
      <trkpt lat="47.49931" lon="1.27408">
        <ele>103.89384420531</ele>
        <time>2021-01-19T15:00:40Z</time>
      </trkpt>
      <trkpt lat="47.49941" lon="1.27415">
        <ele>103.29526042188</ele>
        <time>2021-01-19T15:00:43Z</time>
      </trkpt>
      <trkpt lat="47.49958" lon="1.27424">
        <ele>106.77816943141</ele>
        <time>2021-01-19T15:00:48Z</time>
      </trkpt>
      <trkpt lat="47.49971" lon="1.2743">
        <ele>109.2097895</ele>
        <time>2021-01-19T15:00:52Z</time>
      </trkpt>
      <trkpt lat="47.49985" lon="1.27447">
        <ele>102.40520659391</ele>
        <time>2021-01-19T15:00:56Z</time>
      </trkpt>
      <trkpt lat="47.50001" lon="1.27471">
        <ele>100.56481933594</ele>
        <time>2021-01-19T15:01:01Z</time>
      </trkpt>
      <trkpt lat="47.5001" lon="1.27491">
        <ele>100.46435546875</ele>
        <time>2021-01-19T15:01:05Z</time>
      </trkpt>
      <trkpt lat="47.50023" lon="1.27508">
        <ele>100.78527832031</ele>
        <time>2021-01-19T15:01:10Z</time>
      </trkpt>
      <trkpt lat="47.50032" lon="1.27521">
        <ele>104.31268310547</ele>
        <time>2021-01-19T15:01:15Z</time>
      </trkpt>
      <trkpt lat="47.50037" lon="1.27533">
        <ele>99.138549804688</ele>
        <time>2021-01-19T15:01:18Z</time>
      </trkpt>
      <trkpt lat="47.50048" lon="1.27552">
        <ele>94.249450683594</ele>
        <time>2021-01-19T15:01:23Z</time>
      </trkpt>
      <trkpt lat="47.50057" lon="1.27567">
        <ele>91.017150878906</ele>
        <time>2021-01-19T15:01:27Z</time>
      </trkpt>
      <trkpt lat="47.50058" lon="1.27587">
        <ele>88.860656738281</ele>
        <time>2021-01-19T15:01:31Z</time>
      </trkpt>
      <trkpt lat="47.50059" lon="1.27604">
        <ele>85.319885253906</ele>
        <time>2021-01-19T15:01:35Z</time>
      </trkpt>
      <trkpt lat="47.50059" lon="1.27625">
        <ele>84.36767578125</ele>
        <time>2021-01-19T15:01:40Z</time>
      </trkpt>
      <trkpt lat="47.50059" lon="1.27644">
        <ele>86.091430664062</ele>
        <time>2021-01-19T15:01:44Z</time>
      </trkpt>
      <trkpt lat="47.50062" lon="1.27663">
        <ele>87.559265136719</ele>
        <time>2021-01-19T15:01:48Z</time>
      </trkpt>
      <trkpt lat="47.50063" lon="1.27683">
        <ele>88.689514160156</ele>
        <time>2021-01-19T15:01:52Z</time>
      </trkpt>
      <trkpt lat="47.50067" lon="1.27699">
        <ele>90.96923828125</ele>
        <time>2021-01-19T15:01:56Z</time>
      </trkpt>
      <trkpt lat="47.50069" lon="1.2772">
        <ele>92.247436523438</ele>
        <time>2021-01-19T15:02:01Z</time>
      </trkpt>
      <trkpt lat="47.50069" lon="1.27738">
        <ele>93.750915527344</ele>
        <time>2021-01-19T15:02:05Z</time>
      </trkpt>
      <trkpt lat="47.50065" lon="1.27754">
        <ele>94.107666015625</ele>
        <time>2021-01-19T15:02:09Z</time>
      </trkpt>
      <trkpt lat="47.50064" lon="1.27774">
        <ele>94.297668457031</ele>
        <time>2021-01-19T15:02:13Z</time>
      </trkpt>
      <trkpt lat="47.5006" lon="1.27798">
        <ele>94.310424804688</ele>
        <time>2021-01-19T15:02:18Z</time>
      </trkpt>
      <trkpt lat="47.50051" lon="1.27823">
        <ele>93.067138671875</ele>
        <time>2021-01-19T15:02:23Z</time>
      </trkpt>
      <trkpt lat="47.50046" lon="1.27842">
        <ele>92.478393554688</ele>
        <time>2021-01-19T15:02:27Z</time>
      </trkpt>
      <trkpt lat="47.5004" lon="1.27868">
        <ele>91.638854980469</ele>
        <time>2021-01-19T15:02:32Z</time>
      </trkpt>
      <trkpt lat="47.50038" lon="1.27888">
        <ele>93.125061035156</ele>
        <time>2021-01-19T15:02:36Z</time>
      </trkpt>
      <trkpt lat="47.50032" lon="1.27914">
        <ele>92.755126953125</ele>
        <time>2021-01-19T15:02:41Z</time>
      </trkpt>
      <trkpt lat="47.50025" lon="1.27938">
        <ele>94.711364746094</ele>
        <time>2021-01-19T15:02:46Z</time>
      </trkpt>
      <trkpt lat="47.50019" lon="1.27955">
        <ele>94.57568359375</ele>
        <time>2021-01-19T15:02:50Z</time>
      </trkpt>
      <trkpt lat="47.50018" lon="1.27971">
        <ele>94.495483398438</ele>
        <time>2021-01-19T15:02:55Z</time>
      </trkpt>
      <trkpt lat="47.50021" lon="1.27989">
        <ele>89.187744140625</ele>
        <time>2021-01-19T15:02:59Z</time>
      </trkpt>
      <trkpt lat="47.50026" lon="1.28007">
        <ele>89.617431640625</ele>
        <time>2021-01-19T15:03:03Z</time>
      </trkpt>
      <trkpt lat="47.50033" lon="1.28026">
        <ele>90.608642578125</ele>
        <time>2021-01-19T15:03:07Z</time>
      </trkpt>
      <trkpt lat="47.50041" lon="1.28043">
        <ele>88.399963378906</ele>
        <time>2021-01-19T15:03:11Z</time>
      </trkpt>
      <trkpt lat="47.50049" lon="1.28064">
        <ele>90.228637695312</ele>
        <time>2021-01-19T15:03:16Z</time>
      </trkpt>
      <trkpt lat="47.50058" lon="1.28085">
        <ele>90.279113769531</ele>
        <time>2021-01-19T15:03:20Z</time>
      </trkpt>
      <trkpt lat="47.50066" lon="1.28106">
        <ele>91.733947753906</ele>
        <time>2021-01-19T15:03:25Z</time>
      </trkpt>
      <trkpt lat="47.50074" lon="1.28121">
        <ele>95.988464355469</ele>
        <time>2021-01-19T15:03:29Z</time>
      </trkpt>
      <trkpt lat="47.50079" lon="1.28138">
        <ele>97.6865234375</ele>
        <time>2021-01-19T15:03:33Z</time>
      </trkpt>
      <trkpt lat="47.50084" lon="1.28152">
        <ele>96.599853515625</ele>
        <time>2021-01-19T15:03:37Z</time>
      </trkpt>
      <trkpt lat="47.50093" lon="1.28166">
        <ele>97.325622558594</ele>
        <time>2021-01-19T15:03:42Z</time>
      </trkpt>
      <trkpt lat="47.50099" lon="1.28184">
        <ele>94.973449707031</ele>
        <time>2021-01-19T15:03:47Z</time>
      </trkpt>
      <trkpt lat="47.50106" lon="1.28202">
        <ele>93.645385742188</ele>
        <time>2021-01-19T15:03:52Z</time>
      </trkpt>
      <trkpt lat="47.5011" lon="1.28213">
        <ele>93.489807128906</ele>
        <time>2021-01-19T15:03:56Z</time>
      </trkpt>
      <trkpt lat="47.50117" lon="1.28232">
        <ele>93.810485839844</ele>
        <time>2021-01-19T15:04:01Z</time>
      </trkpt>
      <trkpt lat="47.50122" lon="1.28247">
        <ele>95.221923828125</ele>
        <time>2021-01-19T15:04:05Z</time>
      </trkpt>
      <trkpt lat="47.50128" lon="1.28272">
        <ele>95.394165039062</ele>
        <time>2021-01-19T15:04:10Z</time>
      </trkpt>
      <trkpt lat="47.50132" lon="1.28283">
        <ele>95.376892089844</ele>
        <time>2021-01-19T15:04:13Z</time>
      </trkpt>
      <trkpt lat="47.50137" lon="1.28294">
        <ele>98.623901367188</ele>
        <time>2021-01-19T15:04:17Z</time>
      </trkpt>
      <trkpt lat="47.50145" lon="1.28308">
        <ele>102.17236328125</ele>
        <time>2021-01-19T15:04:22Z</time>
      </trkpt>
      <trkpt lat="47.5015" lon="1.28321">
        <ele>105.25213623047</ele>
        <time>2021-01-19T15:04:26Z</time>
      </trkpt>
      <trkpt lat="47.50155" lon="1.28349">
        <ele>100.58605957031</ele>
        <time>2021-01-19T15:04:30Z</time>
      </trkpt>
      <trkpt lat="47.50157" lon="1.28365">
        <ele>99.874755859375</ele>
        <time>2021-01-19T15:04:33Z</time>
      </trkpt>
      <trkpt lat="47.50158" lon="1.28404">
        <ele>94.4150390625</ele>
        <time>2021-01-19T15:04:38Z</time>
      </trkpt>
      <trkpt lat="47.50156" lon="1.28426">
        <ele>95.142700195312</ele>
        <time>2021-01-19T15:04:42Z</time>
      </trkpt>
      <trkpt lat="47.50154" lon="1.28453">
        <ele>94.946899414062</ele>
        <time>2021-01-19T15:04:47Z</time>
      </trkpt>
      <trkpt lat="47.50153" lon="1.28472">
        <ele>93.7421875</ele>
        <time>2021-01-19T15:04:51Z</time>
      </trkpt>
      <trkpt lat="47.50152" lon="1.28491">
        <ele>92.308166503906</ele>
        <time>2021-01-19T15:04:55Z</time>
      </trkpt>
      <trkpt lat="47.50149" lon="1.2851">
        <ele>91.55810546875</ele>
        <time>2021-01-19T15:04:59Z</time>
      </trkpt>
      <trkpt lat="47.50148" lon="1.28534">
        <ele>93.107971191406</ele>
        <time>2021-01-19T15:05:04Z</time>
      </trkpt>
      <trkpt lat="47.50147" lon="1.28558">
        <ele>93.263305664062</ele>
        <time>2021-01-19T15:05:09Z</time>
      </trkpt>
      <trkpt lat="47.50145" lon="1.28576">
        <ele>94.393127441406</ele>
        <time>2021-01-19T15:05:13Z</time>
      </trkpt>
      <trkpt lat="47.50138" lon="1.28598">
        <ele>95.825439453125</ele>
        <time>2021-01-19T15:05:18Z</time>
      </trkpt>
      <trkpt lat="47.50133" lon="1.28615">
        <ele>97.811706542969</ele>
        <time>2021-01-19T15:05:22Z</time>
      </trkpt>
      <trkpt lat="47.50124" lon="1.28629">
        <ele>95.601928710938</ele>
        <time>2021-01-19T15:05:26Z</time>
      </trkpt>
      <trkpt lat="47.50119" lon="1.28644">
        <ele>97.277465820312</ele>
        <time>2021-01-19T15:05:30Z</time>
      </trkpt>
      <trkpt lat="47.50114" lon="1.28657">
        <ele>96.652526855469</ele>
        <time>2021-01-19T15:05:34Z</time>
      </trkpt>
      <trkpt lat="47.50103" lon="1.28673">
        <ele>96.440612792969</ele>
        <time>2021-01-19T15:05:39Z</time>
      </trkpt>
      <trkpt lat="47.50093" lon="1.28687">
        <ele>93.984985351562</ele>
        <time>2021-01-19T15:05:43Z</time>
      </trkpt>
      <trkpt lat="47.50087" lon="1.28701">
        <ele>96.508911132812</ele>
        <time>2021-01-19T15:05:47Z</time>
      </trkpt>
      <trkpt lat="47.50081" lon="1.28714">
        <ele>99.008239746094</ele>
        <time>2021-01-19T15:05:51Z</time>
      </trkpt>
      <trkpt lat="47.50072" lon="1.28728">
        <ele>97.697204589844</ele>
        <time>2021-01-19T15:05:55Z</time>
      </trkpt>
      <trkpt lat="47.50063" lon="1.28741">
        <ele>96.46240234375</ele>
        <time>2021-01-19T15:05:59Z</time>
      </trkpt>
      <trkpt lat="47.50053" lon="1.28755">
        <ele>93.484741210938</ele>
        <time>2021-01-19T15:06:03Z</time>
      </trkpt>
      <trkpt lat="47.50041" lon="1.28771">
        <ele>92.037658691406</ele>
        <time>2021-01-19T15:06:08Z</time>
      </trkpt>
      <trkpt lat="47.50032" lon="1.28783">
        <ele>90.483642578125</ele>
        <time>2021-01-19T15:06:12Z</time>
      </trkpt>
      <trkpt lat="47.50025" lon="1.28792">
        <ele>90.879333496094</ele>
        <time>2021-01-19T15:06:16Z</time>
      </trkpt>
      <trkpt lat="47.50017" lon="1.28804">
        <ele>94.186401367188</ele>
        <time>2021-01-19T15:06:20Z</time>
      </trkpt>
      <trkpt lat="47.5001" lon="1.2882">
        <ele>93.758728027344</ele>
        <time>2021-01-19T15:06:25Z</time>
      </trkpt>
      <trkpt lat="47.50004" lon="1.28827">
        <ele>93.045654296875</ele>
        <time>2021-01-19T15:06:28Z</time>
      </trkpt>
      <trkpt lat="47.4999" lon="1.28834">
        <ele>91.89168972375</ele>
        <time>2021-01-19T15:06:33Z</time>
      </trkpt>
      <trkpt lat="47.49981" lon="1.28838">
        <ele>90.746963979219</ele>
        <time>2021-01-19T15:06:36Z</time>
      </trkpt>
      <trkpt lat="47.49967" lon="1.28845">
        <ele>91.371894220469</ele>
        <time>2021-01-19T15:06:41Z</time>
      </trkpt>
      <trkpt lat="47.49954" lon="1.2885">
        <ele>92.147757807969</ele>
        <time>2021-01-19T15:06:46Z</time>
      </trkpt>
      <trkpt lat="47.49944" lon="1.28854">
        <ele>94.905579794063</ele>
        <time>2021-01-19T15:06:50Z</time>
      </trkpt>
      <trkpt lat="47.49931" lon="1.28858">
        <ele>95.776304094375</ele>
        <time>2021-01-19T15:06:55Z</time>
      </trkpt>
      <trkpt lat="47.49921" lon="1.28861">
        <ele>96.43873977125</ele>
        <time>2021-01-19T15:06:59Z</time>
      </trkpt>
      <trkpt lat="47.49915" lon="1.28865">
        <ele>97.493134716094</ele>
        <time>2021-01-19T15:07:02Z</time>
      </trkpt>
      <trkpt lat="47.49908" lon="1.28868">
        <ele>97.052891709844</ele>
        <time>2021-01-19T15:07:05Z</time>
      </trkpt>
      <trkpt lat="47.49894" lon="1.28876">
        <ele>98.412494046875</ele>
        <time>2021-01-19T15:07:10Z</time>
      </trkpt>
      <trkpt lat="47.49876" lon="1.28881">
        <ele>96.540696136875</ele>
        <time>2021-01-19T15:07:15Z</time>
      </trkpt>
      <trkpt lat="47.49865" lon="1.28884">
        <ele>96.4096421825</ele>
        <time>2021-01-19T15:07:18Z</time>
      </trkpt>
      <trkpt lat="47.49852" lon="1.28892">
        <ele>100.05921783172</ele>
        <time>2021-01-19T15:07:23Z</time>
      </trkpt>
      <trkpt lat="47.49839" lon="1.28896">
        <ele>102.02213901313</ele>
        <time>2021-01-19T15:07:28Z</time>
      </trkpt>
      <trkpt lat="47.49826" lon="1.28903">
        <ele>101.44274267125</ele>
        <time>2021-01-19T15:07:33Z</time>
      </trkpt>
      <trkpt lat="47.49814" lon="1.28905">
        <ele>97.189083963125</ele>
        <time>2021-01-19T15:07:37Z</time>
      </trkpt>
      <trkpt lat="47.49803" lon="1.28908">
        <ele>96.860040001875</ele>
        <time>2021-01-19T15:07:41Z</time>
      </trkpt>
      <trkpt lat="47.49789" lon="1.28913">
        <ele>98.71568469375</ele>
        <time>2021-01-19T15:07:46Z</time>
      </trkpt>
      <trkpt lat="47.4978" lon="1.28918">
        <ele>99.913789941875</ele>
        <time>2021-01-19T15:07:50Z</time>
      </trkpt>
      <trkpt lat="47.49769" lon="1.28926">
        <ele>100.57100027047</ele>
        <time>2021-01-19T15:07:54Z</time>
      </trkpt>
      <trkpt lat="47.49758" lon="1.28935">
        <ele>100.09151672906</ele>
        <time>2021-01-19T15:07:58Z</time>
      </trkpt>
      <trkpt lat="47.49748" lon="1.28942">
        <ele>97.781984742656</ele>
        <time>2021-01-19T15:08:02Z</time>
      </trkpt>
      <trkpt lat="47.49737" lon="1.28949">
        <ele>98.348237888437</ele>
        <time>2021-01-19T15:08:06Z</time>
      </trkpt>
      <trkpt lat="47.49725" lon="1.28956">
        <ele>98.943045927344</ele>
        <time>2021-01-19T15:08:11Z</time>
      </trkpt>
      <trkpt lat="47.49714" lon="1.28961">
        <ele>99.350055030469</ele>
        <time>2021-01-19T15:08:15Z</time>
      </trkpt>
      <trkpt lat="47.49701" lon="1.28969">
        <ele>97.943486095937</ele>
        <time>2021-01-19T15:08:20Z</time>
      </trkpt>
      <trkpt lat="47.49691" lon="1.28976">
        <ele>99.540739225938</ele>
        <time>2021-01-19T15:08:24Z</time>
      </trkpt>
      <trkpt lat="47.49682" lon="1.28982">
        <ele>98.503153940625</ele>
        <time>2021-01-19T15:08:28Z</time>
      </trkpt>
      <trkpt lat="47.49672" lon="1.28986">
        <ele>99.71391386125</ele>
        <time>2021-01-19T15:08:32Z</time>
      </trkpt>
      <trkpt lat="47.49662" lon="1.28992">
        <ele>100.480635905</ele>
        <time>2021-01-19T15:08:36Z</time>
      </trkpt>
      <trkpt lat="47.49648" lon="1.28994">
        <ele>98.4068270375</ele>
        <time>2021-01-19T15:08:41Z</time>
      </trkpt>
      <trkpt lat="47.49641" lon="1.28988">
        <ele>92.863493972344</ele>
        <time>2021-01-19T15:08:46Z</time>
      </trkpt>
      <trkpt lat="47.49635" lon="1.28978">
        <ele>91.408603093438</ele>
        <time>2021-01-19T15:10:07Z</time>
      </trkpt>
      <trkpt lat="47.49635" lon="1.28977">
        <ele>90.878635911719</ele>
        <time>2021-01-19T15:18:14Z</time>
      </trkpt>
      <trkpt lat="47.49633" lon="1.28948">
        <ele>80.400895378906</ele>
        <time>2021-01-19T15:20:27Z</time>
      </trkpt>
      <trkpt lat="47.49638" lon="1.28932">
        <ele>98.361685667969</ele>
        <time>2021-01-19T15:20:31Z</time>
      </trkpt>
      <trkpt lat="47.49646" lon="1.28935">
        <ele>98.90626115625</ele>
        <time>2021-01-19T15:20:37Z</time>
      </trkpt>
      <trkpt lat="47.49652" lon="1.28943">
        <ele>101.38447370484</ele>
        <time>2021-01-19T15:20:43Z</time>
      </trkpt>
      <trkpt lat="47.49645" lon="1.28946">
        <ele>97.341566765781</ele>
        <time>2021-01-19T15:21:48Z</time>
      </trkpt>
      <trkpt lat="47.49642" lon="1.28948">
        <ele>92.010825804375</ele>
        <time>2021-01-19T15:33:17Z</time>
      </trkpt>
      <trkpt lat="47.49642" lon="1.28948">
        <ele>91.28890573625</ele>
        <time>2021-01-19T15:34:05Z</time>
      </trkpt>
      <trkpt lat="47.49642" lon="1.28948">
        <ele>91.28890573625</ele>
        <time>2021-01-19T15:34:05Z</time>
      </trkpt>
    </trkseg>
  </trk>
</gpx>